Provisional Data: East Fork First Fork Sinnemahoning Creek near Logue, PA


Please select a monitoring station.
Please select start date.
Please select start date.

Toggle Unit: C/F Toggle Unit: C/F
Sample Time Temperature (C) Temperature (F) Specific Conductivity (mS/cm) pH   Turbidity (NTU+) DO (mg/L)
1/12/2021 12:00:00 AM 2.54 36.572 0.041 9.15 2.06 13.68
1/12/2021 12:15:00 AM 2.53 36.554 0.041 9.2 2.05 13.69
1/12/2021 12:30:00 AM 2.52 36.536 0.041 9.22 2.01 13.69
1/12/2021 12:45:00 AM 2.51 36.518 0.041 9.24 2.02 13.7
1/12/2021 1:00:00 AM 2.51 36.518 0.041 9.26 2.55 13.7
1/12/2021 1:15:00 AM 2.51 36.518 0.041 9.39 2.91 13.7
1/12/2021 1:30:00 AM 2.51 36.518 0.041 9.36 4.48 13.66
1/12/2021 1:45:00 AM 2.51 36.518 0.041 9.27 6.46 13.67
1/12/2021 2:00:00 AM 2.51 36.518 0.041 9.32 2.84 13.71
1/12/2021 2:15:00 AM 2.51 36.518 0.041 9.35 2.37 13.7
1/12/2021 2:30:00 AM 2.52 36.536 0.041 9.39 2.58 13.71
1/12/2021 2:45:00 AM 2.51 36.518 0.041 9.41 2.27 13.71
1/12/2021 3:00:00 AM 2.5 36.5 0.041 9.42 2.09 13.71
1/12/2021 3:15:00 AM 2.49 36.482 0.041 9.43 2.12 13.72
1/12/2021 3:30:00 AM 2.48 36.464 0.041 9.45 2.3 13.71
1/12/2021 3:45:00 AM 2.47 36.446 0.041 9.46 4.88 13.71
1/12/2021 4:00:00 AM 2.46 36.428 0.042 9.52 4.72 13.72
1/12/2021 4:15:00 AM 2.44 36.392 0.042 9.48 2.08 13.72
1/12/2021 4:30:00 AM 2.44 36.392 0.041 9.49 3.92 13.72
1/12/2021 4:45:00 AM 2.41 36.338 0.041 9.52 2.3 13.73
1/12/2021 5:00:00 AM 2.39 36.302 0.042 9.52 2.46 13.74
1/12/2021 5:15:00 AM 2.38 36.284 0.042 9.51 25.63 13.75
1/12/2021 5:30:00 AM 2.37 36.266 0.042 9.54 2.22 13.75
1/12/2021 5:45:00 AM 2.37 36.266 0.042 9.54 2.65 13.75
1/12/2021 6:00:00 AM 2.35 36.23 0.042 9.53 2.26 13.75
1/12/2021 6:15:00 AM 2.32 36.176 0.042 9.53 2.24 13.75
1/12/2021 6:30:00 AM 2.3 36.14 0.042 9.56 2.24 13.76
1/12/2021 6:45:00 AM 2.3 36.14 0.042 9.59 2.24 13.77
1/12/2021 7:00:00 AM 2.3 36.14 0.042 9.61 2.5 13.76
1/12/2021 7:15:00 AM 2.28 36.104 0.042 9.64 2.2 13.78
1/12/2021 7:30:00 AM 2.27 36.086 0.042 9.65 2.18 13.79
1/12/2021 7:45:00 AM 2.26 36.068 0.042 9.67 2.98 13.8
1/12/2021 8:00:00 AM 2.25 36.05 0.042 9.67 2.52 13.81
1/12/2021 8:15:00 AM 2.25 36.05 0.042 9.69 1.94 13.81
1/12/2021 8:30:00 AM 2.25 36.05 0.042 9.71 1.97 13.84
1/12/2021 8:45:00 AM 2.25 36.05 0.042 9.74 1.98 13.86
1/12/2021 9:00:00 AM 2.26 36.068 0.042 9.77 2.03 13.87
1/12/2021 9:15:00 AM 2.27 36.086 0.042 9.79 2.06 13.89
1/12/2021 9:30:00 AM 2.29 36.122 0.042 9.79 2 13.9
1/12/2021 9:45:00 AM 2.31 36.158 0.041 9.82 2 13.93
1/12/2021 10:00:00 AM 2.37 36.266 0.041 9.87 1.97 13.94
1/12/2021 10:15:00 AM 2.39 36.302 0.041 9.91 2.02 13.92
1/12/2021 10:30:00 AM 2.43 36.374 0.041 9.92 1.96 13.93
1/12/2021 10:45:00 AM 2.49 36.482 0.041 9.95 1.9 13.92
1/12/2021 11:00:00 AM 2.55 36.59 0.041 9.96 1.9 13.91
1/12/2021 11:15:00 AM 2.61 36.698 0.041 9.96 1.91 13.9
1/12/2021 11:30:00 AM 2.66 36.788 0.041 9.97 1.84 13.89
1/12/2021 11:45:00 AM 2.71 36.878 0.041 9.98 2.21 13.88
1/12/2021 12:00:00 PM 2.77 36.986 0.041 9.98 2.15 13.85
1/12/2021 12:15:00 PM 2.84 37.112 0.041 10.01 2.04 13.83
1/12/2021 12:30:00 PM 2.91 37.238 0.041 10 2.78 13.81
1/12/2021 12:45:00 PM 2.95 37.31 0.041 10.01 2.11 13.79
1/12/2021 1:00:00 PM 2.98 37.364 0.041 10 2.07 13.77
1/12/2021 1:15:00 PM 3.01 37.418 0.041 10.01 2.7 13.75
1/12/2021 1:30:00 PM 3.04 37.472 0.041 10.02 1.92 13.74
1/12/2021 1:45:00 PM 3.06 37.508 0.041 10.05 2.21 13.72
1/12/2021 2:00:00 PM 3.09 37.562 0.041 10.08 1.98 13.72
1/12/2021 2:15:00 PM 3.11 37.598 0.041 10.11 1.92 13.7
1/12/2021 2:30:00 PM 3.12 37.616 0.041 10.1 2.18 13.7
1/12/2021 2:45:00 PM 3.12 37.616 0.041 10.05 2.14 13.68
1/12/2021 3:00:00 PM 3.12 37.616 0.041 10.05 2.43 13.67
1/12/2021 3:15:00 PM 3.1 37.58 0.041 10.07 2.06 13.66
1/12/2021 3:30:00 PM 3.08 37.544 0.041 10.11 7.31 13.66
1/12/2021 3:45:00 PM 3.05 37.49 0.041 10.11 2.23 13.65
1/12/2021 4:00:00 PM 3.02 37.436 0.041 10.11 2.22 13.64
1/12/2021 4:15:00 PM 2.99 37.382 0.041 10.14 2.23 13.64
1/12/2021 4:30:00 PM 2.95 37.31 0.041 10.17 2.12 13.63
1/12/2021 4:45:00 PM 2.92 37.256 0.041 10.18 2.2 13.63
1/12/2021 5:00:00 PM 2.89 37.202 0.041 10.17 2.18 13.62
1/12/2021 5:15:00 PM 2.86 37.148 0.041 10.14 4.12 13.62
1/12/2021 5:30:00 PM 2.84 37.112 0.041 10.15 2.79 13.61
1/12/2021 5:45:00 PM 2.82 37.076 0.041 10.16 2.33 13.61
1/12/2021 6:00:00 PM 2.8 37.04 0.041 10.16 1.89 13.61
1/12/2021 6:15:00 PM 2.78 37.004 0.041 10.15 2 13.6
1/12/2021 6:30:00 PM 2.76 36.968 0.041 10.15 1.94 13.61
1/12/2021 6:45:00 PM 2.75 36.95 0.041 10.17 2.03 13.61
1/12/2021 7:00:00 PM 2.73 36.914 0.041 10.17 1.92 13.61
1/12/2021 7:15:00 PM 2.72 36.896 0.041 10.17 2.02 13.61
1/12/2021 7:30:00 PM 2.7 36.86 0.041 10.17 2.29 13.62
1/12/2021 7:45:00 PM 2.69 36.842 0.041 10.18 2.07 13.62
1/12/2021 8:00:00 PM 2.68 36.824 0.042 10.19 2.17 13.63
1/12/2021 8:15:00 PM 2.67 36.806 0.042 10.2 1.99 13.63
1/12/2021 8:30:00 PM 2.66 36.788 0.042 10.21 2.54 13.64
1/12/2021 8:45:00 PM 2.64 36.752 0.042 10.23 2.03 13.64
1/12/2021 9:00:00 PM 2.63 36.734 0.042 10.26 2.2 13.65
1/12/2021 9:15:00 PM 2.62 36.716 0.042 10.29 2.02 13.64
1/12/2021 9:30:00 PM 2.61 36.698 0.042 10.34 2.01 13.65
1/12/2021 9:45:00 PM 2.61 36.698 0.042 10.37 2.03 13.65
1/12/2021 10:00:00 PM 2.6 36.68 0.042 10.39 2.08 13.65
1/12/2021 10:15:00 PM 2.59 36.662 0.042 10.45 1.98 13.65
1/12/2021 10:30:00 PM 2.58 36.644 0.042 10.49 2.12 13.66
1/12/2021 10:45:00 PM 2.56 36.608 0.042 10.5 2.04 13.67
1/12/2021 11:00:00 PM 2.55 36.59 0.042 10.52 1.97 13.67
1/12/2021 11:15:00 PM 2.54 36.572 0.042 10.54 1.98 13.67
1/12/2021 11:30:00 PM 2.54 36.572 0.042 10.57 2.06 13.68
1/12/2021 11:45:00 PM 2.53 36.554 0.042 10.59 2.09 13.67
1/13/2021 12:00:00 AM 2.53 36.554 0.042 10.57 2.02 13.68
1/13/2021 12:15:00 AM 2.52 36.536 0.042 10.56 2.05 13.67
1/13/2021 12:30:00 AM 2.51 36.518 0.042 10.54 1.99 13.68
1/13/2021 12:45:00 AM 2.5 36.5 0.042 10.54 1.96 13.68
1/13/2021 1:00:00 AM 2.5 36.5 0.042 10.54 2.51 13.68
1/13/2021 1:15:00 AM 2.48 36.464 0.042 10.54 2.15 13.69
1/13/2021 1:30:00 AM 2.47 36.446 0.042 10.58 2.18 13.69
1/13/2021 1:45:00 AM 2.46 36.428 0.042 10.64 2.16 13.7
1/13/2021 2:00:00 AM 2.45 36.41 0.042 10.72 2.07 13.7
1/13/2021 2:15:00 AM 2.44 36.392 0.042 10.75 1.92 13.69
1/13/2021 2:30:00 AM 2.42 36.356 0.042 10.82 2.08 13.71
1/13/2021 2:45:00 AM 2.4 36.32 0.042 10.78 2.88 13.7
1/13/2021 3:00:00 AM 2.38 36.284 0.042 10.8 2.11 13.71
1/13/2021 3:15:00 AM 2.36 36.248 0.042 10.81 2.22 13.74
1/13/2021 3:30:00 AM 2.35 36.23 0.042 10.82 1.92 13.73
1/13/2021 3:45:00 AM 2.34 36.212 0.042 10.83 2.13 13.73
1/13/2021 4:00:00 AM 2.32 36.176 0.042 10.83 1.98 13.74
1/13/2021 4:15:00 AM 2.31 36.158 0.042 10.84 1.86 13.75
1/13/2021 4:30:00 AM 2.3 36.14 0.042 10.85 2.13 13.75
1/13/2021 4:45:00 AM 2.28 36.104 0.042 10.85 2.15 13.75
1/13/2021 5:00:00 AM 2.27 36.086 0.042 10.86 2.22 13.76
1/13/2021 5:15:00 AM 2.26 36.068 0.042 10.88 1.99 13.76
1/13/2021 5:30:00 AM 2.25 36.05 0.042 10.9 2.04 13.75
1/13/2021 5:45:00 AM 2.24 36.032 0.036 10.9 1.34 13.78
1/13/2021 6:00:00 AM 2.23 36.014 0.034 10.92 3.79 13.77
1/13/2021 6:15:00 AM 2.22 35.996 0.042 10.93 2.33 13.78
1/13/2021 6:30:00 AM 2.21 35.978 0.042 10.94 2.2 13.78
1/13/2021 6:45:00 AM 2.2 35.96 0.042 10.93 2.32 13.77
1/13/2021 7:00:00 AM 2.19 35.942 0.042 10.94 2.18 13.8
1/13/2021 7:15:00 AM 2.18 35.924 0.042 10.95 2.17 13.78
1/13/2021 7:30:00 AM 2.17 35.906 0.042 10.96 1.98 13.77
1/13/2021 7:45:00 AM 2.17 35.906 0.042 10.96 1.9 13.79
1/13/2021 8:00:00 AM 2.16 35.888 0.042 10.97 1.96 13.8
1/13/2021 8:15:00 AM 2.16 35.888 0.042 10.97 2.01 13.81
1/13/2021 8:30:00 AM 2.16 35.888 0.042 11 2.15 13.8
1/13/2021 8:45:00 AM 2.15 35.87 0.042 11.06 1.97 13.83
1/13/2021 9:00:00 AM 2.15 35.87 0.042 11.08 1.99 13.83
1/13/2021 9:15:00 AM 2.16 35.888 0.042 11.08 1.92 13.84
1/13/2021 9:30:00 AM 2.17 35.906 0.042 11.06 1.86 13.86
1/13/2021 9:45:00 AM 2.18 35.924 0.042 11.06 1.88 13.87
1/13/2021 10:00:00 AM 2.19 35.942 0.042 11.03 1.99 13.87
1/13/2021 10:15:00 AM 2.21 35.978 0.042 11.02 1.88 13.91
1/13/2021 10:30:00 AM 2.24 36.032 0.042 11.01 1.88 13.91
1/13/2021 10:45:00 AM 2.26 36.068 0.042 11.03 1.88 13.91
1/13/2021 11:00:00 AM 2.3 36.14 0.042 11 1.84 13.92
1/13/2021 11:15:00 AM 2.33 36.194 0.042 11 1.87 13.9
1/13/2021 11:30:00 AM 2.37 36.266 0.042 11 1.86 13.91
1/13/2021 11:45:00 AM 2.4 36.32 0.042 11.02 1.91 13.89
1/13/2021 12:00:00 PM 2.43 36.374 0.042 11.02 1.83 13.89
1/13/2021 12:15:00 PM 2.46 36.428 0.042 11.01 1.79 13.87
1/13/2021 12:30:00 PM 2.48 36.464 0.042 11.02 1.87 13.85
1/13/2021 12:45:00 PM 2.51 36.518 0.041 11.02 1.83 13.84
1/13/2021 1:00:00 PM 2.56 36.608 0.041 11.02 1.85 13.84
1/13/2021 1:15:00 PM 2.59 36.662 0.041 11.04 1.88 13.82
1/13/2021 1:30:00 PM 2.63 36.734 0.041 11.03 1.81 13.81
1/13/2021 1:45:00 PM 2.68 36.824 0.041 11.04 1.78 13.8
1/13/2021 2:00:00 PM 2.79 37.022 0.041 11.05 2.4 13.77
1/13/2021 2:15:00 PM 2.83 37.094 0.041 11.06 1.92 13.76
1/13/2021 2:30:00 PM 2.85 37.13 0.041 11.06 1.86 13.73
1/13/2021 2:45:00 PM 2.88 37.184 0.041 11.06 2.2 13.72
1/13/2021 3:00:00 PM 2.94 37.292 0.041 11.07 1.81 13.69
1/13/2021 3:15:00 PM 2.99 37.382 0.041 11.08 2.21 13.67
1/13/2021 3:30:00 PM 3 37.4 0.041 11.08 1.97 13.64
1/13/2021 3:45:00 PM 3.01 37.418 0.041 11.08 1.93 13.63
1/13/2021 4:00:00 PM 3.01 37.418 0.041 11.08 1.82 13.62
1/13/2021 4:15:00 PM 3 37.4 0.041 11.09 1.9 13.61
1/13/2021 4:30:00 PM 2.98 37.364 0.041 11.09 1.95 13.6
1/13/2021 4:45:00 PM 2.96 37.328 0.041 11.1 1.9 13.58
1/13/2021 5:00:00 PM 2.94 37.292 0.041 11.13 1.81 13.56
1/13/2021 5:15:00 PM 2.91 37.238 0.041 11.14 1.93 13.54
1/13/2021 5:30:00 PM 2.89 37.202 0.041 11.11 2.04 13.52
1/13/2021 5:45:00 PM 2.87 37.166 0.041 11.1 2 13.52
1/13/2021 6:00:00 PM 2.85 37.13 0.041 11.11 1.83 13.51
1/13/2021 6:15:00 PM 2.83 37.094 0.041 11.07 1.95 13.5
1/13/2021 6:30:00 PM 2.81 37.058 0.042 11.07 1.98 13.5
1/13/2021 6:45:00 PM 2.79 37.022 0.042 11.04 1.95 13.49
1/13/2021 7:00:00 PM 2.78 37.004 0.042 11.06 1.96 13.5
1/13/2021 7:15:00 PM 2.77 36.986 0.042 11.03 1.97 13.51
1/13/2021 7:30:00 PM 2.76 36.968 0.042 11.03 1.96 13.5
1/13/2021 7:45:00 PM 2.75 36.95 0.042 11.06 1.95 13.51
1/13/2021 8:00:00 PM 2.74 36.932 0.042 11.03 1.88 13.5
1/13/2021 8:15:00 PM 2.74 36.932 0.042 11.03 1.9 13.51
1/13/2021 8:30:00 PM 2.73 36.914 0.042 11.03 2.03 13.5
1/13/2021 8:45:00 PM 2.72 36.896 0.042 11.04 1.83 13.52
1/13/2021 9:00:00 PM 2.72 36.896 0.042 11.04 1.98 13.51
1/13/2021 9:15:00 PM 2.71 36.878 0.042 11.04 2 13.52
1/13/2021 9:30:00 PM 2.7 36.86 0.042 11.03 2.01 13.52
1/13/2021 9:45:00 PM 2.7 36.86 0.042 11.04 2.05 13.52
1/13/2021 10:00:00 PM 2.69 36.842 0.042 11.05 2.08 13.52
1/13/2021 10:15:00 PM 2.69 36.842 0.042 11.09 2.01 13.52
1/13/2021 10:30:00 PM 2.68 36.824 0.042 11.07 1.99 13.52
1/13/2021 10:45:00 PM 2.67 36.806 0.042 11.07 1.95 13.52
1/13/2021 11:00:00 PM 2.67 36.806 0.042 11.07 2.01 13.52
1/13/2021 11:15:00 PM 2.66 36.788 0.042 11.08 1.92 13.52
1/13/2021 11:30:00 PM 2.66 36.788 0.042 11.09 2.43 13.53
1/13/2021 11:45:00 PM 2.65 36.77 0.042 11.09 1.93 13.53
1/14/2021 12:00:00 AM 2.65 36.77 0.042 11.09 1.92 13.53
1/14/2021 12:15:00 AM 2.65 36.77 0.042 11.09 1.87 13.52
1/14/2021 12:30:00 AM 2.65 36.77 0.042 11.09 1.9 13.53
1/14/2021 12:45:00 AM 2.65 36.77 0.042 11.1 1.98 13.53
1/14/2021 1:00:00 AM 2.65 36.77 0.042 11.15 1.89 13.52
1/14/2021 1:15:00 AM 2.64 36.752 0.042 11.26 1.94 13.52
1/14/2021 1:30:00 AM 2.64 36.752 0.042 11.32 1.91 13.52
1/14/2021 1:45:00 AM 2.63 36.734 0.042 11.34 1.95 13.53
1/14/2021 2:00:00 AM 2.63 36.734 0.042 11.34 2 13.52
1/14/2021 2:15:00 AM 2.62 36.716 0.042 11.32 2.07 13.53
1/14/2021 2:30:00 AM 2.62 36.716 0.042 11.3 1.98 13.53
1/14/2021 2:45:00 AM 2.62 36.716 0.042 11.28 1.96 13.53
1/14/2021 3:00:00 AM 2.62 36.716 0.042 11.25 2.02 13.53
1/14/2021 3:15:00 AM 2.63 36.734 0.042 11.21 2.2 13.53
1/14/2021 3:30:00 AM 2.63 36.734 0.042 11.18 2.16 13.53
1/14/2021 3:45:00 AM 2.63 36.734 0.042 11.17 1.93 13.53
1/14/2021 4:00:00 AM 2.63 36.734 0.042 11.15 2.1 13.52
1/14/2021 4:15:00 AM 2.64 36.752 0.042 11.16 2.45 13.52
1/14/2021 4:30:00 AM 2.64 36.752 0.042 11.18 2.34 13.52
1/14/2021 4:45:00 AM 2.65 36.77 0.042 11.18 3.37 13.52
1/14/2021 5:00:00 AM 2.65 36.77 0.042 11.17 2.08 13.52
1/14/2021 5:15:00 AM 2.65 36.77 0.042 11.16 1.88 13.52
1/14/2021 5:30:00 AM 2.65 36.77 0.042 11.16 1.92 13.51
1/14/2021 5:45:00 AM 2.66 36.788 0.042 11.17 3.09 13.51
1/14/2021 6:00:00 AM 2.66 36.788 0.042 11.19 2.88 13.51
1/14/2021 6:15:00 AM 2.67 36.806 0.042 11.17 3.19 13.51
1/14/2021 6:30:00 AM 2.67 36.806 0.042 11.17 2.04 13.51
1/14/2021 6:45:00 AM 2.67 36.806 0.041 11.18 2.59 13.51
1/14/2021 7:00:00 AM 2.66 36.788 0.042 11.18 3.09 13.52
1/14/2021 7:15:00 AM 2.67 36.806 0.042 11.17 2.62 13.52
1/14/2021 7:30:00 AM 2.67 36.806 0.042 11.19 2.62 13.51
1/14/2021 7:45:00 AM 2.67 36.806 0.042 11.19 2.53 13.52
1/14/2021 8:00:00 AM 2.67 36.806 0.042 11.2 2.59 13.52
1/14/2021 8:15:00 AM 2.67 36.806 0.042 11.2 2.76 13.53
1/14/2021 8:30:00 AM 2.67 36.806 0.042 11.2 2.79 13.55
1/14/2021 8:45:00 AM 2.67 36.806 0.042 11.21 2.88 13.56
1/14/2021 9:00:00 AM 2.67 36.806 0.042 11.21 8.22 13.57
1/14/2021 9:15:00 AM 2.69 36.842 0.042 11.22 2.36 13.6
1/14/2021 9:30:00 AM 2.72 36.896 0.042 11.23 9.64 13.62
1/14/2021 9:45:00 AM 2.73 36.914 0.042 11.24 2.61 13.62
1/14/2021 10:00:00 AM 2.77 36.986 0.042 11.24 4.06 13.64
1/14/2021 10:15:00 AM 2.82 37.076 0.042 11.27 2.25 13.65
1/14/2021 10:30:00 AM 2.88 37.184 0.042 11.26 4.14 13.65
1/14/2021 10:45:00 AM 2.94 37.292 0.04 11.26 2.76 13.65
1/14/2021 11:00:00 AM 3.01 37.418 0.042 11.26 2.04 13.65
1/14/2021 11:15:00 AM 3.08 37.544 0.042 11.26 1.96 13.63
1/14/2021 11:30:00 AM 3.14 37.652 0.042 11.27 2.2 13.61
1/14/2021 11:45:00 AM 3.23 37.814 0.042 11.29 2.07 13.59
1/14/2021 12:00:00 PM 3.33 37.994 0.041 11.28 2.23 13.56
1/14/2021 12:15:00 PM 3.4 38.12 0.041 11.29 2.46 13.53
1/14/2021 12:30:00 PM 3.48 38.264 0.041 11.29 2.24 13.5
1/14/2021 12:45:00 PM 3.55 38.39 0.041 11.3 2.14 13.48
1/14/2021 1:00:00 PM 3.6 38.48 0.041 11.3 2.15 13.45
1/14/2021 1:15:00 PM 3.64 38.552 0.041 11.3 2.16 13.43
1/14/2021 1:30:00 PM 3.69 38.642 0.041 11.3 2.2 13.42
1/14/2021 1:45:00 PM 3.72 38.696 0.041 11.32 2.15 13.39
1/14/2021 2:00:00 PM 3.75 38.75 0.041 11.32 2.14 13.37
1/14/2021 2:15:00 PM 3.8 38.84 0.041 11.32 2.25 13.35
1/14/2021 2:30:00 PM 3.83 38.894 0.041 11.33 2.15 13.34
1/14/2021 2:45:00 PM 3.86 38.948 0.041 11.33 2.35 13.33
1/14/2021 3:00:00 PM 3.88 38.984 0.041 11.33 2.12 13.31
1/14/2021 3:15:00 PM 3.92 39.056 0.041 11.34 2.13 13.31
1/14/2021 3:30:00 PM 3.94 39.092 0.041 11.35 2.23 13.29
1/14/2021 3:45:00 PM 3.96 39.128 0.041 11.36 2.16 13.28
1/14/2021 4:00:00 PM 3.97 39.146 0.041 11.36 2.16 13.27
1/14/2021 4:15:00 PM 3.96 39.128 0.041 11.35 2.19 13.25
1/14/2021 4:30:00 PM 3.95 39.11 0.041 11.35 2.34 13.23
1/14/2021 4:45:00 PM 3.92 39.056 0.041 11.38 2.32 13.2
1/14/2021 5:00:00 PM 3.91 39.038 0.041 11.36 2.18 13.19
1/14/2021 5:15:00 PM 3.88 38.984 0.041 11.36 2.21 13.17
1/14/2021 5:30:00 PM 3.85 38.93 0.041 11.36 2.22 13.16
1/14/2021 5:45:00 PM 3.81 38.858 0.041 11.36 2.2 13.15
1/14/2021 6:00:00 PM 3.76 38.768 0.041 11.36 2.32 13.15
1/14/2021 6:15:00 PM 3.72 38.696 0.042 11.36 2.26 13.15
1/14/2021 6:30:00 PM 3.67 38.606 0.042 11.37 2.6 13.15
1/14/2021 6:45:00 PM 3.63 38.534 0.042 11.37 2.17 13.16
1/14/2021 7:00:00 PM 3.57 38.426 0.042 11.36 2.3 13.18
1/14/2021 7:15:00 PM 3.53 38.354 0.042 11.37 2.17 13.19
1/14/2021 7:30:00 PM 3.49 38.282 0.042 11.38 2.26 13.21
1/14/2021 7:45:00 PM 3.44 38.192 0.042 11.39 2.36 13.22
1/14/2021 8:00:00 PM 3.4 38.12 0.042 11.39 2.24 13.23
1/14/2021 8:15:00 PM 3.36 38.048 0.042 11.4 2.25 13.25
1/14/2021 8:30:00 PM 3.33 37.994 0.042 11.41 2.39 13.27
1/14/2021 8:45:00 PM 3.29 37.922 0.042 11.4 2.4 13.28
1/14/2021 9:00:00 PM 3.25 37.85 0.042 11.41 2.18 13.28
1/14/2021 9:15:00 PM 3.21 37.778 0.042 11.41 2.47 13.29
1/14/2021 9:30:00 PM 3.18 37.724 0.042 11.43 2.4 13.32
1/14/2021 9:45:00 PM 3.14 37.652 0.042 11.43 2.29 13.33
1/14/2021 10:00:00 PM 3.11 37.598 0.042 11.43 2.28 13.34
1/14/2021 10:15:00 PM 3.09 37.562 0.042 11.46 2.37 13.35
1/14/2021 10:30:00 PM 3.06 37.508 0.042 11.46 2.9 13.36
1/14/2021 10:45:00 PM 3.04 37.472 0.042 11.46 2.2 13.37
1/14/2021 11:00:00 PM 3.02 37.436 0.042 11.47 2.25 13.38
1/14/2021 11:15:00 PM 3 37.4 0.042 11.48 2.22 13.39
1/14/2021 11:30:00 PM 2.98 37.364 0.042 11.48 2.48 13.39
1/14/2021 11:45:00 PM 2.94 37.292 0.042 11.48 2.37 13.4
1/15/2021 12:00:00 AM 2.92 37.256 0.042 11.49 2.45 13.42
1/15/2021 12:15:00 AM 2.88 37.184 0.042 11.5 2.18 13.43
1/15/2021 12:30:00 AM 2.84 37.112 0.042 11.51 2.16 13.44
1/15/2021 12:45:00 AM 2.81 37.058 0.042 11.51 2.34 13.44
1/15/2021 1:00:00 AM 2.78 37.004 0.042 11.52 2.39 13.46
1/15/2021 1:15:00 AM 2.74 36.932 0.042 11.54 2.2 13.47
1/15/2021 1:30:00 AM 2.7 36.86 0.042 11.54 2.12 13.48
1/15/2021 1:45:00 AM 2.66 36.788 0.042 11.54 2.52 13.49
1/15/2021 2:00:00 AM 2.63 36.734 0.042 11.56 2.22 13.51
1/15/2021 2:15:00 AM 2.6 36.68 0.042 11.55 2.09 13.53
1/15/2021 2:30:00 AM 2.57 36.626 0.042 11.55 2.28 13.54
1/15/2021 2:45:00 AM 2.53 36.554 0.042 11.56 2.09 13.55
1/15/2021 3:00:00 AM 2.51 36.518 0.042 11.57 2.22 13.56
1/15/2021 3:15:00 AM 2.47 36.446 0.042 11.56 2.15 13.57
1/15/2021 3:30:00 AM 2.44 36.392 0.042 11.56 2.78 13.58
1/15/2021 3:45:00 AM 2.44 36.392 0.042 11.56 2.26 13.59
1/15/2021 4:00:00 AM 2.42 36.356 0.042 11.56 2.03 13.6
1/15/2021 4:15:00 AM 2.42 36.356 0.042 11.56 1.98 13.61
1/15/2021 4:30:00 AM 2.41 36.338 0.042 11.56 2.17 13.61
1/15/2021 4:45:00 AM 2.41 36.338 0.042 11.55 1.94 13.61
1/15/2021 5:00:00 AM 2.42 36.356 0.042 11.55 2.05 13.62
1/15/2021 5:15:00 AM 2.43 36.374 0.042 11.54 1.97 13.61
1/15/2021 5:30:00 AM 2.45 36.41 0.042 11.55 1.99 13.6
1/15/2021 5:45:00 AM 2.48 36.464 0.042 11.56 1.87 13.6
1/15/2021 6:00:00 AM 2.49 36.482 0.042 11.56 2.12 13.59
1/15/2021 6:15:00 AM 2.51 36.518 0.042 11.58 1.99 13.58
1/15/2021 6:30:00 AM 2.51 36.518 0.042 11.57 1.94 13.59
1/15/2021 6:45:00 AM 2.53 36.554 0.042 11.58 2.03 13.58
1/15/2021 7:00:00 AM 2.54 36.572 0.042 11.59 1.98 13.58
1/15/2021 7:15:00 AM 2.56 36.608 0.042 11.6 2.03 13.58
1/15/2021 7:30:00 AM 2.57 36.626 0.042 11.6 1.92 13.57
1/15/2021 7:45:00 AM 2.59 36.662 0.042 11.6 2.01 13.56
1/15/2021 8:00:00 AM 2.61 36.698 0.042 11.6 1.97 13.56
1/15/2021 8:15:00 AM 2.63 36.734 0.042 11.6 2.03 13.56
1/15/2021 8:30:00 AM 2.65 36.77 0.042 11.61 2.39 13.57
1/15/2021 8:45:00 AM 2.68 36.824 0.042 11.62 2.19 13.58
1/15/2021 9:00:00 AM 2.72 36.896 0.042 11.63 2.26 13.6
1/15/2021 9:15:00 AM 2.77 36.986 0.042 11.63 2.13 13.63
1/15/2021 9:30:00 AM 2.81 37.058 0.042 11.63 2.13 13.64
1/15/2021 9:45:00 AM 2.85 37.13 0.042 11.63 2.25 13.63
1/15/2021 10:00:00 AM 2.88 37.184 0.042 11.63 7.98 13.61
1/15/2021 10:15:00 AM 2.92 37.256 0.042 11.67 2.75 13.62
1/15/2021 10:30:00 AM 2.96 37.328 0.042 11.65 2.4 13.61
1/15/2021 10:45:00 AM 3 37.4 0.042 11.66 2.35 13.6
1/15/2021 11:00:00 AM 3.05 37.49 0.042 11.67 2.21 13.59
1/15/2021 11:15:00 AM 3.08 37.544 0.042 11.69 2.16 13.59
1/15/2021 11:30:00 AM 3.12 37.616 0.042 11.67 2.13 13.58
1/15/2021 11:45:00 AM 3.16 37.688 0.042 11.68 2.12 13.56
1/15/2021 12:00:00 PM 3.2 37.76 0.042 11.67 2.46 13.55
1/15/2021 12:15:00 PM 3.24 37.832 0.042 11.68 2.12 13.55
1/15/2021 12:30:00 PM 3.3 37.94 0.042 11.67 2.14 13.53
1/15/2021 12:45:00 PM 3.33 37.994 0.042 11.67 2.15 13.51
1/15/2021 1:00:00 PM 3.36 38.048 0.042 11.68 2.22 13.49
1/15/2021 1:15:00 PM 3.41 38.138 0.042 11.68 2.16 13.48
1/15/2021 1:30:00 PM 3.47 38.246 0.042 11.68 2.02 13.45
1/15/2021 1:45:00 PM 3.58 38.444 0.042 11.7 2.22 13.44
1/15/2021 2:00:00 PM 3.6 38.48 0.042 11.69 2.06 13.43
1/15/2021 2:15:00 PM 3.63 38.534 0.042 11.68 2.04 13.41
1/15/2021 2:30:00 PM 3.66 38.588 0.042 11.72 2.77 13.39
1/15/2021 2:45:00 PM 3.68 38.624 0.042 11.69 2.82 13.36
1/15/2021 3:00:00 PM 3.7 38.66 0.042 11.68 2.64 13.35
1/15/2021 3:15:00 PM 3.71 38.678 0.042 11.68 2.62 13.33
1/15/2021 3:30:00 PM 3.71 38.678 0.042 11.69 2.64 13.33
1/15/2021 3:45:00 PM 3.7 38.66 0.042 11.69 3.11 13.3
1/15/2021 4:00:00 PM 3.69 38.642 0.042 11.71 3.24 13.28
1/15/2021 4:15:00 PM 3.68 38.624 0.042 11.69 2.52 13.25
1/15/2021 4:30:00 PM 3.67 38.606 0.042 11.69 2.22 13.24
1/15/2021 4:45:00 PM 3.66 38.588 0.042 11.68 2.22 13.22
1/15/2021 5:00:00 PM 3.65 38.57 0.042 11.68 2.34 13.19
1/15/2021 5:15:00 PM 3.65 38.57 0.042 11.68 2.27 13.18
1/15/2021 5:30:00 PM 3.63 38.534 0.042 11.68 2.06 13.17
1/15/2021 5:45:00 PM 3.62 38.516 0.042 11.72 30.21 13.16
1/15/2021 6:00:00 PM 3.61 38.498 0.042 11.68 2.66 13.15
1/15/2021 6:15:00 PM 3.59 38.462 0.042 11.68 2.64 13.16
1/15/2021 6:30:00 PM 3.56 38.408 0.042 11.67 2.39 13.15
1/15/2021 6:45:00 PM 3.54 38.372 0.042 11.68 2.49 13.15
1/15/2021 7:00:00 PM 3.52 38.336 0.042 11.68 2.44 13.16
1/15/2021 7:15:00 PM 3.49 38.282 0.042 11.68 2.68 13.16
1/15/2021 7:30:00 PM 3.47 38.246 0.042 11.67 2.52 13.17
1/15/2021 7:45:00 PM 3.46 38.228 0.042 11.67 2.51 13.17
1/15/2021 8:00:00 PM 3.45 38.21 0.042 11.67 2.41 13.17
1/15/2021 8:15:00 PM 3.44 38.192 0.042 11.67 2.23 13.17
1/15/2021 8:30:00 PM 3.44 38.192 0.042 11.68 2.42 13.18
1/15/2021 8:45:00 PM 3.44 38.192 0.042 11.68 2.52 13.18
1/15/2021 9:00:00 PM 3.41 38.138 0.042 11.67 2.37 13.19
1/15/2021 9:15:00 PM 3.35 38.03 0.042 11.68 2.4 13.19
1/15/2021 9:30:00 PM 3.33 37.994 0.042 11.67 2.43 13.19
1/15/2021 9:45:00 PM 3.29 37.922 0.042 11.66 2.44 13.2
1/15/2021 10:00:00 PM 3.28 37.904 0.042 11.66 2.43 13.21
1/15/2021 10:15:00 PM 3.27 37.886 0.042 11.66 2.38 13.22
1/15/2021 10:30:00 PM 3.26 37.868 0.042 11.67 2.41 13.23
1/15/2021 10:45:00 PM 3.25 37.85 0.042 11.66 2.42 13.23
1/15/2021 11:00:00 PM 3.24 37.832 0.043 11.66 2.43 13.24
1/15/2021 11:15:00 PM 3.23 37.814 0.043 11.66 2.41 13.24
1/15/2021 11:30:00 PM 3.22 37.796 0.043 11.65 2.24 13.25
1/15/2021 11:45:00 PM 3.2 37.76 0.043 11.65 2.29 13.25
1/16/2021 12:00:00 AM 3.2 37.76 0.043 11.66 2.37 13.26
1/16/2021 12:15:00 AM 3.19 37.742 0.043 11.66 2.38 13.25
1/16/2021 12:30:00 AM 3.19 37.742 0.043 11.66 2.43 13.26
1/16/2021 12:45:00 AM 3.18 37.724 0.043 11.66 2.37 13.26
1/16/2021 1:00:00 AM 3.17 37.706 0.044 11.66 2.42 13.26
1/16/2021 1:15:00 AM 3.16 37.688 0.044 11.66 2.26 13.27
1/16/2021 1:30:00 AM 3.16 37.688 0.044 11.66 3.21 13.26
1/16/2021 1:45:00 AM 3.16 37.688 0.044 11.66 2.4 13.27
1/16/2021 2:00:00 AM 3.15 37.67 0.044 11.66 2.34 13.27
1/16/2021 2:15:00 AM 3.14 37.652 0.044 11.66 2.3 13.26
1/16/2021 2:30:00 AM 3.13 37.634 0.044 11.65 2.3 13.27
1/16/2021 2:45:00 AM 3.11 37.598 0.044 11.65 2.34 13.26
1/16/2021 3:00:00 AM 3.11 37.598 0.044 11.65 2.42 13.27
1/16/2021 3:15:00 AM 3.11 37.598 0.044 11.66 2.32 13.27
1/16/2021 3:30:00 AM 3.1 37.58 0.044 11.66 2.37 13.27
1/16/2021 3:45:00 AM 3.1 37.58 0.044 11.66 2.39 13.27
1/16/2021 4:00:00 AM 3.1 37.58 0.044 11.66 2.42 13.27
1/16/2021 4:15:00 AM 3.11 37.598 0.044 11.66 2.51 13.27
1/16/2021 4:30:00 AM 3.11 37.598 0.044 11.67 2.29 13.26
1/16/2021 4:45:00 AM 3.11 37.598 0.045 11.67 2.23 13.26
1/16/2021 5:00:00 AM 3.1 37.58 0.045 11.67 2.3 13.26
1/16/2021 5:15:00 AM 3.1 37.58 0.045 11.66 2.34 13.25
1/16/2021 5:30:00 AM 3.1 37.58 0.045 11.67 2.19 13.26
1/16/2021 5:45:00 AM 3.09 37.562 0.045 11.67 2.23 13.26
1/16/2021 6:00:00 AM 3.07 37.526 0.045 11.68 2.29 13.26
1/16/2021 6:15:00 AM 3.03 37.454 0.045 11.71 2.23 13.27
1/16/2021 6:30:00 AM 3 37.4 0.045 11.71 2.22 13.27
1/16/2021 6:45:00 AM 2.97 37.346 0.045 11.71 2.27 13.28
1/16/2021 7:00:00 AM 2.93 37.274 0.045 11.71 2.35 13.29
1/16/2021 7:15:00 AM 2.89 37.202 0.045 11.71 2.23 13.3
1/16/2021 7:30:00 AM 2.86 37.148 0.045 11.7 2.17 13.31
1/16/2021 7:45:00 AM 2.83 37.094 0.045 11.7 2.43 13.32
1/16/2021 8:00:00 AM 2.81 37.058 0.045 11.7 2.24 13.35
1/16/2021 8:15:00 AM 2.79 37.022 0.045 11.71 2.29 13.38
1/16/2021 8:30:00 AM 2.78 37.004 0.045 11.71 2.43 13.42
1/16/2021 8:45:00 AM 2.79 37.022 0.045 11.72 2.23 13.44
1/16/2021 9:00:00 AM 2.81 37.058 0.045 11.73 2.19 13.47
1/16/2021 9:15:00 AM 2.82 37.076 0.045 11.73 2.08 13.49
1/16/2021 9:30:00 AM 2.84 37.112 0.045 11.73 2.23 13.49
1/16/2021 9:45:00 AM 2.85 37.13 0.045 11.72 2.12 13.49
1/16/2021 10:00:00 AM 2.89 37.202 0.045 11.72 2.16 13.51
1/16/2021 10:15:00 AM 2.92 37.256 0.045 11.71 2.02 13.5
1/16/2021 10:30:00 AM 2.97 37.346 0.045 11.71 2.11 13.51
1/16/2021 10:45:00 AM 3.02 37.436 0.045 11.7 2.13 13.51
1/16/2021 11:00:00 AM 3.1 37.58 0.045 11.72 2.13 13.5
1/16/2021 11:15:00 AM 3.13 37.634 0.045 11.71 2.08 13.49
1/16/2021 11:30:00 AM 3.19 37.742 0.045 11.71 2.18 13.47
1/16/2021 11:45:00 AM 3.26 37.868 0.045 11.72 2.31 13.46
1/16/2021 12:00:00 PM 3.36 38.048 0.045 11.71 2.33 13.42
1/16/2021 12:15:00 PM 3.44 38.192 0.045 11.72 2.48 13.4
1/16/2021 12:30:00 PM 3.53 38.354 0.045 11.73 2.31 13.37
1/16/2021 12:45:00 PM 3.55 38.39 0.045 11.72 2.26 13.35
1/16/2021 1:00:00 PM 3.56 38.408 0.045 11.72 2.19 13.34
1/16/2021 1:15:00 PM 3.59 38.462 0.045 11.74 2.29 13.33
1/16/2021 1:30:00 PM 3.64 38.552 0.045 11.75 2.24 13.3
1/16/2021 1:45:00 PM 3.66 38.588 0.045 11.74 2.29 13.29
1/16/2021 2:00:00 PM 3.71 38.678 0.045 11.73 2.31 13.28
1/16/2021 2:15:00 PM 3.74 38.732 0.045 11.73 2.2 13.27
1/16/2021 2:30:00 PM 3.74 38.732 0.045 11.74 2.27 13.25
1/16/2021 2:45:00 PM 3.74 38.732 0.044 11.73 2.47 13.24
1/16/2021 3:00:00 PM 3.76 38.768 0.044 11.73 2.24 13.24
1/16/2021 3:15:00 PM 3.76 38.768 0.044 11.73 2.29 13.22
1/16/2021 3:30:00 PM 3.74 38.732 0.044 11.73 2.3 13.21
1/16/2021 3:45:00 PM 3.72 38.696 0.044 11.73 2.22 13.21
1/16/2021 4:00:00 PM 3.7 38.66 0.044 11.73 2.25 13.21
1/16/2021 4:15:00 PM 3.68 38.624 0.044 11.73 2.26 13.21
1/16/2021 4:30:00 PM 3.66 38.588 0.044 11.72 2.26 13.21
1/16/2021 4:45:00 PM 3.61 38.498 0.044 11.72 2.23 13.19
1/16/2021 5:00:00 PM 3.57 38.426 0.044 11.71 2.35 13.18
1/16/2021 5:15:00 PM 3.53 38.354 0.044 11.74 2.28 13.16
1/16/2021 5:30:00 PM 3.49 38.282 0.045 11.72 2.25 13.14
1/16/2021 5:45:00 PM 3.45 38.21 0.045 11.7 2.31 13.14
1/16/2021 6:00:00 PM 3.41 38.138 0.045 11.7 2.27 13.15
1/16/2021 6:15:00 PM 3.37 38.066 0.045 11.7 2.25 13.15
1/16/2021 6:30:00 PM 3.34 38.012 0.045 11.69 2.47 13.15
1/16/2021 6:45:00 PM 3.32 37.976 0.045 11.7 2.26 13.14
1/16/2021 7:00:00 PM 3.29 37.922 0.045 11.7 2.29 13.16
1/16/2021 7:15:00 PM 3.26 37.868 0.045 11.68 2.29 13.16
1/16/2021 7:30:00 PM 3.23 37.814 0.045 11.72 2.3 13.18
1/16/2021 7:45:00 PM 3.21 37.778 0.045 11.7 2.4 13.17
1/16/2021 8:00:00 PM 3.19 37.742 0.045 11.68 2.25 13.19
1/16/2021 8:15:00 PM 3.16 37.688 0.045 11.68 2.37 13.2
1/16/2021 8:30:00 PM 3.13 37.634 0.045 11.68 2.32 13.21
1/16/2021 8:45:00 PM 3.11 37.598 0.045 11.68 2.34 13.21
1/16/2021 9:00:00 PM 3.09 37.562 0.045 11.68 2.38 13.22
1/16/2021 9:15:00 PM 3.07 37.526 0.045 11.68 2.35 13.23
1/16/2021 9:30:00 PM 3.05 37.49 0.045 11.68 2.34 13.23
1/16/2021 9:45:00 PM 3.03 37.454 0.045 11.68 2.3 13.24
1/16/2021 10:00:00 PM 3.02 37.436 0.045 11.68 2.29 13.24
1/16/2021 10:15:00 PM 2.99 37.382 0.045 11.68 2.29 13.25
1/16/2021 10:30:00 PM 2.98 37.364 0.045 11.68 2.28 13.26
1/16/2021 10:45:00 PM 2.96 37.328 0.045 11.67 2.26 13.26
1/16/2021 11:00:00 PM 2.95 37.31 0.045 11.67 2.32 13.27
1/16/2021 11:15:00 PM 2.93 37.274 0.045 11.66 2.28 13.28
1/16/2021 11:30:00 PM 2.9 37.22 0.045 11.67 2.32 13.28
1/16/2021 11:45:00 PM 2.88 37.184 0.045 11.67 2.27 13.29
1/17/2021 12:00:00 AM 2.86 37.148 0.045 11.68 2.41 13.3
1/17/2021 12:15:00 AM 2.84 37.112 0.045 11.67 3.09 13.3
1/17/2021 12:30:00 AM 2.82 37.076 0.045 11.68 2.21 13.31
1/17/2021 12:45:00 AM 2.79 37.022 0.045 11.68 2.22 13.32
1/17/2021 1:00:00 AM 2.76 36.968 0.045 11.67 2.16 13.33
1/17/2021 1:15:00 AM 2.74 36.932 0.045 11.68 2.23 13.34
1/17/2021 1:30:00 AM 2.72 36.896 0.045 11.68 2.23 13.35
1/17/2021 1:45:00 AM 2.71 36.878 0.045 11.68 2.22 13.36
1/17/2021 2:00:00 AM 2.68 36.824 0.045 11.68 2.43 13.36
1/17/2021 2:15:00 AM 2.64 36.752 0.045 11.68 2.57 13.38
1/17/2021 2:30:00 AM 2.62 36.716 0.045 11.68 2.2 13.39
1/17/2021 2:45:00 AM 2.59 36.662 0.045 11.68 2.21 13.41
1/17/2021 3:00:00 AM 2.56 36.608 0.045 11.67 2.19 13.41
1/17/2021 3:15:00 AM 2.54 36.572 0.045 11.67 2.21 13.42
1/17/2021 3:30:00 AM 2.53 36.554 0.045 11.68 2.26 13.43
1/17/2021 3:45:00 AM 2.5 36.5 0.045 11.67 2.21 13.43
1/17/2021 4:00:00 AM 2.49 36.482 0.045 11.68 2.18 13.44
1/17/2021 4:15:00 AM 2.46 36.428 0.045 11.68 2.26 13.45
1/17/2021 4:30:00 AM 2.43 36.374 0.045 11.68 2.22 13.47
1/17/2021 4:45:00 AM 2.42 36.356 0.045 11.68 2.24 13.47
1/17/2021 5:00:00 AM 2.41 36.338 0.045 11.68 2.23 13.47
1/17/2021 5:15:00 AM 2.4 36.32 0.045 11.68 2.25 13.48
1/17/2021 5:30:00 AM 2.39 36.302 0.045 11.68 2.34 13.5
1/17/2021 5:45:00 AM 2.37 36.266 0.045 11.68 2.18 13.5
1/17/2021 6:00:00 AM 2.36 36.248 0.045 11.69 2.24 13.49
1/17/2021 6:15:00 AM 2.35 36.23 0.045 11.69 2.11 13.51
1/17/2021 6:30:00 AM 2.33 36.194 0.045 11.69 2.26 13.52
1/17/2021 6:45:00 AM 2.32 36.176 0.045 11.7 2.25 13.52
1/17/2021 7:00:00 AM 2.32 36.176 0.045 11.69 2.16 13.53
1/17/2021 7:15:00 AM 2.32 36.176 0.045 11.69 2.22 13.53
1/17/2021 7:30:00 AM 2.31 36.158 0.045 11.69 2.35 13.54
1/17/2021 7:45:00 AM 2.31 36.158 0.045 11.69 2.94 13.53
1/17/2021 8:00:00 AM 2.32 36.176 0.045 11.69 2.72 13.55
1/17/2021 8:15:00 AM 2.32 36.176 0.045 11.7 2.39 13.56
1/17/2021 8:30:00 AM 2.33 36.194 0.045 11.7 2.47 13.56
1/17/2021 8:45:00 AM 2.34 36.212 0.045 11.7 2.32 13.57
1/17/2021 9:00:00 AM 2.35 36.23 0.045 11.71 2.28 13.58
1/17/2021 9:15:00 AM 2.36 36.248 0.045 11.7 2.32 13.59
1/17/2021 9:30:00 AM 2.37 36.266 0.045 11.7 2.21 13.61
1/17/2021 9:45:00 AM 2.39 36.302 0.045 11.71 2.05 13.65
1/17/2021 10:00:00 AM 2.41 36.338 0.045 11.72 2.14 13.65
1/17/2021 10:15:00 AM 2.43 36.374 0.045 11.72 2.15 13.66
1/17/2021 10:30:00 AM 2.46 36.428 0.045 11.72 2.07 13.66
1/17/2021 10:45:00 AM 2.49 36.482 0.044 11.73 2.07 13.67
1/17/2021 11:00:00 AM 2.51 36.518 0.044 11.75 2.26 13.68
1/17/2021 11:15:00 AM 2.55 36.59 0.044 11.74 2.1 13.68
1/17/2021 11:30:00 AM 2.58 36.644 0.044 11.74 2.07 13.69
1/17/2021 11:45:00 AM 2.63 36.734 0.044 11.75 2.18 13.68
1/17/2021 12:00:00 PM 2.66 36.788 0.044 11.75 2.08 13.67
1/17/2021 12:15:00 PM 2.7 36.86 0.044 11.76 2.08 13.67
1/17/2021 12:30:00 PM 2.73 36.914 0.044 11.75 2.09 13.67
1/17/2021 12:45:00 PM 2.76 36.968 0.044 11.75 2.15 13.65
1/17/2021 1:00:00 PM 2.8 37.04 0.044 11.76 2.12 13.64
1/17/2021 1:15:00 PM 2.86 37.148 0.044 11.78 2.14 13.63
1/17/2021 1:30:00 PM 2.88 37.184 0.044 11.76 2.15 13.62
1/17/2021 1:45:00 PM 2.9 37.22 0.044 11.77 2.05 13.6
1/17/2021 2:00:00 PM 2.92 37.256 0.044 11.77 2.01 13.58
1/17/2021 2:15:00 PM 2.95 37.31 0.044 11.78 2.14 13.57
1/17/2021 2:30:00 PM 2.96 37.328 0.044 11.78 2.04 13.56
1/17/2021 2:45:00 PM 2.99 37.382 0.044 11.77 2.12 13.56
1/17/2021 3:00:00 PM 3.02 37.436 0.044 11.78 2.11 13.55
1/17/2021 3:15:00 PM 3.03 37.454 0.044 11.78 2.06 13.54
1/17/2021 3:30:00 PM 3.03 37.454 0.044 11.78 2.06 13.52
1/17/2021 3:45:00 PM 3.05 37.49 0.044 11.78 2.03 13.51
1/17/2021 4:00:00 PM 3.06 37.508 0.044 11.78 2.05 13.5
1/17/2021 4:15:00 PM 3.05 37.49 0.044 11.82 2.02 13.47
1/17/2021 4:30:00 PM 3.05 37.49 0.044 11.8 2.09 13.45
1/17/2021 4:45:00 PM 3.05 37.49 0.044 11.79 2.07 13.43
1/17/2021 5:00:00 PM 3.05 37.49 0.044 11.79 2.05 13.41
1/17/2021 5:15:00 PM 3.03 37.454 0.044 11.79 2.35 13.4
1/17/2021 5:30:00 PM 3.03 37.454 0.044 11.78 2.08 13.38
1/17/2021 5:45:00 PM 3.02 37.436 0.044 11.78 2.08 13.37
1/17/2021 6:00:00 PM 3.01 37.418 0.044 11.78 2.13 13.35
1/17/2021 6:15:00 PM 3.01 37.418 0.044 11.78 2.07 13.35
1/17/2021 6:30:00 PM 3 37.4 0.044 11.78 2.11 13.35
1/17/2021 6:45:00 PM 2.99 37.382 0.044 11.8 2.02 13.34
1/17/2021 7:00:00 PM 2.99 37.382 0.044 11.78 2.15 13.34
1/17/2021 7:15:00 PM 2.99 37.382 0.044 11.77 2.12 13.35
1/17/2021 7:30:00 PM 2.98 37.364 0.044 11.78 2.14 13.34
1/17/2021 7:45:00 PM 2.98 37.364 0.044 11.81 2.21 13.34
1/17/2021 8:00:00 PM 2.98 37.364 0.044 11.79 2.06 13.34
1/17/2021 8:15:00 PM 2.95 37.31 0.044 11.79 2.12 13.34
1/17/2021 8:30:00 PM 2.92 37.256 0.044 11.79 2.14 13.35
1/17/2021 8:45:00 PM 2.91 37.238 0.044 11.79 2.15 13.35
1/17/2021 9:00:00 PM 2.91 37.238 0.044 11.79 2.11 13.36
1/17/2021 9:15:00 PM 2.89 37.202 0.044 11.79 2.21 13.36
1/17/2021 9:30:00 PM 2.85 37.13 0.044 11.79 2.18 13.36
1/17/2021 9:45:00 PM 2.83 37.094 0.044 11.8 2.24 13.37
1/17/2021 10:00:00 PM 2.81 37.058 0.044 11.8 2.19 13.37
1/17/2021 10:15:00 PM 2.78 37.004 0.044 11.8 2.24 13.39
1/17/2021 10:30:00 PM 2.75 36.95 0.044 11.79 2.1 13.4
1/17/2021 10:45:00 PM 2.73 36.914 0.044 11.8 2.13 13.4
1/17/2021 11:00:00 PM 2.71 36.878 0.044 11.79 2.21 13.4
1/17/2021 11:15:00 PM 2.71 36.878 0.044 11.79 2.18 13.42
1/17/2021 11:30:00 PM 2.7 36.86 0.044 11.8 2.14 13.42
1/17/2021 11:45:00 PM 2.69 36.842 0.044 11.8 2.57 13.43
1/18/2021 12:00:00 AM 2.69 36.842 0.044 11.8 2.13 13.42
1/18/2021 12:15:00 AM 2.69 36.842 0.044 11.8 2.11 13.42
1/18/2021 12:30:00 AM 2.69 36.842 0.044 11.8 2.17 13.43
1/18/2021 12:45:00 AM 2.69 36.842 0.044 11.8 2.18 13.43
1/18/2021 1:00:00 AM 2.69 36.842 0.044 11.8 2.13 13.43
1/18/2021 1:15:00 AM 2.7 36.86 0.044 11.81 2.1 13.43
1/18/2021 1:30:00 AM 2.7 36.86 0.044 11.81 2.08 13.43
1/18/2021 1:45:00 AM 2.7 36.86 0.044 11.81 2.16 13.43
1/18/2021 2:00:00 AM 2.71 36.878 0.044 11.81 2.09 13.43
1/18/2021 2:15:00 AM 2.72 36.896 0.044 11.81 2.11 13.43
1/18/2021 2:30:00 AM 2.72 36.896 0.044 11.82 2.01 13.42
1/18/2021 2:45:00 AM 2.72 36.896 0.044 11.83 2 13.43
1/18/2021 3:00:00 AM 2.72 36.896 0.044 11.83 2.03 13.43
1/18/2021 3:15:00 AM 2.72 36.896 0.044 11.83 2.06 13.43
1/18/2021 3:30:00 AM 2.72 36.896 0.044 11.83 2.04 13.42
1/18/2021 3:45:00 AM 2.71 36.878 0.044 11.84 2.07 13.42
1/18/2021 4:00:00 AM 2.71 36.878 0.044 11.83 2.04 13.43
1/18/2021 4:15:00 AM 2.71 36.878 0.044 11.84 2.05 13.43
1/18/2021 4:30:00 AM 2.7 36.86 0.044 11.84 2.08 13.43
1/18/2021 4:45:00 AM 2.7 36.86 0.044 11.84 2 13.42
1/18/2021 5:00:00 AM 2.69 36.842 0.044 11.85 2.08 13.43
1/18/2021 5:15:00 AM 2.69 36.842 0.044 11.85 2.19 13.43
1/18/2021 5:30:00 AM 2.68 36.824 0.044 11.85 2.11 13.43
1/18/2021 5:45:00 AM 2.66 36.788 0.044 11.86 2.14 13.44
1/18/2021 6:00:00 AM 2.65 36.77 0.044 11.86 2.16 13.45
1/18/2021 6:15:00 AM 2.63 36.734 0.044 11.86 2.02 13.44
1/18/2021 6:30:00 AM 2.63 36.734 0.044 11.86 2 13.45
1/18/2021 6:45:00 AM 2.62 36.716 0.044 11.86 1.98 13.46
1/18/2021 7:00:00 AM 2.6 36.68 0.044 11.86 2.07 13.47
1/18/2021 7:15:00 AM 2.58 36.644 0.044 11.87 2.1 13.47
1/18/2021 7:30:00 AM 2.57 36.626 0.044 11.88 2.01 13.47
1/18/2021 7:45:00 AM 2.57 36.626 0.044 11.87 2.07 13.48
1/18/2021 8:00:00 AM 2.56 36.608 0.044 11.88 2.05 13.5
1/18/2021 8:15:00 AM 2.56 36.608 0.044 11.88 2.42 13.53
1/18/2021 8:30:00 AM 2.57 36.626 0.044 11.89 2.3 13.56
1/18/2021 8:45:00 AM 2.58 36.644 0.044 11.89 2.32 13.6
1/18/2021 9:00:00 AM 2.58 36.644 0.044 11.89 2.74 13.62
1/18/2021 9:15:00 AM 2.58 36.644 0.044 11.9 2.57 13.63
1/18/2021 9:30:00 AM 2.59 36.662 0.044 11.91 2.2 13.65
1/18/2021 9:45:00 AM 2.6 36.68 0.044 11.92 2.01 13.68
1/18/2021 10:00:00 AM 2.63 36.734 0.044 11.93 2.13 13.69
1/18/2021 10:15:00 AM 2.66 36.788 0.044 11.93 2.02 13.7
1/18/2021 10:30:00 AM 2.69 36.842 0.044 11.96 1.98 13.72
1/18/2021 10:45:00 AM 2.75 36.95 0.044 11.95 2.02 13.72
1/18/2021 11:00:00 AM 2.79 37.022 0.044 11.97 2.21 13.72
1/18/2021 11:15:00 AM 2.82 37.076 0.044 11.98 2.1 13.71
1/18/2021 11:30:00 AM 2.86 37.148 0.044 11.97 1.98 13.71
1/18/2021 11:45:00 AM 2.87 37.166 0.044 11.97 1.95 13.68
1/18/2021 12:00:00 PM 2.9 37.22 0.044 11.97 2.09 13.67
1/18/2021 12:15:00 PM 2.95 37.31 0.044 11.97 1.9 13.67
1/18/2021 12:30:00 PM 2.98 37.364 0.044 11.97 1.86 13.66
1/18/2021 12:45:00 PM 3.03 37.454 0.044 11.98 1.91 13.66
1/18/2021 1:00:00 PM 3.06 37.508 0.043 11.98 1.98 13.64
1/18/2021 1:15:00 PM 3.11 37.598 0.043 11.98 1.87 13.63
1/18/2021 1:30:00 PM 3.13 37.634 0.043 11.99 1.91 13.62
1/18/2021 1:45:00 PM 3.15 37.67 0.043 11.99 1.91 13.61
1/18/2021 2:00:00 PM 3.15 37.67 0.043 11.99 1.85 13.59
1/18/2021 2:15:00 PM 3.16 37.688 0.043 11.98 1.94 13.59
1/18/2021 2:30:00 PM 3.16 37.688 0.043 11.99 2.05 13.57
1/18/2021 2:45:00 PM 3.11 37.598 0.043 12 1.98 13.56
1/18/2021 3:00:00 PM 3.09 37.562 0.043 12 1.94 13.56
1/18/2021 3:15:00 PM 3.06 37.508 0.043 12.01 2.05 13.55
1/18/2021 3:30:00 PM 3.02 37.436 0.043 11.99 1.92 13.54
1/18/2021 3:45:00 PM 3 37.4 0.043 12 1.93 13.54
1/18/2021 4:00:00 PM 2.98 37.364 0.044 11.99 2.06 13.53
1/18/2021 4:15:00 PM 2.95 37.31 0.044 12.01 2 13.53
1/18/2021 4:30:00 PM 2.93 37.274 0.044 11.99 2.02 13.52
1/18/2021 4:45:00 PM 2.9 37.22 0.044 12.01 2.06 13.52
1/18/2021 5:00:00 PM 2.87 37.166 0.044 11.99 2.11 13.51
1/18/2021 5:15:00 PM 2.85 37.13 0.044 11.99 2.1 13.5
1/18/2021 5:30:00 PM 2.82 37.076 0.044 12.03 2.02 13.51
1/18/2021 5:45:00 PM 2.79 37.022 0.044 11.98 2.06 13.5
1/18/2021 6:00:00 PM 2.77 36.986 0.044 11.99 2.29 13.5
1/18/2021 6:15:00 PM 2.75 36.95 0.044 11.99 1.98 13.51
1/18/2021 6:30:00 PM 2.74 36.932 0.044 11.99 2.02 13.51
1/18/2021 6:45:00 PM 2.72 36.896 0.044 11.99 2.04 13.52
1/18/2021 7:00:00 PM 2.7 36.86 0.044 11.99 2.02 13.52
1/18/2021 7:15:00 PM 2.69 36.842 0.044 11.99 2.14 13.53
1/18/2021 7:30:00 PM 2.68 36.824 0.044 12 2.1 13.53
1/18/2021 7:45:00 PM 2.67 36.806 0.044 12.01 2.07 13.54
1/18/2021 8:00:00 PM 2.65 36.77 0.044 11.99 1.97 13.55
1/18/2021 8:15:00 PM 2.64 36.752 0.044 12 1.99 13.55
1/18/2021 8:30:00 PM 2.63 36.734 0.045 12 1.9 13.56
1/18/2021 8:45:00 PM 2.61 36.698 0.044 12.01 1.87 13.56
1/18/2021 9:00:00 PM 2.6 36.68 0.044 12.01 1.89 13.57
1/18/2021 9:15:00 PM 2.59 36.662 0.044 12.01 1.91 13.58
1/18/2021 9:30:00 PM 2.58 36.644 0.044 12.03 2.37 13.58
1/18/2021 9:45:00 PM 2.57 36.626 0.044 12.02 1.91 13.59
1/18/2021 10:00:00 PM 2.56 36.608 0.044 12.02 1.9 13.59
1/18/2021 10:15:00 PM 2.55 36.59 0.044 12.02 1.96 13.6
1/18/2021 10:30:00 PM 2.54 36.572 0.044 12.03 1.94 13.6
1/18/2021 10:45:00 PM 2.53 36.554 0.044 12.03 2.19 13.61
1/18/2021 11:00:00 PM 2.52 36.536 0.044 12.04 1.96 13.61
1/18/2021 11:15:00 PM 2.5 36.5 0.044 12.05 1.94 13.61
1/18/2021 11:30:00 PM 2.49 36.482 0.044 12.06 1.91 13.62
1/18/2021 11:45:00 PM 2.48 36.464 0.044 12.05 1.9 13.62
1/19/2021 12:00:00 AM 2.46 36.428 0.044 12.06 2.18 13.63
1/19/2021 12:15:00 AM 2.44 36.392 0.044 12.07 1.95 13.64
1/19/2021 12:30:00 AM 2.43 36.374 0.044 12.07 1.95 13.65
1/19/2021 12:45:00 AM 2.41 36.338 0.044 12.06 1.96 13.66
1/19/2021 1:00:00 AM 2.39 36.302 0.044 12.08 1.95 13.66
1/19/2021 1:15:00 AM 2.37 36.266 0.044 12.08 1.9 13.66
1/19/2021 1:30:00 AM 2.35 36.23 0.045 12.07 1.93 13.68
1/19/2021 1:45:00 AM 2.33 36.194 0.045 12.08 1.95 13.68
1/19/2021 2:00:00 AM 2.31 36.158 0.045 12.08 1.94 13.68
1/19/2021 2:15:00 AM 2.29 36.122 0.045 12.08 1.88 13.69
1/19/2021 2:30:00 AM 2.28 36.104 0.045 12.09 1.88 13.71
1/19/2021 2:45:00 AM 2.26 36.068 0.045 12.09 1.86 13.71
1/19/2021 3:00:00 AM 2.24 36.032 0.045 12.09 1.9 13.72
1/19/2021 3:15:00 AM 2.22 35.996 0.045 12.09 1.96 13.73
1/19/2021 3:30:00 AM 2.21 35.978 0.045 12.1 1.96 13.73
1/19/2021 3:45:00 AM 2.2 35.96 0.045 12.1 2.16 13.74
1/19/2021 4:00:00 AM 2.17 35.906 0.045 12.1 1.9 13.75
1/19/2021 4:15:00 AM 2.16 35.888 0.045 12.11 1.93 13.74
1/19/2021 4:30:00 AM 2.14 35.852 0.045 12.12 1.93 13.77
1/19/2021 4:45:00 AM 2.13 35.834 0.045 12.12 1.92 13.77
1/19/2021 5:00:00 AM 2.12 35.816 0.045 12.13 2.09 13.78
1/19/2021 5:15:00 AM 2.1 35.78 0.045 12.13 1.88 13.79
1/19/2021 5:30:00 AM 2.09 35.762 0.045 12.13 1.96 13.8
1/19/2021 5:45:00 AM 2.08 35.744 0.045 12.13 1.96 13.8
1/19/2021 6:00:00 AM 2.07 35.726 0.045 12.13 1.92 13.81
1/19/2021 6:15:00 AM 2.06 35.708 0.045 12.14 1.96 13.81
1/19/2021 6:30:00 AM 2.06 35.708 0.045 12.14 1.99 13.81
1/19/2021 6:45:00 AM 2.05 35.69 0.045 12.13 2.01 13.81
1/19/2021 7:00:00 AM 2.04 35.672 0.045 12.14 1.9 13.82
1/19/2021 7:15:00 AM 2.04 35.672 0.045 12.14 2.08 13.82
1/19/2021 7:30:00 AM 2.03 35.654 0.045 12.14 2.09 13.82
1/19/2021 7:45:00 AM 2.03 35.654 0.045 12.14 2.08 13.82
1/19/2021 8:00:00 AM 2.02 35.636 0.045 12.15 2.14 13.83
1/19/2021 8:15:00 AM 2.01 35.618 0.045 12.15 2.05 13.84
1/19/2021 8:30:00 AM 2.02 35.636 0.045 12.15 2.09 13.88
1/19/2021 8:45:00 AM 2.03 35.654 0.045 12.16 2 13.91
1/19/2021 9:00:00 AM 2.03 35.654 0.045 12.15 2.06 13.93
1/19/2021 9:15:00 AM 2.02 35.636 0.045 12.16 2.1 13.95
1/19/2021 9:30:00 AM 2.04 35.672 0.045 12.16 1.96 13.99
1/19/2021 9:45:00 AM 2.02 35.636 0.045 12.17 1.94 14
1/19/2021 10:00:00 AM 1.98 35.564 0.045 12.17 1.96 14
1/19/2021 10:15:00 AM 2.01 35.618 0.045 12.18 1.97 14.03
1/19/2021 10:30:00 AM 2.01 35.618 0.044 12.18 1.96 14.04
1/19/2021 10:45:00 AM 2.05 35.69 0.044 12.19 1.97 14.07
1/19/2021 11:00:00 AM 2.07 35.726 0.045 12.19 1.96 14.08
1/19/2021 11:15:00 AM 2.11 35.798 0.044 12.2 1.94 14.07
1/19/2021 11:30:00 AM 2.18 35.924 0.044 12.2 1.97 14.07
1/19/2021 11:45:00 AM 2.31 36.158 0.044 12.21 1.94 14.08
1/19/2021 12:00:00 PM 2.38 36.284 0.044 12.22 1.95 14.07
1/19/2021 12:15:00 PM 2.45 36.41 0.044 12.23 2.02 14.04
1/19/2021 12:30:00 PM 2.47 36.446 0.044 12.24 2.01 14.01
1/19/2021 12:45:00 PM 2.56 36.608 0.044 12.25 1.91 13.99
1/19/2021 1:00:00 PM 2.61 36.698 0.044 12.25 1.96 13.96
1/19/2021 1:15:00 PM 2.68 36.824 0.044 12.26 1.96 13.93
1/19/2021 1:30:00 PM 2.72 36.896 0.044 12.26 1.94 13.92
1/19/2021 1:45:00 PM 2.76 36.968 0.044 12.27 2.14 13.91
1/19/2021 2:00:00 PM 2.79 37.022 0.044 12.27 1.99 13.9
1/19/2021 2:15:00 PM 2.79 37.022 0.044 12.28 2.06 13.89
1/19/2021 2:30:00 PM 2.83 37.094 0.044 12.28 2.07 13.87
1/19/2021 2:45:00 PM 2.84 37.112 0.044 12.28 2.02 13.85
1/19/2021 3:00:00 PM 2.86 37.148 0.044 12.28 2.24 13.84
1/19/2021 3:15:00 PM 2.85 37.13 0.044 12.28 2.07 13.84
1/19/2021 3:30:00 PM 2.84 37.112 0.044 12.29 2.01 13.83
1/19/2021 3:45:00 PM 2.81 37.058 0.044 12.29 2 13.83
1/19/2021 4:00:00 PM 2.77 36.986 0.044 12.3 1.93 13.82
1/19/2021 4:15:00 PM 2.74 36.932 0.044 12.3 1.98 13.82
1/19/2021 4:30:00 PM 2.71 36.878 0.044 12.3 1.94 13.81
1/19/2021 4:45:00 PM 2.67 36.806 0.044 12.29 1.92 13.83
1/19/2021 5:00:00 PM 2.62 36.716 0.044 12.29 2.03 13.81
1/19/2021 5:15:00 PM 2.57 36.626 0.044 12.28 1.98 13.79
1/19/2021 5:30:00 PM 2.53 36.554 0.044 12.27 1.98 13.76
1/19/2021 5:45:00 PM 2.49 36.482 0.044 12.27 1.9 13.76
1/19/2021 6:00:00 PM 2.42 36.356 0.044 12.26 1.96 13.76
1/19/2021 6:15:00 PM 2.36 36.248 0.044 12.26 1.94 13.75
1/19/2021 6:30:00 PM 2.31 36.158 0.044 12.26 1.84 13.75
1/19/2021 6:45:00 PM 2.27 36.086 0.044 12.26 1.88 13.77
1/19/2021 7:00:00 PM 2.23 36.014 0.044 12.26 1.92 13.76
1/19/2021 7:15:00 PM 2.2 35.96 0.044 12.26 1.93 13.79
1/19/2021 7:30:00 PM 2.17 35.906 0.045 12.26 1.89 13.79
1/19/2021 7:45:00 PM 2.15 35.87 0.045 12.27 1.9 13.79
1/19/2021 8:00:00 PM 2.14 35.852 0.045 12.26 1.89 13.8
1/19/2021 8:15:00 PM 2.12 35.816 0.045 12.27 1.9 13.81
1/19/2021 8:30:00 PM 2.1 35.78 0.045 12.27 1.9 13.83
1/19/2021 8:45:00 PM 2.09 35.762 0.045 12.27 1.89 13.81
1/19/2021 9:00:00 PM 2.08 35.744 0.045 12.28 1.87 13.82
1/19/2021 9:15:00 PM 2.07 35.726 0.045 12.28 1.99 13.81
1/19/2021 9:30:00 PM 2.06 35.708 0.045 12.29 1.89 13.81
1/19/2021 9:45:00 PM 2.05 35.69 0.045 12.28 2 13.83
1/19/2021 10:00:00 PM 2.04 35.672 0.045 12.3 1.93 13.84
1/19/2021 10:15:00 PM 2.03 35.654 0.045 12.28 1.87 13.82
1/19/2021 10:30:00 PM 2.03 35.654 0.045 12.29 1.9 13.82
1/19/2021 10:45:00 PM 2.03 35.654 0.045 12.3 1.89 13.82
1/19/2021 11:00:00 PM 2.02 35.636 0.045 12.3 1.87 13.82
1/19/2021 11:15:00 PM 2.02 35.636 0.045 12.31 1.89 13.82
1/19/2021 11:30:00 PM 2.02 35.636 0.045 12.3 1.9 13.82
1/19/2021 11:45:00 PM 2.01 35.618 0.045 12.34 1.89 13.83
1/20/2021 12:00:00 AM 2.01 35.618 0.045 12.32 1.91 13.83
1/20/2021 12:15:00 AM 2.01 35.618 0.045 12.31 1.9 13.83
1/20/2021 12:30:00 AM 2.01 35.618 0.045 12.33 1.91 13.82
1/20/2021 12:45:00 AM 2.01 35.618 0.045 12.34 2.12 13.81
1/20/2021 1:00:00 AM 1.99 35.582 0.045 12.34 2.01 13.82
1/20/2021 1:15:00 AM 1.99 35.582 0.045 12.35 2 13.82
1/20/2021 1:30:00 AM 1.98 35.564 0.045 12.35 1.94 13.81
1/20/2021 1:45:00 AM 1.97 35.546 0.045 12.35 1.94 13.81
1/20/2021 2:00:00 AM 1.95 35.51 0.045 12.36 1.88 13.82
1/20/2021 2:15:00 AM 1.91 35.438 0.045 12.36 1.93 13.81
1/20/2021 2:30:00 AM 1.87 35.366 0.045 12.36 1.91 13.82
1/20/2021 2:45:00 AM 1.85 35.33 0.045 12.37 2.03 13.82
1/20/2021 3:00:00 AM 1.83 35.294 0.045 12.37 1.91 13.84
1/20/2021 3:15:00 AM 1.8 35.24 0.045 12.36 1.93 13.84
1/20/2021 3:30:00 AM 1.78 35.204 0.045 12.36 1.89 13.85
1/20/2021 3:45:00 AM 1.75 35.15 0.045 12.37 1.88 13.85
1/20/2021 4:00:00 AM 1.74 35.132 0.045 12.36 1.85 13.86
1/20/2021 4:15:00 AM 1.71 35.078 0.045 12.37 1.9 13.87
1/20/2021 4:30:00 AM 1.71 35.078 0.045 12.37 1.89 13.88
1/20/2021 4:45:00 AM 1.7 35.06 0.045 12.37 1.84 13.87
1/20/2021 5:00:00 AM 1.67 35.006 0.045 12.37 1.87 13.88
1/20/2021 5:15:00 AM 1.67 35.006 0.045 12.39 1.87 13.88
1/20/2021 5:30:00 AM 1.66 34.988 0.045 12.38 1.83 13.9
1/20/2021 5:45:00 AM 1.66 34.988 0.045 12.39 1.84 13.9
1/20/2021 6:00:00 AM 1.66 34.988 0.045 12.39 1.92 13.9
1/20/2021 6:15:00 AM 1.66 34.988 0.045 12.4 1.96 13.91
1/20/2021 6:30:00 AM 1.66 34.988 0.045 12.41 1.9 13.91
1/20/2021 6:45:00 AM 1.64 34.952 0.045 12.41 1.83 13.92
1/20/2021 7:00:00 AM 1.61 34.898 0.045 12.4 1.94 13.92
1/20/2021 7:15:00 AM 1.58 34.844 0.045 12.41 1.94 13.93
1/20/2021 7:30:00 AM 1.52 34.736 0.045 12.42 1.92 13.95
1/20/2021 7:45:00 AM 1.46 34.628 0.045 12.41 2.16 13.98
1/20/2021 8:00:00 AM 1.41 34.538 0.045 12.41 1.96 14.01
1/20/2021 8:15:00 AM 1.38 34.484 0.045 12.42 1.96 14.05
1/20/2021 8:30:00 AM 1.38 34.484 0.045 12.42 1.97 14.11
1/20/2021 8:45:00 AM 1.38 34.484 0.045 12.42 2.24 14.16
1/20/2021 9:00:00 AM 1.38 34.484 0.045 12.43 2.05 14.2
1/20/2021 9:15:00 AM 1.4 34.52 0.045 12.44 1.99 14.23
1/20/2021 9:30:00 AM 1.41 34.538 0.045 12.45 1.9 14.26
1/20/2021 9:45:00 AM 1.44 34.592 0.045 12.45 1.85 14.27
1/20/2021 10:00:00 AM 1.47 34.646 0.045 12.45 1.87 14.29
1/20/2021 10:15:00 AM 1.48 34.664 0.044 12.46 1.86 14.3
1/20/2021 10:30:00 AM 1.49 34.682 0.044 12.46 1.88 14.32
1/20/2021 10:45:00 AM 1.51 34.718 0.044 12.46 1.89 14.32
1/20/2021 11:00:00 AM 1.53 34.754 0.044 12.48 1.84 14.32
1/20/2021 11:15:00 AM 1.56 34.808 0.044 12.48 1.84 14.32
1/20/2021 11:30:00 AM 1.67 35.006 0.044 12.49 1.98 14.32
1/20/2021 11:45:00 AM 1.76 35.168 0.044 12.51 1.87 14.3
1/20/2021 12:00:00 PM 1.81 35.258 0.044 12.58 1.8 14.27
1/20/2021 12:15:00 PM 1.81 35.258 0.044 12.6 1.86 14.26
1/20/2021 12:30:00 PM 1.86 35.348 0.044 12.62 1.84 14.23
1/20/2021 12:45:00 PM 1.95 35.51 0.044 12.63 1.87 14.21
1/20/2021 1:00:00 PM 1.95 35.51 0.044 12.64 2.05 14.2
1/20/2021 1:15:00 PM 1.92 35.456 0.044 12.64 3.44 14.21
1/20/2021 1:30:00 PM 1.87 35.366 0.044 12.64 2.1 14.22
1/20/2021 1:45:00 PM 1.85 35.33 0.044 12.64 7.18 14.22
1/20/2021 2:00:00 PM 1.83 35.294 0.044 12.63 1.92 14.24
1/20/2021 2:15:00 PM 1.83 35.294 0.044 12.63 1.8 14.24
1/20/2021 2:30:00 PM 1.84 35.312 0.044 12.62 1.89 14.23
1/20/2021 2:45:00 PM 1.86 35.348 0.044 12.62 1.87 14.21
1/20/2021 3:00:00 PM 1.84 35.312 0.044 12.65 1.81 14.21
1/20/2021 3:15:00 PM 1.84 35.312 0.044 12.65 1.82 14.21
1/20/2021 3:30:00 PM 1.81 35.258 0.044 12.65 1.83 14.23
1/20/2021 3:45:00 PM 1.75 35.15 0.044 12.64 1.84 14.24
1/20/2021 4:00:00 PM 1.73 35.114 0.044 12.64 1.84 14.24
1/20/2021 4:15:00 PM 1.69 35.042 0.044 12.64 1.83 14.26
1/20/2021 4:30:00 PM 1.65 34.97 0.044 12.63 1.82 14.26
1/20/2021 4:45:00 PM 1.6 34.88 0.044 12.63 1.83 14.27
1/20/2021 5:00:00 PM 1.54 34.772 0.044 12.62 1.86 14.25
1/20/2021 5:15:00 PM 1.48 34.664 0.044 12.61 2.19 14.23
1/20/2021 5:30:00 PM 1.42 34.556 0.044 12.6 2.46 14.2
1/20/2021 5:45:00 PM 1.37 34.466 0.044 12.58 1.85 14.2
1/20/2021 6:00:00 PM 1.33 34.394 0.044 12.57 1.82 14.18
1/20/2021 6:15:00 PM 1.27 34.286 0.044 12.57 2.06 14.18
1/20/2021 6:30:00 PM 1.23 34.214 0.044 12.57 2.13 14.18
1/20/2021 6:45:00 PM 1.18 34.124 0.044 12.55 1.91 14.19
1/20/2021 7:00:00 PM 1.13 34.034 0.045 12.55 1.91 14.18
1/20/2021 7:15:00 PM 1.08 33.944 0.045 12.55 1.91 14.19
1/20/2021 7:30:00 PM 1.02 33.836 0.045 12.54 1.93 14.21
1/20/2021 7:45:00 PM 0.96 33.728 0.045 12.53 1.97 14.22
1/20/2021 8:00:00 PM 0.91 33.638 0.045 12.54 1.99 14.24
1/20/2021 8:15:00 PM 0.88 33.584 0.045 12.52 1.98 14.26
1/20/2021 8:30:00 PM 0.84 33.512 0.045 12.52 2.09 14.28
1/20/2021 8:45:00 PM 0.81 33.458 0.045 12.52 1.98 14.3
1/20/2021 9:00:00 PM 0.77 33.386 0.045 12.53 1.98 14.3
1/20/2021 9:15:00 PM 0.74 33.332 0.045 12.51 2.01 14.32
1/20/2021 9:30:00 PM 0.72 33.296 0.045 12.51 2 14.33
1/20/2021 9:45:00 PM 0.68 33.224 0.045 12.52 1.93 14.34
1/20/2021 10:00:00 PM 0.64 33.152 0.045 12.5 2.04 14.36
1/20/2021 10:15:00 PM 0.59 33.062 0.045 12.51 1.88 14.38
1/20/2021 10:30:00 PM 0.56 33.008 0.045 12.5 1.87 14.38
1/20/2021 10:45:00 PM 0.53 32.954 0.045 12.5 1.93 14.39
1/20/2021 11:00:00 PM 0.51 32.918 0.045 12.49 1.93 14.41
1/20/2021 11:15:00 PM 0.48 32.864 0.045 12.48 1.86 14.42
1/20/2021 11:30:00 PM 0.46 32.828 0.045 12.47 1.93 14.42
1/20/2021 11:45:00 PM 0.45 32.81 0.045 12.48 1.88 14.42
1/21/2021 12:00:00 AM 0.44 32.792 0.045 12.47 1.91 14.43
1/21/2021 12:15:00 AM 0.42 32.756 0.045 12.47 2 14.43
1/21/2021 12:30:00 AM 0.4 32.72 0.045 12.47 1.97 14.44
1/21/2021 12:45:00 AM 0.35 32.63 0.045 12.46 1.99 14.44
1/21/2021 1:00:00 AM 0.34 32.612 0.045 12.45 1.98 14.44
1/21/2021 1:15:00 AM 0.29 32.522 0.045 12.46 1.97 14.44
1/21/2021 1:30:00 AM 0.25 32.45 0.045 12.46 1.95 14.46
1/21/2021 1:45:00 AM 0.19 32.342 0.045 12.45 2.01 14.47
1/21/2021 2:00:00 AM 0.13 32.234 0.045 12.44 2.12 14.49
1/21/2021 2:15:00 AM 0.08 32.144 0.045 12.43 1.96 14.5
1/21/2021 2:30:00 AM 0.04 32.072 0.045 12.42 1.97 14.51
1/21/2021 2:45:00 AM 0 32 0.045 12.42 1.95 14.54
1/21/2021 3:00:00 AM -0.03 31.946 0.045 12.42 2.05 14.54
1/21/2021 3:15:00 AM -0.07 31.874 0.045 12.41 2.02 14.55
1/21/2021 3:30:00 AM -0.07 31.874 0.045 12.4 2.22 14.57
1/21/2021 3:45:00 AM -0.06 31.892 0.045 12.4 2.05 14.57
1/21/2021 4:00:00 AM -0.04 31.928 0.045 12.39 2.09 14.58
1/21/2021 4:15:00 AM -0.04 31.928 0.045 12.4 2.06 14.56
1/21/2021 4:30:00 AM -0.03 31.946 0.045 12.4 2.12 14.55
1/21/2021 4:45:00 AM -0.03 31.946 0.045 12.39 2.04 14.54
1/21/2021 5:00:00 AM -0.02 31.964 0.045 12.4 2.01 14.54
1/21/2021 5:15:00 AM -0.02 31.964 0.045 12.39 2.01 14.52
1/21/2021 5:30:00 AM -0.02 31.964 0.045 12.38 2.07 14.51
1/21/2021 5:45:00 AM -0.02 31.964 0.046 12.38 2.67 14.51
1/21/2021 6:00:00 AM -0.01 31.982 0.046 12.37 2.31 14.48
1/21/2021 6:15:00 AM 0.01 32.018 0.046 12.37 2.1 14.46
1/21/2021 6:30:00 AM 0.03 32.054 0.046 12.37 2.02 14.46
1/21/2021 6:45:00 AM 0.06 32.108 0.046 12.37 2.01 14.43
1/21/2021 7:00:00 AM 0.07 32.126 0.046 12.36 2.28 14.42
1/21/2021 7:15:00 AM 0.09 32.162 0.046 12.37 2.11 14.42
1/21/2021 7:30:00 AM 0.12 32.216 0.046 12.36 2.55 14.42
1/21/2021 7:45:00 AM 0.13 32.234 0.046 12.36 2.85 14.43
1/21/2021 8:00:00 AM 0.15 32.27 0.046 12.36 2.12 14.43
1/21/2021 8:15:00 AM 0.16 32.288 0.046 12.37 2.07 14.44
1/21/2021 8:30:00 AM 0.19 32.342 0.046 12.36 2.02 14.45
1/21/2021 8:45:00 AM 0.22 32.396 0.046 12.37 1.98 14.48
1/21/2021 9:00:00 AM 0.26 32.468 0.046 12.37 1.92 14.49
1/21/2021 9:15:00 AM 0.31 32.558 0.046 12.38 1.93 14.51
1/21/2021 9:30:00 AM 0.37 32.666 0.046 12.39 2.06 14.53
1/21/2021 9:45:00 AM 0.43 32.774 0.045 12.38 1.91 14.53
1/21/2021 10:00:00 AM 0.49 32.882 0.045 12.39 1.87 14.53
1/21/2021 10:15:00 AM 0.55 32.99 0.045 12.4 1.93 14.51
1/21/2021 10:30:00 AM 0.64 33.152 0.045 12.39 1.91 14.5
1/21/2021 10:45:00 AM 0.73 33.314 0.045 12.4 1.96 14.49
1/21/2021 11:00:00 AM 0.79 33.422 0.045 12.4 1.89 14.48
1/21/2021 11:15:00 AM 0.88 33.584 0.045 12.39 1.98 14.46
1/21/2021 11:30:00 AM 0.96 33.728 0.045 12.4 1.87 14.43
1/21/2021 11:45:00 AM 1.05 33.89 0.045 12.39 1.93 14.41
1/21/2021 12:00:00 PM 1.11 33.998 0.045 12.4 2.02 14.37
1/21/2021 12:15:00 PM 1.16 34.088 0.045 12.4 1.93 14.36
1/21/2021 12:30:00 PM 1.22 34.196 0.045 12.4 1.99 14.31
1/21/2021 12:45:00 PM 1.27 34.286 0.045 12.39 2.13 14.28
1/21/2021 1:00:00 PM 1.38 34.484 0.045 12.39 2.06 14.25
1/21/2021 1:15:00 PM 1.51 34.718 0.045 12.39 2.25 14.2
1/21/2021 1:30:00 PM 1.63 34.934 0.045 12.39 2.12 14.16
1/21/2021 1:45:00 PM 1.7 35.06 0.045 12.39 2.1 14.14
1/21/2021 2:00:00 PM 1.76 35.168 0.045 12.39 2.02 14.12
1/21/2021 2:15:00 PM 1.78 35.204 0.045 12.38 2.1 14.1
1/21/2021 2:30:00 PM 1.8 35.24 0.045 12.37 3.52 14.07
1/21/2021 2:45:00 PM 1.83 35.294 0.045 12.38 2.83 14.08
1/21/2021 3:00:00 PM 1.83 35.294 0.044 12.39 2.21 14.07
1/21/2021 3:15:00 PM 1.82 35.276 0.044 12.38 2.29 14.06
1/21/2021 3:30:00 PM 1.78 35.204 0.044 12.36 2.15 14.06
1/21/2021 3:45:00 PM 1.76 35.168 0.044 12.36 2.15 14.05
1/21/2021 4:00:00 PM 1.73 35.114 0.044 12.35 2.18 14.04
1/21/2021 4:15:00 PM 1.7 35.06 0.044 12.33 2.11 14.04
1/21/2021 4:30:00 PM 1.66 34.988 0.044 12.33 2.08 14.03
1/21/2021 4:45:00 PM 1.63 34.934 0.044 12.31 2.13 14.01
1/21/2021 5:00:00 PM 1.6 34.88 0.044 12.3 2.09 14
1/21/2021 5:15:00 PM 1.56 34.808 0.044 12.28 2.17 13.97
1/21/2021 5:30:00 PM 1.52 34.736 0.044 12.26 2.08 13.95
1/21/2021 5:45:00 PM 1.47 34.646 0.044 12.25 2.05 13.94
1/21/2021 6:00:00 PM 1.42 34.556 0.044 12.24 2.07 13.95
1/21/2021 6:15:00 PM 1.37 34.466 0.044 12.22 2.03 13.95
1/21/2021 6:30:00 PM 1.33 34.394 0.044 12.21 2.14 13.96
1/21/2021 6:45:00 PM 1.29 34.322 0.044 12.19 2.12 13.98
1/21/2021 7:00:00 PM 1.24 34.232 0.044 12.17 2.1 13.99
1/21/2021 7:15:00 PM 1.2 34.16 0.045 12.17 2.24 14
1/21/2021 7:30:00 PM 1.19 34.142 0.045 12.15 2.34 14.01
1/21/2021 7:45:00 PM 1.18 34.124 0.045 12.15 2.35 14
1/21/2021 8:00:00 PM 1.2 34.16 0.045 12.15 2.22 14
1/21/2021 8:15:00 PM 1.21 34.178 0.045 12.14 2.41 13.99
1/21/2021 8:30:00 PM 1.23 34.214 0.045 12.14 2.28 13.98
1/21/2021 8:45:00 PM 1.27 34.286 0.045 12.13 2.39 13.96
1/21/2021 9:00:00 PM 1.3 34.34 0.045 12.13 2.35 13.95
1/21/2021 9:15:00 PM 1.34 34.412 0.045 12.12 2.37 13.93
1/21/2021 9:30:00 PM 1.38 34.484 0.045 12.15 2.37 13.92
1/21/2021 9:45:00 PM 1.42 34.556 0.045 12.12 2.36 13.9
1/21/2021 10:00:00 PM 1.46 34.628 0.045 12.12 2.35 13.89
1/21/2021 10:15:00 PM 1.49 34.682 0.045 12.11 2.33 13.87
1/21/2021 10:30:00 PM 1.52 34.736 0.045 12.11 2.42 13.86
1/21/2021 10:45:00 PM 1.53 34.754 0.045 12.11 2.32 13.84
1/21/2021 11:00:00 PM 1.55 34.79 0.045 12.1 2.26 13.84
1/21/2021 11:15:00 PM 1.57 34.826 0.045 12.09 2.31 13.83
1/21/2021 11:30:00 PM 1.59 34.862 0.045 12.09 2.76 13.82
1/21/2021 11:45:00 PM 1.61 34.898 0.045 12.09 2.36 13.81
1/22/2021 12:00:00 AM 1.62 34.916 0.045 12.08 2.35 13.82
1/22/2021 12:15:00 AM 1.62 34.916 0.045 12.08 2.35 13.81
1/22/2021 12:30:00 AM 1.63 34.934 0.045 12.07 2.24 13.81
1/22/2021 12:45:00 AM 1.63 34.934 0.045 12.07 2.18 13.81
1/22/2021 1:00:00 AM 1.65 34.97 0.045 12.07 2.28 13.8
1/22/2021 1:15:00 AM 1.67 35.006 0.045 12.06 2.53 13.79
1/22/2021 1:30:00 AM 1.69 35.042 0.045 12.06 2.32 13.79
1/22/2021 1:45:00 AM 1.7 35.06 0.045 12.06 2.17 13.79
1/22/2021 2:00:00 AM 1.72 35.096 0.045 12.05 2.16 13.78
1/22/2021 2:15:00 AM 1.74 35.132 0.045 12.05 2.22 13.78
1/22/2021 2:30:00 AM 1.75 35.15 0.045 12.04 2.19 13.78
1/22/2021 2:45:00 AM 1.76 35.168 0.045 12.03 2.18 13.77
1/22/2021 3:00:00 AM 1.76 35.168 0.045 12.04 2.31 13.78
1/22/2021 3:15:00 AM 1.75 35.15 0.045 12.03 2.2 13.77
1/22/2021 3:30:00 AM 1.75 35.15 0.045 12.03 2.23 13.77
1/22/2021 3:45:00 AM 1.75 35.15 0.045 12.02 2.18 13.77
1/22/2021 4:00:00 AM 1.76 35.168 0.045 12.01 2.21 13.77
1/22/2021 4:15:00 AM 1.75 35.15 0.045 12.02 2.15 13.77
1/22/2021 4:30:00 AM 1.75 35.15 0.045 12 2.23 13.77
1/22/2021 4:45:00 AM 1.75 35.15 0.045 11.99 2.18 13.77
1/22/2021 5:00:00 AM 1.75 35.15 0.045 12 2.21 13.77
1/22/2021 5:15:00 AM 1.75 35.15 0.045 11.98 2.18 13.78
1/22/2021 5:30:00 AM 1.75 35.15 0.045 11.99 2.2 13.77
1/22/2021 5:45:00 AM 1.76 35.168 0.045 11.98 2.25 13.77
1/22/2021 6:00:00 AM 1.73 35.114 0.045 11.98 2.23 13.77
1/22/2021 6:15:00 AM 1.74 35.132 0.045 11.96 2.17 13.77
1/22/2021 6:30:00 AM 1.75 35.15 0.045 11.95 2.27 13.77
1/22/2021 6:45:00 AM 1.74 35.132 0.045 11.95 2.29 13.78
1/22/2021 7:00:00 AM 1.73 35.114 0.045 11.95 2.29 13.78
1/22/2021 7:15:00 AM 1.71 35.078 0.045 11.94 2.24 13.78
1/22/2021 7:30:00 AM 1.69 35.042 0.045 11.94 2.31 13.79
1/22/2021 7:45:00 AM 1.7 35.06 0.045 11.92 2.4 13.8
1/22/2021 8:00:00 AM 1.69 35.042 0.045 11.93 2.14 13.83
1/22/2021 8:15:00 AM 1.7 35.06 0.045 11.93 2.14 13.85
1/22/2021 8:30:00 AM 1.72 35.096 0.045 11.97 2.17 13.89
1/22/2021 8:45:00 AM 1.73 35.114 0.045 11.94 2.19 13.93
1/22/2021 9:00:00 AM 1.75 35.15 0.045 11.94 2.16 13.95
1/22/2021 9:15:00 AM 1.77 35.186 0.045 11.95 2.14 13.98
1/22/2021 9:30:00 AM 1.79 35.222 0.045 11.96 2.34 13.99
1/22/2021 9:45:00 AM 1.83 35.294 0.045 11.96 2.2 14
1/22/2021 10:00:00 AM 1.88 35.384 0.045 11.97 2.32 14.02
1/22/2021 10:15:00 AM 1.92 35.456 0.045 11.97 2.12 14.03
1/22/2021 10:30:00 AM 1.98 35.564 0.044 11.97 2.16 14.03
1/22/2021 10:45:00 AM 2.04 35.672 0.044 11.99 2.22 14.04
1/22/2021 11:00:00 AM 2.1 35.78 0.045 11.99 2.26 14.02
1/22/2021 11:15:00 AM 2.18 35.924 0.044 12.01 2.22 14
1/22/2021 11:30:00 AM 2.28 36.104 0.044 12.02 2.12 13.99
1/22/2021 11:45:00 AM 2.35 36.23 0.044 12.02 2.2 13.97
1/22/2021 12:00:00 PM 2.43 36.374 0.044 12.04 2.19 13.93
1/22/2021 12:15:00 PM 2.48 36.464 0.044 12.04 2.16 13.91
1/22/2021 12:30:00 PM 2.5 36.5 0.044 12.05 2.17 13.89
1/22/2021 12:45:00 PM 2.53 36.554 0.044 12.05 2.19 13.87
1/22/2021 1:00:00 PM 2.35 36.23 0.044 12.06 2.16 13.82
1/22/2021 1:15:00 PM 2.46 36.428 0.044 12.03 2.15 13.85
1/22/2021 1:30:00 PM 2.54 36.572 0.044 12.05 2.23 13.86
1/22/2021 1:45:00 PM 2.58 36.644 0.044 12.07 2.19 13.87
1/22/2021 2:00:00 PM 2.66 36.788 0.044 12.06 2.15 13.86
1/22/2021 2:15:00 PM 2.63 36.734 0.044 12.07 2.19 13.84
1/22/2021 2:30:00 PM 2.68 36.824 0.044 12.07 2.21 13.83
1/22/2021 2:45:00 PM 2.69 36.842 0.044 12.07 2.19 13.82
1/22/2021 3:00:00 PM 2.72 36.896 0.044 12.09 2.21 13.79
1/22/2021 3:15:00 PM 2.75 36.95 0.044 12.09 2.18 13.78
1/22/2021 3:30:00 PM 2.73 36.914 0.044 12.09 2.22 13.76
1/22/2021 3:45:00 PM 2.68 36.824 0.044 12.1 2.12 13.76
1/22/2021 4:00:00 PM 2.62 36.716 0.044 12.09 2.21 13.74
1/22/2021 4:15:00 PM 2.56 36.608 0.044 12.09 2.21 13.75
1/22/2021 4:30:00 PM 2.51 36.518 0.044 12.08 2.17 13.74
1/22/2021 4:45:00 PM 2.47 36.446 0.044 12.07 2.81 13.75
1/22/2021 5:00:00 PM 2.42 36.356 0.044 12.06 2.19 13.75
1/22/2021 5:15:00 PM 2.36 36.248 0.044 12.06 2.19 13.75
1/22/2021 5:30:00 PM 2.27 36.086 0.044 12.06 2.25 13.73
1/22/2021 5:45:00 PM 2.2 35.96 0.044 12.05 2.35 13.74
1/22/2021 6:00:00 PM 2.13 35.834 0.044 12.04 2.36 13.76
1/22/2021 6:15:00 PM 2.08 35.744 0.044 12.04 2.2 13.77
1/22/2021 6:30:00 PM 2.02 35.636 0.044 12.06 2.28 13.79
1/22/2021 6:45:00 PM 1.98 35.564 0.044 12.05 2.28 13.79
1/22/2021 7:00:00 PM 1.92 35.456 0.044 12.04 2.27 13.81
1/22/2021 7:15:00 PM 1.86 35.348 0.045 12.03 2.25 13.83
1/22/2021 7:30:00 PM 1.81 35.258 0.045 12.02 2.21 13.85
1/22/2021 7:45:00 PM 1.76 35.168 0.045 12.05 2.18 13.86
1/22/2021 8:00:00 PM 1.68 35.024 0.045 12.05 2.22 13.89
1/22/2021 8:15:00 PM 1.64 34.952 0.045 12.08 2.3 13.91
1/22/2021 8:30:00 PM 1.6 34.88 0.045 12.09 2.07 13.93
1/22/2021 8:45:00 PM 1.56 34.808 0.045 12.08 2.27 13.95
1/22/2021 9:00:00 PM 1.53 34.754 0.045 12.08 2.23 13.96
1/22/2021 9:15:00 PM 1.48 34.664 0.045 12.07 2.18 13.99
1/22/2021 9:30:00 PM 1.44 34.592 0.045 12.08 2.26 14
1/22/2021 9:45:00 PM 1.4 34.52 0.045 12.07 2.32 14.03
1/22/2021 10:00:00 PM 1.36 34.448 0.045 12.08 2.24 14.04
1/22/2021 10:15:00 PM 1.3 34.34 0.045 12.08 2.23 14.06
1/22/2021 10:30:00 PM 1.26 34.268 0.045 12.06 2.17 14.08
1/22/2021 10:45:00 PM 1.22 34.196 0.045 12.06 2.16 14.1
1/22/2021 11:00:00 PM 1.17 34.106 0.045 12.05 2.1 14.12
1/22/2021 11:15:00 PM 1.12 34.016 0.045 12.05 2.04 14.14
1/22/2021 11:30:00 PM 1.06 33.908 0.045 12.05 2.04 14.17
1/22/2021 11:45:00 PM 1 33.8 0.045 12.04 2.13 14.18
1/23/2021 12:00:00 AM 0.94 33.692 0.045 12.03 2.13 14.21
1/23/2021 12:15:00 AM 0.89 33.602 0.045 12.02 2.08 14.23
1/23/2021 12:30:00 AM 0.83 33.494 0.045 12.02 2.1 14.24
1/23/2021 12:45:00 AM 0.78 33.404 0.045 12.02 2.08 14.28
1/23/2021 1:00:00 AM 0.74 33.332 0.045 12.01 2.02 14.29
1/23/2021 1:15:00 AM 0.7 33.26 0.045 12 2.06 14.32
1/23/2021 1:30:00 AM 0.65 33.17 0.045 12 2.09 14.33
1/23/2021 1:45:00 AM 0.62 33.116 0.045 12 2.06 14.35
1/23/2021 2:00:00 AM 0.59 33.062 0.045 12 2.16 14.37
1/23/2021 2:15:00 AM 0.55 32.99 0.045 12 2.11 14.39
1/23/2021 2:30:00 AM 0.52 32.936 0.045 11.99 2.16 14.4
1/23/2021 2:45:00 AM 0.49 32.882 0.045 11.98 2.05 14.42
1/23/2021 3:00:00 AM 0.46 32.828 0.045 11.99 2.15 14.43
1/23/2021 3:15:00 AM 0.43 32.774 0.045 11.99 2236.32 14.46
1/23/2021 3:30:00 AM 0.39 32.702 0.045 11.99 2.32 14.47
1/23/2021 3:45:00 AM 0.36 32.648 0.045 11.98 2.27 14.48
1/23/2021 4:00:00 AM 0.33 32.594 0.045 11.98 2.29 14.49
1/23/2021 4:15:00 AM 0.3 32.54 0.045 11.97 2.25 14.51
1/23/2021 4:30:00 AM 0.28 32.504 0.045 11.97 2.24 14.52
1/23/2021 4:45:00 AM 0.25 32.45 0.045 11.97 2.24 14.53
1/23/2021 5:00:00 AM 0.23 32.414 0.045 11.98 2.28 14.55
1/23/2021 5:15:00 AM 0.22 32.396 0.045 11.97 2.27 14.55
1/23/2021 5:30:00 AM 0.19 32.342 0.045 11.98 2.28 14.55
1/23/2021 5:45:00 AM 0.17 32.306 0.045 11.97 2.35 14.57
1/23/2021 6:00:00 AM 0.14 32.252 0.045 11.97 2.26 14.59
1/23/2021 6:15:00 AM 0.12 32.216 0.045 11.97 2.27 14.6
1/23/2021 6:30:00 AM 0.1 32.18 0.045 11.96 2.21 14.6
1/23/2021 6:45:00 AM 0.09 32.162 0.045 11.96 2.25 14.62
1/23/2021 7:00:00 AM 0.08 32.144 0.045 11.95 2.36 14.63
1/23/2021 7:15:00 AM 0.08 32.144 0.045 11.96 2.27 14.62
1/23/2021 7:30:00 AM 0.07 32.126 0.045 11.96 2.34 14.63
1/23/2021 7:45:00 AM 0.07 32.126 0.045 11.95 2.35 14.65
1/23/2021 8:00:00 AM 0.07 32.126 0.045 11.96 2.37 14.65
1/23/2021 8:15:00 AM 0.08 32.144 0.045 11.96 2.39 14.69
1/23/2021 8:30:00 AM 0.09 32.162 0.045 11.96 2.35 14.7
1/23/2021 8:45:00 AM 0.09 32.162 0.045 11.97 2.27 14.74
1/23/2021 9:00:00 AM 0.11 32.198 0.045 11.98 2.15 14.78
1/23/2021 9:15:00 AM 0.13 32.234 0.045 11.98 2.05 14.81
1/23/2021 9:30:00 AM 0.15 32.27 0.045 11.99 2.11 14.83
1/23/2021 9:45:00 AM 0.19 32.342 0.045 11.99 2 14.84
1/23/2021 10:00:00 AM 0.22 32.396 0.045 12 2.01 14.87
1/23/2021 10:15:00 AM 0.26 32.468 0.045 12 2 14.88
1/23/2021 10:30:00 AM 0.29 32.522 0.045 12.01 2 14.88
1/23/2021 10:45:00 AM 0.32 32.576 0.045 12.02 2.09 14.88
1/23/2021 11:00:00 AM 0.36 32.648 0.045 12.01 2.08 14.87
1/23/2021 11:15:00 AM 0.41 32.738 0.045 12.03 1.92 14.87
1/23/2021 11:30:00 AM 0.47 32.846 0.045 12.03 1.98 14.85
1/23/2021 11:45:00 AM 0.53 32.954 0.045 12.04 1.99 14.83
1/23/2021 12:00:00 PM 0.6 33.08 0.045 12.05 2.01 14.81
1/23/2021 12:15:00 PM 0.66 33.188 0.045 12.05 2.04 14.8
1/23/2021 12:30:00 PM 0.71 33.278 0.045 12.05 2.09 14.78
1/23/2021 12:45:00 PM 0.72 33.296 0.045 12.07 2 14.77
1/23/2021 1:00:00 PM 0.74 33.332 0.045 12.06 1.98 14.76
1/23/2021 1:15:00 PM 0.71 33.278 0.045 12.06 2.06 14.75
1/23/2021 1:30:00 PM 0.76 33.368 0.045 12.06 1.94 14.75
1/23/2021 1:45:00 PM 0.81 33.458 0.045 12.08 1.93 14.74
1/23/2021 2:00:00 PM 0.85 33.53 0.045 12.07 2.01 14.74
1/23/2021 2:15:00 PM 0.85 33.53 0.045 12.07 1.96 14.73
1/23/2021 2:30:00 PM 0.87 33.566 0.045 12.08 2.16 14.72
1/23/2021 2:45:00 PM 0.86 33.548 0.045 12.08 1.95 14.73
1/23/2021 3:00:00 PM 0.84 33.512 0.045 12.07 2.06 14.72
1/23/2021 3:15:00 PM 0.82 33.476 0.045 12.06 1.93 14.72
1/23/2021 3:30:00 PM 0.81 33.458 0.045 12.06 2.04 14.72
1/23/2021 3:45:00 PM 0.79 33.422 0.045 12.05 2.27 14.71
1/23/2021 4:00:00 PM 0.75 33.35 0.045 12.05 2.01 14.72
1/23/2021 4:15:00 PM 0.72 33.296 0.045 12.04 1.94 14.72
1/23/2021 4:30:00 PM 0.66 33.188 0.045 12.03 1.98 14.72
1/23/2021 4:45:00 PM 0.61 33.098 0.045 12.02 2.03 14.71
1/23/2021 5:00:00 PM 0.55 32.99 0.045 12.02 2 14.7
1/23/2021 5:15:00 PM 0.49 32.882 0.045 12 1.98 14.69
1/23/2021 5:30:00 PM 0.44 32.792 0.045 11.99 1.93 14.68
1/23/2021 5:45:00 PM 0.39 32.702 0.045 11.98 1.93 14.67
1/23/2021 6:00:00 PM 0.35 32.63 0.045 11.96 1.98 14.66
1/23/2021 6:15:00 PM 0.3 32.54 0.045 11.96 1.92 14.68
1/23/2021 6:30:00 PM 0.26 32.468 0.045 11.95 2.46 14.68
1/23/2021 6:45:00 PM 0.22 32.396 0.045 11.95 2.03 14.69
1/23/2021 7:00:00 PM 0.19 32.342 0.045 11.94 2.02 14.69
1/23/2021 7:15:00 PM 0.16 32.288 0.045 11.93 1.9 14.7
1/23/2021 7:30:00 PM 0.13 32.234 0.045 11.93 1.91 14.7
1/23/2021 7:45:00 PM 0.11 32.198 0.045 11.93 1.92 14.71
1/23/2021 8:00:00 PM 0.1 32.18 0.045 11.92 2.09 14.7
1/23/2021 8:15:00 PM 0.09 32.162 0.045 11.92 2.03 14.71
1/23/2021 8:30:00 PM 0.07 32.126 0.045 11.92 2.13 14.72
1/23/2021 8:45:00 PM 0.07 32.126 0.045 11.91 1.93 14.72
1/23/2021 9:00:00 PM 0.07 32.126 0.045 11.92 1.97 14.72
1/23/2021 9:15:00 PM 0.06 32.108 0.045 11.91 2.02 14.73
1/23/2021 9:30:00 PM 0.07 32.126 0.046 11.92 2.02 14.72
1/23/2021 9:45:00 PM 0.08 32.144 0.046 11.92 2.12 14.72
1/23/2021 10:00:00 PM 0.07 32.126 0.046 11.92 2.12 14.71
1/23/2021 10:15:00 PM 0.04 32.072 0.046 11.91 2.15 14.72
1/23/2021 10:30:00 PM 0.05 32.09 0.046 11.91 2.13 14.73
1/23/2021 10:45:00 PM 0.06 32.108 0.046 11.91 2.25 14.72
1/23/2021 11:00:00 PM 0.07 32.126 0.046 11.91 2.05 14.73
1/23/2021 11:15:00 PM 0.06 32.108 0.046 11.91 3.57 14.73
1/23/2021 11:30:00 PM 0.04 32.072 0.046 11.94 2.18 14.74
1/23/2021 11:45:00 PM 0.03 32.054 0.046 11.9 2.18 14.73
1/24/2021 12:00:00 AM 0.04 32.072 0.046 11.91 2.28 14.73
1/24/2021 12:15:00 AM 0.02 32.036 0.046 11.91 2.42 14.75
1/24/2021 12:30:00 AM 0.01 32.018 0.046 11.9 2.02 14.74
1/24/2021 12:45:00 AM 0 32 0.046 11.93 31.42 14.74
1/24/2021 1:00:00 AM -0.01 31.982 0.046 11.9 1.98 14.74
1/24/2021 1:15:00 AM -0.01 31.982 0.046 11.9 2.05 14.75
1/24/2021 1:30:00 AM -0.03 31.946 0.046 11.9 3.17 14.75
1/24/2021 1:45:00 AM -0.04 31.928 0.046 11.91 11.63 14.75
1/24/2021 2:00:00 AM -0.05 31.91 0.046 11.91 2.01 14.76
1/24/2021 2:15:00 AM -0.06 31.892 0.046 11.9 1.94 14.77
1/24/2021 2:30:00 AM -0.07 31.874 0.046 11.9 1.89 14.8
1/24/2021 2:45:00 AM -0.07 31.874 0.046 11.89 2.02 14.8
1/24/2021 3:00:00 AM -0.06 31.892 0.046 11.9 2.01 14.79
1/24/2021 3:15:00 AM -0.04 31.928 0.046 11.9 2.6 14.8
1/24/2021 3:30:00 AM -0.04 31.928 0.046 11.9 2.45 14.8
1/24/2021 3:45:00 AM -0.04 31.928 0.046 11.9 1.83 14.82
1/24/2021 4:00:00 AM -0.03 31.946 0.046 11.9 1.94 14.8
1/24/2021 4:15:00 AM -0.03 31.946 0.046 11.9 1.88 14.83
1/24/2021 4:30:00 AM -0.03 31.946 0.046 11.91 1.86 14.83
1/24/2021 4:45:00 AM -0.03 31.946 0.046 11.9 2.87 14.83
1/24/2021 5:00:00 AM -0.03 31.946 0.046 11.9 1.86 14.83
1/24/2021 5:15:00 AM -0.04 31.928 0.046 11.9 1.85 14.83
1/24/2021 5:30:00 AM -0.03 31.946 0.046 11.9 1.93 14.83
1/24/2021 5:45:00 AM -0.03 31.946 0.046 11.91 2.24 14.82
1/24/2021 6:00:00 AM -0.03 31.946 0.046 11.9 2.63 14.81
1/24/2021 6:15:00 AM -0.03 31.946 0.046 11.9 1.95 14.82
1/24/2021 6:30:00 AM -0.04 31.928 0.046 11.9 1.94 14.81
1/24/2021 6:45:00 AM -0.03 31.946 0.046 11.91 1.83 14.82
1/24/2021 7:00:00 AM -0.03 31.946 0.046 11.9 1.88 14.82
1/24/2021 7:15:00 AM -0.03 31.946 0.046 11.9 2.07 14.82
1/24/2021 7:30:00 AM -0.03 31.946 0.046 11.9 1.87 14.8
1/24/2021 7:45:00 AM -0.03 31.946 0.046 11.89 1.89 14.82
1/24/2021 8:00:00 AM -0.03 31.946 0.046 11.9 2.03 14.83
1/24/2021 8:15:00 AM -0.03 31.946 0.046 11.91 2.16 14.88
1/24/2021 8:30:00 AM -0.03 31.946 0.046 11.91 1.86 14.88
1/24/2021 8:45:00 AM -0.03 31.946 0.046 11.91 2.01 14.94
1/24/2021 9:00:00 AM -0.03 31.946 0.046 11.92 1.95 14.96
1/24/2021 9:15:00 AM -0.03 31.946 0.046 11.91 1.84 14.96
1/24/2021 9:30:00 AM -0.03 31.946 0.046 11.92 2.47 15
1/24/2021 9:45:00 AM -0.02 31.964 0.046 11.92 2.8 15.01
1/24/2021 10:00:00 AM -0.02 31.964 0.046 11.93 2.05 15.01
1/24/2021 10:15:00 AM -0.02 31.964 0.046 11.93 3.16 15.05
1/24/2021 10:30:00 AM -0.01 31.982 0.046 11.94 2.24 15.05
1/24/2021 10:45:00 AM 0 32 0.046 11.94 2.68 15.07
1/24/2021 11:00:00 AM 0 32 0.046 11.95 2.23 15.04
1/24/2021 11:15:00 AM 0 32 0.046 11.95 2.76 15.03
1/24/2021 11:30:00 AM 0 32 0.046 11.96 2.1 15.03
1/24/2021 11:45:00 AM 0.01 32.018 0.046 11.95 2.01 14.98
1/24/2021 12:00:00 PM 0.01 32.018 0.046 11.97 2.14 14.94
1/24/2021 12:15:00 PM 0.03 32.054 0.046 11.97 2.18 14.93
1/24/2021 12:30:00 PM 0.04 32.072 0.046 11.96 1.9 14.89
1/24/2021 12:45:00 PM 0.05 32.09 0.046 11.97 1.96 14.85
1/24/2021 1:00:00 PM 0.05 32.09 0.046 11.97 2.1 14.73
1/24/2021 1:15:00 PM 0.16 32.288 0.046 11.99 2.57 14.68
1/24/2021 1:30:00 PM 0.37 32.666 0.046 11.99 2.17 14.67
1/24/2021 1:45:00 PM 0.66 33.188 0.046 12.02 2.05 14.64
1/24/2021 2:00:00 PM 0.79 33.422 0.046 12.05 1.9 14.65
1/24/2021 2:15:00 PM 0.86 33.548 0.046 12.07 2.04 14.62
1/24/2021 2:30:00 PM 0.9 33.62 0.046 12.07 2.03 14.63
1/24/2021 2:45:00 PM 0.93 33.674 0.045 12.08 1.9 14.61
1/24/2021 3:00:00 PM 0.94 33.692 0.045 12.09 1.99 14.63
1/24/2021 3:15:00 PM 0.91 33.638 0.045 12.09 2.11 14.65
1/24/2021 3:30:00 PM 0.85 33.53 0.045 12.08 1.99 14.67
1/24/2021 3:45:00 PM 0.79 33.422 0.045 12.08 1.89 14.68
1/24/2021 4:00:00 PM 0.76 33.368 0.045 12.08 1.91 14.69
1/24/2021 4:15:00 PM 0.72 33.296 0.045 12.06 1.93 14.69
1/24/2021 4:30:00 PM 0.69 33.242 0.045 12.05 1.97 14.69
1/24/2021 4:45:00 PM 0.66 33.188 0.045 12.06 1.96 14.68
1/24/2021 5:00:00 PM 0.62 33.116 0.045 12.04 2.02 14.68
1/24/2021 5:15:00 PM 0.59 33.062 0.046 12.04 2.23 14.66
1/24/2021 5:30:00 PM 0.55 32.99 0.046 12.03 2.24 14.63
1/24/2021 5:45:00 PM 0.51 32.918 0.046 12.01 6.7 14.61
1/24/2021 6:00:00 PM 0.49 32.882 0.046 12 2.93 14.6
1/24/2021 6:15:00 PM 0.46 32.828 0.046 12.01 2.19 14.59
1/24/2021 6:30:00 PM 0.44 32.792 0.042 11.98 5.26 14.57
1/24/2021 6:45:00 PM 0.42 32.756 0.045 11.98 3.02 14.58
1/24/2021 7:00:00 PM 0.41 32.738 0.046 11.98 2.12 14.56
1/24/2021 7:15:00 PM 0.41 32.738 0.046 11.98 2.17 14.56
1/24/2021 7:30:00 PM 0.4 32.72 0.046 11.97 2.17 14.56
1/24/2021 7:45:00 PM 0.4 32.72 0.046 11.96 2.16 14.55
1/24/2021 8:00:00 PM 0.39 32.702 0.046 11.98 1.91 14.54
1/24/2021 8:15:00 PM 0.39 32.702 0.046 11.97 1.92 14.54
1/24/2021 8:30:00 PM 0.39 32.702 0.046 11.97 2 14.54
1/24/2021 8:45:00 PM 0.4 32.72 0.046 11.96 1.85 14.54
1/24/2021 9:00:00 PM 0.4 32.72 0.046 11.96 1.88 14.53
1/24/2021 9:15:00 PM 0.4 32.72 0.046 11.98 2.33 14.53
1/24/2021 9:30:00 PM 0.4 32.72 0.046 11.97 1.85 14.53
1/24/2021 9:45:00 PM 0.41 32.738 0.046 11.97 1.95 14.54
1/24/2021 10:00:00 PM 0.41 32.738 0.046 11.97 2.06 14.52
1/24/2021 10:15:00 PM 0.41 32.738 0.046 11.98 2.12 14.53
1/24/2021 10:30:00 PM 0.41 32.738 0.046 11.96 2.67 14.52
1/24/2021 10:45:00 PM 0.41 32.738 0.046 11.96 2 14.52
1/24/2021 11:00:00 PM 0.41 32.738 0.046 11.97 1.98 14.52
1/24/2021 11:15:00 PM 0.41 32.738 0.046 11.97 2.04 14.52
1/24/2021 11:30:00 PM 0.41 32.738 0.046 11.97 3.51 14.53
1/24/2021 11:45:00 PM 0.41 32.738 0.046 11.97 1.99 14.52
1/25/2021 12:00:00 AM 0.4 32.72 0.046 11.97 2.02 14.52
1/25/2021 12:15:00 AM 0.37 32.666 0.046 11.97 1.82 14.53
1/25/2021 12:30:00 AM 0.34 32.612 0.046 11.97 1.79 14.52
1/25/2021 12:45:00 AM 0.31 32.558 0.046 11.97 1.88 14.54
1/25/2021 1:00:00 AM 0.27 32.486 0.046 11.97 1.82 14.55
1/25/2021 1:15:00 AM 0.23 32.414 0.046 11.96 1.76 14.57
1/25/2021 1:30:00 AM 0.19 32.342 0.046 11.96 1.95 14.59
1/25/2021 1:45:00 AM 0.16 32.288 0.046 11.96 1.8 14.6
1/25/2021 2:00:00 AM 0.14 32.252 0.046 11.96 1.85 14.61
1/25/2021 2:15:00 AM 0.12 32.216 0.046 11.96 1.79 14.62
1/25/2021 2:30:00 AM 0.1 32.18 0.046 11.95 1.83 14.62
1/25/2021 2:45:00 AM 0.09 32.162 0.046 11.94 2.02 14.64
1/25/2021 3:00:00 AM 0.05 32.09 0.046 11.94 1.82 14.65
1/25/2021 3:15:00 AM 0.03 32.054 0.046 11.95 1.75 14.64
1/25/2021 3:30:00 AM 0 32 0.046 11.94 1.79 14.65
1/25/2021 3:45:00 AM -0.02 31.964 0.046 11.94 1.78 14.66
1/25/2021 4:00:00 AM -0.04 31.928 0.046 11.95 1.75 14.7
1/25/2021 4:15:00 AM -0.07 31.874 0.046 11.94 1.79 14.7
1/25/2021 4:30:00 AM -0.06 31.892 0.046 11.93 1.93 14.72
1/25/2021 4:45:00 AM -0.05 31.91 0.046 11.94 1.83 14.72
1/25/2021 5:00:00 AM -0.04 31.928 0.046 11.93 1.77 14.73
1/25/2021 5:15:00 AM -0.03 31.946 0.046 11.94 2.64 14.71
1/25/2021 5:30:00 AM -0.03 31.946 0.046 11.94 1.95 14.74
1/25/2021 5:45:00 AM -0.03 31.946 0.046 11.94 1.99 14.72
1/25/2021 6:00:00 AM -0.03 31.946 0.046 11.94 1.73 14.73
1/25/2021 6:15:00 AM -0.03 31.946 0.046 11.94 1.86 14.73
1/25/2021 6:30:00 AM -0.04 31.928 0.046 11.94 2.04 14.72
1/25/2021 6:45:00 AM -0.04 31.928 0.046 11.94 1.9 14.74
1/25/2021 7:00:00 AM -0.04 31.928 0.046 11.94 2.13 14.71
1/25/2021 7:15:00 AM -0.04 31.928 0.046 11.94 1.79 14.72
1/25/2021 7:30:00 AM -0.03 31.946 0.046 11.95 1.92 14.71
1/25/2021 7:45:00 AM -0.03 31.946 0.046 11.94 1.91 14.71
1/25/2021 8:00:00 AM -0.02 31.964 0.046 11.95 2.06 14.72
1/25/2021 8:15:00 AM -0.02 31.964 0.046 11.96 1.86 14.76
1/25/2021 8:30:00 AM -0.01 31.982 0.046 11.95 1.95 14.79
1/25/2021 8:45:00 AM 0 32 0.046 11.96 1.8 14.82
1/25/2021 9:00:00 AM 0 32 0.046 11.97 7.63 14.86
1/25/2021 9:15:00 AM 0.01 32.018 0.046 11.97 3.19 14.9
1/25/2021 9:30:00 AM 0.01 32.018 0.046 11.99 1.78 14.92
1/25/2021 9:45:00 AM 0 32 0.046 11.98 1.87 14.94
1/25/2021 10:00:00 AM 0.02 32.036 0.046 11.99 1.74 14.96
1/25/2021 10:15:00 AM 0.05 32.09 0.045 11.99 2.18 14.96
1/25/2021 10:30:00 AM 0.06 32.108 0.045 12 1.92 14.95
1/25/2021 10:45:00 AM 0.07 32.126 0.045 12.01 2.16 14.94
1/25/2021 11:00:00 AM 0.12 32.216 0.045 12.01 1.89 14.91
1/25/2021 11:15:00 AM 0.24 32.432 0.045 12.03 1.79 14.88
1/25/2021 11:30:00 AM 0.43 32.774 0.045 12.04 1.88 14.82
1/25/2021 11:45:00 AM 0.61 33.098 0.045 12.06 1.76 14.78
1/25/2021 12:00:00 PM 0.72 33.296 0.045 12.1 1.75 14.7
1/25/2021 12:15:00 PM 0.87 33.566 0.045 12.11 1.75 14.68
1/25/2021 12:30:00 PM 0.95 33.71 0.045 12.13 1.69 14.64
1/25/2021 12:45:00 PM 1.08 33.944 0.045 12.14 1.72 14.61
1/25/2021 1:00:00 PM 1.15 34.07 0.045 12.15 1.76 14.58
1/25/2021 1:15:00 PM 1.26 34.268 0.045 12.17 1.72 14.54
1/25/2021 1:30:00 PM 1.37 34.466 0.045 12.19 1.71 14.5
1/25/2021 1:45:00 PM 1.46 34.628 0.045 12.2 1.88 14.47
1/25/2021 2:00:00 PM 1.53 34.754 0.045 12.19 1.73 14.43
1/25/2021 2:15:00 PM 1.54 34.772 0.045 12.2 1.71 14.42
1/25/2021 2:30:00 PM 1.55 34.79 0.045 12.22 1.78 14.41
1/25/2021 2:45:00 PM 1.54 34.772 0.045 12.21 1.76 14.4
1/25/2021 3:00:00 PM 1.51 34.718 0.045 12.21 1.83 14.41
1/25/2021 3:15:00 PM 1.49 34.682 0.045 12.21 1.81 14.41
1/25/2021 3:30:00 PM 1.46 34.628 0.045 12.21 1.86 14.43
1/25/2021 3:45:00 PM 1.43 34.574 0.045 12.2 1.84 14.44
1/25/2021 4:00:00 PM 1.36 34.448 0.045 12.19 1.81 14.45
1/25/2021 4:15:00 PM 1.3 34.34 0.045 12.19 1.8 14.46
1/25/2021 4:30:00 PM 1.26 34.268 0.045 12.18 1.75 14.45
1/25/2021 4:45:00 PM 1.18 34.124 0.045 12.17 1.79 14.44
1/25/2021 5:00:00 PM 1.14 34.052 0.045 12.17 1.73 14.43
1/25/2021 5:15:00 PM 1.09 33.962 0.045 12.14 1.78 14.42
1/25/2021 5:30:00 PM 1.04 33.872 0.045 12.14 1.82 14.4
1/25/2021 5:45:00 PM 1 33.8 0.045 12.12 1.85 14.39
1/25/2021 6:00:00 PM 0.97 33.746 0.045 12.13 1.9 14.36
1/25/2021 6:15:00 PM 0.94 33.692 0.045 12.11 1.81 14.37
1/25/2021 6:30:00 PM 0.9 33.62 0.045 12.1 1.77 14.36
1/25/2021 6:45:00 PM 0.88 33.584 0.045 12.1 1.75 14.36
1/25/2021 7:00:00 PM 0.85 33.53 0.045 12.1 1.8 14.36
1/25/2021 7:15:00 PM 0.83 33.494 0.045 12.1 1.85 14.36
1/25/2021 7:30:00 PM 0.81 33.458 0.045 12.1 1.76 14.36
1/25/2021 7:45:00 PM 0.8 33.44 0.045 12.09 1.7 14.35
1/25/2021 8:00:00 PM 0.79 33.422 0.045 12.08 1.75 14.36
1/25/2021 8:15:00 PM 0.78 33.404 0.045 12.09 1.83 14.35
1/25/2021 8:30:00 PM 0.78 33.404 0.045 12.09 1.71 14.36
1/25/2021 8:45:00 PM 0.78 33.404 0.045 12.1 1.79 14.36
1/25/2021 9:00:00 PM 0.77 33.386 0.045 12.1 1.77 14.36
1/25/2021 9:15:00 PM 0.77 33.386 0.045 12.11 1.79 14.35
1/25/2021 9:30:00 PM 0.78 33.404 0.045 12.09 1.78 14.36
1/25/2021 9:45:00 PM 0.78 33.404 0.045 12.1 1.85 14.36
1/25/2021 10:00:00 PM 0.78 33.404 0.045 12.1 1.75 14.35
1/25/2021 10:15:00 PM 0.79 33.422 0.045 12.1 1.77 14.36
1/25/2021 10:30:00 PM 0.79 33.422 0.045 12.11 1.9 14.35
1/25/2021 10:45:00 PM 0.8 33.44 0.045 12.11 1.77 14.35
1/25/2021 11:00:00 PM 0.8 33.44 0.045 12.11 1.82 14.35
1/25/2021 11:15:00 PM 0.79 33.422 0.045 12.12 1.84 14.35
1/25/2021 11:30:00 PM 0.8 33.44 0.045 12.12 1.75 14.34
1/25/2021 11:45:00 PM 0.8 33.44 0.045 12.12 1.74 14.34
1/26/2021 12:00:00 AM 0.8 33.44 0.045 12.13 1.81 14.34
1/26/2021 12:15:00 AM 0.79 33.422 0.045 12.12 1.71 14.34
1/26/2021 12:30:00 AM 0.79 33.422 0.045 12.13 1.8 14.34
1/26/2021 12:45:00 AM 0.79 33.422 0.045 12.13 1.75 14.34
1/26/2021 1:00:00 AM 0.8 33.44 0.045 12.13 1.73 14.34
1/26/2021 1:15:00 AM 0.8 33.44 0.045 12.13 1.76 14.33
1/26/2021 1:30:00 AM 0.79 33.422 0.045 12.13 1.75 14.33
1/26/2021 1:45:00 AM 0.8 33.44 0.045 12.13 1.82 14.32
1/26/2021 2:00:00 AM 0.8 33.44 0.045 12.13 1.7 14.33
1/26/2021 2:15:00 AM 0.79 33.422 0.045 12.13 1.75 14.33
1/26/2021 2:30:00 AM 0.78 33.404 0.045 12.13 1.71 14.33
1/26/2021 2:45:00 AM 0.78 33.404 0.045 12.13 1.74 14.32
1/26/2021 3:00:00 AM 0.77 33.386 0.045 12.13 1.79 14.32
1/26/2021 3:15:00 AM 0.76 33.368 0.045 12.14 1.78 14.33
1/26/2021 3:30:00 AM 0.76 33.368 0.045 12.13 1.77 14.33
1/26/2021 3:45:00 AM 0.74 33.332 0.045 12.14 2.26 14.33
1/26/2021 4:00:00 AM 0.74 33.332 0.045 12.13 1.72 14.32
1/26/2021 4:15:00 AM 0.73 33.314 0.045 12.13 1.76 14.32
1/26/2021 4:30:00 AM 0.73 33.314 0.045 12.14 1.75 14.32
1/26/2021 4:45:00 AM 0.72 33.296 0.045 12.13 1.74 14.32
1/26/2021 5:00:00 AM 0.72 33.296 0.045 12.13 1.83 14.32
1/26/2021 5:15:00 AM 0.72 33.296 0.045 12.14 1.77 14.31
1/26/2021 5:30:00 AM 0.72 33.296 0.045 12.13 1.87 14.31
1/26/2021 5:45:00 AM 0.73 33.314 0.045 12.14 1.82 14.31
1/26/2021 6:00:00 AM 0.72 33.296 0.045 12.14 1.83 14.31
1/26/2021 6:15:00 AM 0.72 33.296 0.045 12.13 1.77 14.3
1/26/2021 6:30:00 AM 0.72 33.296 0.045 12.14 1.76 14.3
1/26/2021 6:45:00 AM 0.72 33.296 0.045 12.14 1.8 14.3
1/26/2021 7:00:00 AM 0.72 33.296 0.045 12.14 1.78 14.3
1/26/2021 7:15:00 AM 0.69 33.242 0.045 12.15 1.78 14.3
1/26/2021 7:30:00 AM 0.51 32.918 0.045 12.14 1.8 14.3
1/26/2021 7:45:00 AM 0.35 32.63 0.045 12.13 1.81 14.3
1/26/2021 8:00:00 AM 0.25 32.45 0.045 12.11 1.73 14.35
1/26/2021 8:15:00 AM 0.19 32.342 0.045 12.11 1.85 14.4
1/26/2021 8:30:00 AM 0.17 32.306 0.045 12.09 1.82 14.45
1/26/2021 8:45:00 AM 0.21 32.378 0.045 12.11 1.85 14.49
1/26/2021 9:00:00 AM 0.17 32.306 0.045 12.11 1.86 14.49
1/26/2021 9:15:00 AM 0.1 32.18 0.045 12.11 1.81 14.55
1/26/2021 9:30:00 AM 0.1 32.18 0.045 12.11 1.8 14.58
1/26/2021 9:45:00 AM 0.08 32.144 0.045 12.11 1.78 14.57
1/26/2021 10:00:00 AM 0.06 32.108 0.044 12.11 1.8 14.58
1/26/2021 10:15:00 AM 0.03 32.054 0.044 12.11 1.8 14.63
1/26/2021 10:30:00 AM 0.02 32.036 0.044 12.11 2.49 14.69
1/26/2021 10:45:00 AM 0.03 32.054 0.044 12.11 1.92 14.72
1/26/2021 11:00:00 AM 0.05 32.09 0.044 12.12 1.8 14.73
1/26/2021 11:15:00 AM 0.08 32.144 0.044 12.13 11.22 14.73
1/26/2021 11:30:00 AM 0.1 32.18 0.044 12.13 2.84 14.72
1/26/2021 11:45:00 AM 0.11 32.198 0.044 12.13 2.95 14.71
1/26/2021 12:00:00 PM 0.12 32.216 0.044 12.13 2.31 14.7
1/26/2021 12:15:00 PM 0.16 32.288 0.044 12.15 1.86 14.69
1/26/2021 12:30:00 PM 0.18 32.324 0.044 12.14 1.87 14.68
1/26/2021 12:45:00 PM 0.22 32.396 0.044 12.15 2.92 14.66
1/26/2021 1:00:00 PM 0.27 32.486 0.044 12.18 2.09 14.65
1/26/2021 1:15:00 PM 0.3 32.54 0.044 12.17 2.04 14.64
1/26/2021 1:30:00 PM 0.36 32.648 0.044 12.17 2 14.63
1/26/2021 1:45:00 PM 0.41 32.738 0.044 12.19 1.84 14.63
1/26/2021 2:00:00 PM 0.48 32.864 0.044 12.19 1.75 14.62
1/26/2021 2:15:00 PM 0.54 32.972 0.044 12.19 3.06 14.6
1/26/2021 2:30:00 PM 0.58 33.044 0.044 12.2 1.94 14.58
1/26/2021 2:45:00 PM 0.62 33.116 0.044 12.21 1.78 14.56
1/26/2021 3:00:00 PM 0.65 33.17 0.044 12.21 1.81 14.54
1/26/2021 3:15:00 PM 0.68 33.224 0.044 12.21 1.76 14.52
1/26/2021 3:30:00 PM 0.72 33.296 0.044 12.22 1.78 14.49
1/26/2021 3:45:00 PM 0.74 33.332 0.044 12.23 1.83 14.46
1/26/2021 4:00:00 PM 0.77 33.386 0.044 12.21 1.78 14.43
1/26/2021 4:15:00 PM 0.8 33.44 0.044 12.22 1.77 14.41
1/26/2021 4:30:00 PM 0.8 33.44 0.044 12.22 1.78 14.39
1/26/2021 4:45:00 PM 0.81 33.458 0.044 12.21 1.76 14.36
1/26/2021 5:00:00 PM 0.82 33.476 0.044 12.21 1.73 14.35
1/26/2021 5:15:00 PM 0.81 33.458 0.044 12.21 1.91 14.33
1/26/2021 5:30:00 PM 0.75 33.35 0.044 12.21 1.8 14.3
1/26/2021 5:45:00 PM 0.78 33.404 0.044 12.2 1.78 14.29
1/26/2021 6:00:00 PM 0.79 33.422 0.044 12.19 1.77 14.29
1/26/2021 6:15:00 PM 0.81 33.458 0.044 12.2 1.88 14.28
1/26/2021 6:30:00 PM 0.82 33.476 0.044 12.19 1.8 14.26
1/26/2021 6:45:00 PM 0.83 33.494 0.044 12.2 1.76 14.25
1/26/2021 7:00:00 PM 0.84 33.512 0.044 12.21 2.43 14.25
1/26/2021 7:15:00 PM 0.86 33.548 0.044 12.2 1.75 14.23
1/26/2021 7:30:00 PM 0.88 33.584 0.044 12.21 1.83 14.23
1/26/2021 7:45:00 PM 0.88 33.584 0.044 12.2 1.81 14.22
1/26/2021 8:00:00 PM 0.88 33.584 0.044 12.2 1.78 14.21
1/26/2021 8:15:00 PM 0.9 33.62 0.044 12.21 1.76 14.21
1/26/2021 8:30:00 PM 0.91 33.638 0.044 12.21 1.8 14.2
1/26/2021 8:45:00 PM 0.93 33.674 0.044 12.21 1.74 14.2
1/26/2021 9:00:00 PM 0.94 33.692 0.044 12.21 1.81 14.19
1/26/2021 9:15:00 PM 0.95 33.71 0.044 12.22 1.81 14.19
1/26/2021 9:30:00 PM 0.95 33.71 0.044 12.22 1.79 14.2
1/26/2021 9:45:00 PM 0.97 33.746 0.044 12.23 1.87 14.19
1/26/2021 10:00:00 PM 0.99 33.782 0.044 12.23 1.82 14.18
1/26/2021 10:15:00 PM 1.01 33.818 0.044 12.23 1.77 14.17
1/26/2021 10:30:00 PM 1.02 33.836 0.044 12.22 1.8 14.18
1/26/2021 10:45:00 PM 1.03 33.854 0.044 12.22 1.84 14.17
1/26/2021 11:00:00 PM 1.04 33.872 0.044 12.23 1.81 14.16
1/26/2021 11:15:00 PM 1.05 33.89 0.044 12.23 1.89 14.17
1/26/2021 11:30:00 PM 1.07 33.926 0.044 12.22 1.87 14.17
1/26/2021 11:45:00 PM 1.03 33.854 0.044 12.23 1.82 14.16
1/27/2021 12:00:00 AM 1.04 33.872 0.044 12.24 1.8 14.16
1/27/2021 12:15:00 AM 1.05 33.89 0.044 12.24 1.84 14.16
1/27/2021 12:30:00 AM 1.01 33.818 0.044 12.25 1.84 14.16
1/27/2021 12:45:00 AM 1.02 33.836 0.044 12.23 1.87 14.16
1/27/2021 1:00:00 AM 1.03 33.854 0.044 12.23 1.92 14.18
1/27/2021 1:15:00 AM 1.02 33.836 0.044 12.24 1.86 14.19
1/27/2021 1:30:00 AM 1.02 33.836 0.044 12.25 1.87 14.19
1/27/2021 1:45:00 AM 1.02 33.836 0.044 12.24 1.88 14.19
1/27/2021 2:00:00 AM 1.01 33.818 0.044 12.24 1.9 14.2
1/27/2021 2:15:00 AM 1 33.8 0.044 12.25 1.87 14.21
1/27/2021 2:30:00 AM 0.99 33.782 0.044 12.24 1.96 14.21
1/27/2021 2:45:00 AM 0.99 33.782 0.044 12.25 1.9 14.22
1/27/2021 3:00:00 AM 0.98 33.764 0.044 12.25 2 14.23
1/27/2021 3:15:00 AM 0.97 33.746 0.044 12.25 2.05 14.24
1/27/2021 3:30:00 AM 0.96 33.728 0.044 12.25 1.95 14.25
1/27/2021 3:45:00 AM 0.95 33.71 0.044 12.25 1.9 14.26
1/27/2021 4:00:00 AM 0.93 33.674 0.044 12.25 1.94 14.27
1/27/2021 4:15:00 AM 0.92 33.656 0.044 12.25 8.84 14.28
1/27/2021 4:30:00 AM 0.9 33.62 0.044 12.25 2.27 14.28
1/27/2021 4:45:00 AM 0.88 33.584 0.044 12.26 2.72 14.29
1/27/2021 5:00:00 AM 0.86 33.548 0.045 12.25 1.92 14.3
1/27/2021 5:15:00 AM 0.84 33.512 0.045 12.25 1.8 14.32
1/27/2021 5:30:00 AM 0.83 33.494 0.045 12.25 1.79 14.32
1/27/2021 5:45:00 AM 0.81 33.458 0.045 12.26 1.78 14.33
1/27/2021 6:00:00 AM 0.79 33.422 0.045 12.25 1.76 14.33
1/27/2021 6:15:00 AM 0.77 33.386 0.045 12.25 1.79 14.35
1/27/2021 6:30:00 AM 0.75 33.35 0.045 12.25 1.79 14.35
1/27/2021 6:45:00 AM 0.74 33.332 0.045 12.24 1.76 14.36
1/27/2021 7:00:00 AM 0.73 33.314 0.045 12.26 1.78 14.36
1/27/2021 7:15:00 AM 0.73 33.314 0.045 12.25 1.97 14.37
1/27/2021 7:30:00 AM 0.71 33.278 0.045 12.24 1.81 14.39
1/27/2021 7:45:00 AM 0.7 33.26 0.045 12.25 1.8 14.4
1/27/2021 8:00:00 AM 0.69 33.242 0.045 12.25 1.73 14.43
1/27/2021 8:15:00 AM 0.7 33.26 0.045 12.26 1.72 14.47
1/27/2021 8:30:00 AM 0.71 33.278 0.045 12.27 1.75 14.5
1/27/2021 8:45:00 AM 0.71 33.278 0.045 12.27 1.77 14.52
1/27/2021 9:00:00 AM 0.72 33.296 0.045 12.28 1.75 14.55
1/27/2021 9:15:00 AM 0.72 33.296 0.045 12.29 1.88 14.59
1/27/2021 9:30:00 AM 0.72 33.296 0.045 12.29 1.8 14.62
1/27/2021 9:45:00 AM 0.72 33.296 0.045 12.29 1.74 14.64
1/27/2021 10:00:00 AM 0.73 33.314 0.045 12.3 1.7 14.66
1/27/2021 10:15:00 AM 0.76 33.368 0.045 12.31 1.68 14.67
1/27/2021 10:30:00 AM 0.82 33.476 0.045 12.31 1.62 14.68
1/27/2021 10:45:00 AM 0.85 33.53 0.044 12.33 1.64 14.68
1/27/2021 11:00:00 AM 0.91 33.638 0.044 12.34 1.76 14.68
1/27/2021 11:15:00 AM 0.96 33.728 0.044 12.35 1.94 14.69
1/27/2021 11:30:00 AM 1.02 33.836 0.044 12.37 1.7 14.67
1/27/2021 11:45:00 AM 1.05 33.89 0.044 12.36 1.7 14.67
1/27/2021 12:00:00 PM 1.09 33.962 0.044 12.37 1.63 14.65
1/27/2021 12:15:00 PM 1.12 34.016 0.044 12.37 1.62 14.65
1/27/2021 12:30:00 PM 1.17 34.106 0.044 12.37 1.7 14.62
1/27/2021 12:45:00 PM 1.23 34.214 0.044 12.38 1.67 14.6
1/27/2021 1:00:00 PM 1.26 34.268 0.044 12.4 1.69 14.59
1/27/2021 1:15:00 PM 1.28 34.304 0.044 12.4 1.69 14.58
1/27/2021 1:30:00 PM 1.28 34.304 0.044 12.41 1.63 14.56
1/27/2021 1:45:00 PM 1.29 34.322 0.044 12.4 1.64 14.56
1/27/2021 2:00:00 PM 1.28 34.304 0.044 12.41 1.67 14.54
1/27/2021 2:15:00 PM 1.28 34.304 0.044 12.4 1.7 14.54
1/27/2021 2:30:00 PM 1.27 34.286 0.044 12.41 1.69 14.53
1/27/2021 2:45:00 PM 1.26 34.268 0.044 12.4 1.66 14.54
1/27/2021 3:00:00 PM 1.25 34.25 0.044 12.4 1.75 14.53
1/27/2021 3:15:00 PM 1.22 34.196 0.044 12.4 1.66 14.54
1/27/2021 3:30:00 PM 1.21 34.178 0.044 12.4 1.71 14.55
1/27/2021 3:45:00 PM 1.19 34.142 0.044 12.4 1.74 14.54
1/27/2021 4:00:00 PM 1.18 34.124 0.044 12.4 1.7 14.54
1/27/2021 4:15:00 PM 1.17 34.106 0.044 12.4 1.67 14.52
1/27/2021 4:30:00 PM 1.16 34.088 0.044 12.39 1.65 14.5
1/27/2021 4:45:00 PM 1.14 34.052 0.044 12.39 1.65 14.49
1/27/2021 5:00:00 PM 1.14 34.052 0.044 12.38 1.69 14.44
1/27/2021 5:15:00 PM 1.12 34.016 0.044 12.38 1.74 14.41
1/27/2021 5:30:00 PM 1.09 33.962 0.045 12.37 1.72 14.4
1/27/2021 5:45:00 PM 1.07 33.926 0.045 12.37 1.77 14.38
1/27/2021 6:00:00 PM 1.05 33.89 0.045 12.36 2 14.36
1/27/2021 6:15:00 PM 1.04 33.872 0.045 12.36 1.8 14.35
1/27/2021 6:30:00 PM 1.01 33.818 0.045 12.36 2.02 14.34
1/27/2021 6:45:00 PM 0.98 33.764 0.045 12.35 2.14 14.34
1/27/2021 7:00:00 PM 0.95 33.71 0.045 12.35 1.85 14.33
1/27/2021 7:15:00 PM 0.93 33.674 0.045 12.34 1.87 14.34
1/27/2021 7:30:00 PM 0.9 33.62 0.045 12.35 1.78 14.34
1/27/2021 7:45:00 PM 0.87 33.566 0.045 12.34 2.03 14.36
1/27/2021 8:00:00 PM 0.85 33.53 0.045 12.35 1.83 14.36
1/27/2021 8:15:00 PM 0.81 33.458 0.045 12.35 1.74 14.37
1/27/2021 8:30:00 PM 0.75 33.35 0.045 12.35 1.86 14.39
1/27/2021 8:45:00 PM 0.69 33.242 0.045 12.34 1.74 14.4
1/27/2021 9:00:00 PM 0.62 33.116 0.045 12.32 1.85 14.43
1/27/2021 9:15:00 PM 0.57 33.026 0.045 12.32 1.75 14.44
1/27/2021 9:30:00 PM 0.52 32.936 0.045 12.32 1.79 14.47
1/27/2021 9:45:00 PM 0.48 32.864 0.045 12.31 1.91 14.48
1/27/2021 10:00:00 PM 0.43 32.774 0.045 12.32 2.1 14.51
1/27/2021 10:15:00 PM 0.39 32.702 0.045 12.3 1.84 14.52
1/27/2021 10:30:00 PM 0.34 32.612 0.045 12.3 1.82 14.54
1/27/2021 10:45:00 PM 0.3 32.54 0.046 12.3 1.77 14.56
1/27/2021 11:00:00 PM 0.26 32.468 0.046 12.29 1.84 14.58
1/27/2021 11:15:00 PM 0.21 32.378 0.046 12.3 2.26 14.58
1/27/2021 11:30:00 PM 0.16 32.288 0.046 12.29 1.77 14.62
1/27/2021 11:45:00 PM 0.12 32.216 0.046 12.28 1.8 14.63
1/28/2021 12:00:00 AM 0.08 32.144 0.046 12.29 1.85 14.65
1/28/2021 12:15:00 AM 0.05 32.09 0.046 12.28 1.8 14.67
1/28/2021 12:30:00 AM 0.02 32.036 0.046 12.28 1.88 14.68
1/28/2021 12:45:00 AM -0.01 31.982 0.046 12.29 2.09 14.69
1/28/2021 1:00:00 AM -0.03 31.946 0.046 12.29 1.99 14.72
1/28/2021 1:15:00 AM -0.06 31.892 0.046 12.28 1.98 14.74
1/28/2021 1:30:00 AM -0.06 31.892 0.046 12.28 1.98 14.75
1/28/2021 1:45:00 AM -0.05 31.91 0.046 12.28 1.99 14.76
1/28/2021 2:00:00 AM -0.03 31.946 0.046 12.29 2.13 14.76
1/28/2021 2:15:00 AM -0.03 31.946 0.046 12.28 1.99 14.74
1/28/2021 2:30:00 AM -0.03 31.946 0.046 12.29 2.01 14.76
1/28/2021 2:45:00 AM -0.03 31.946 0.046 12.29 2.6 14.77
1/28/2021 3:00:00 AM -0.03 31.946 0.046 12.3 2.22 14.78
1/28/2021 3:15:00 AM -0.03 31.946 0.046 12.3 2.24 14.78
1/28/2021 3:30:00 AM -0.03 31.946 0.046 12.29 1.94 14.78
1/28/2021 3:45:00 AM -0.03 31.946 0.046 12.3 2 14.76
1/28/2021 4:00:00 AM -0.02 31.964 0.046 12.3 1.97 14.78
1/28/2021 4:15:00 AM -0.02 31.964 0.046 12.3 2.15 14.77
1/28/2021 4:30:00 AM -0.03 31.946 0.046 12.29 2.04 14.78
1/28/2021 4:45:00 AM -0.03 31.946 0.046 12.3 2 14.78
1/28/2021 5:00:00 AM -0.02 31.964 0.046 12.3 1.89 14.76
1/28/2021 5:15:00 AM -0.03 31.946 0.046 12.3 1.99 14.77
1/28/2021 5:30:00 AM -0.02 31.964 0.046 12.3 2.2 14.76
1/28/2021 5:45:00 AM -0.03 31.946 0.046 12.3 1.98 14.77
1/28/2021 6:00:00 AM -0.02 31.964 0.046 12.29 2.14 14.79
1/28/2021 6:15:00 AM -0.02 31.964 0.046 12.3 1.92 14.77
1/28/2021 6:30:00 AM -0.02 31.964 0.046 12.3 1.93 14.79
1/28/2021 6:45:00 AM -0.02 31.964 0.046 12.29 1.89 14.79
1/28/2021 7:00:00 AM -0.01 31.982 0.046 12.31 1.96 14.78
1/28/2021 7:15:00 AM -0.02 31.964 0.046 12.3 1.91 14.79
1/28/2021 7:30:00 AM -0.02 31.964 0.047 12.31 1.88 14.79
1/28/2021 7:45:00 AM -0.01 31.982 0.047 12.31 1.9 14.82
1/28/2021 8:00:00 AM -0.01 31.982 0.047 12.31 2.06 14.84
1/28/2021 8:15:00 AM 0 32 0.047 12.32 2.03 14.86
1/28/2021 8:30:00 AM 0.01 32.018 0.047 12.32 1.94 14.89
1/28/2021 8:45:00 AM 0 32 0.047 12.34 1.99 14.96
1/28/2021 9:00:00 AM 0.02 32.036 0.047 12.34 2.01 14.97
1/28/2021 9:15:00 AM 0.03 32.054 0.046 12.34 2.01 15.02
1/28/2021 9:30:00 AM 0 32 0.046 12.35 1.98 15.04
1/28/2021 9:45:00 AM 0.03 32.054 0.046 12.36 2.66 15.07
1/28/2021 10:00:00 AM 0.05 32.09 0.046 12.37 2.07 15.09
1/28/2021 10:15:00 AM 0.06 32.108 0.046 12.37 2.06 15.11
1/28/2021 10:30:00 AM 0.05 32.09 0.046 12.38 1.96 15.11
1/28/2021 10:45:00 AM 0.09 32.162 0.046 12.39 1.94 15.15
1/28/2021 11:00:00 AM 0.09 32.162 0.046 12.39 1.88 15.15
1/28/2021 11:15:00 AM 0.1 32.18 0.046 12.4 2.02 15.15
1/28/2021 11:30:00 AM 0.05 32.09 0.046 12.41 3.14 15.11
1/28/2021 11:45:00 AM 0.07 32.126 0.046 12.39 1.77 15.08
1/28/2021 12:00:00 PM 0.09 32.162 0.046 12.39 2.04 15.06
1/28/2021 12:15:00 PM 0.11 32.198 0.046 12.4 1.84 15.01
1/28/2021 12:30:00 PM 0.12 32.216 0.046 12.4 1.73 14.97
1/28/2021 12:45:00 PM 0.13 32.234 0.046 12.4 1.83 14.96
1/28/2021 1:00:00 PM 0.14 32.252 0.046 12.4 2.05 14.96
1/28/2021 1:15:00 PM 0.18 32.324 0.046 12.4 1.77 14.88
1/28/2021 1:30:00 PM 0.23 32.414 0.046 12.4 1.88 14.84
1/28/2021 1:45:00 PM 0.32 32.576 0.046 12.4 1.87 14.81
1/28/2021 2:00:00 PM 0.36 32.648 0.046 12.4 1.75 14.8
1/28/2021 2:15:00 PM 0.46 32.828 0.046 12.42 1.73 14.8
1/28/2021 2:30:00 PM 0.56 33.008 0.046 12.43 1.78 14.77
1/28/2021 2:45:00 PM 0.63 33.134 0.046 12.45 2.26 14.76
1/28/2021 3:00:00 PM 0.65 33.17 0.046 12.45 1.98 14.76
1/28/2021 3:15:00 PM 0.7 33.26 0.046 12.47 1.89 14.76
1/28/2021 3:30:00 PM 0.68 33.224 0.046 12.48 1.8 14.75
1/28/2021 3:45:00 PM 0.65 33.17 0.046 12.47 1.84 14.76
1/28/2021 4:00:00 PM 0.59 33.062 0.046 12.48 1.73 14.79
1/28/2021 4:15:00 PM 0.53 32.954 0.046 12.47 2 14.81
1/28/2021 4:30:00 PM 0.45 32.81 0.046 12.47 1.69 14.84
1/28/2021 4:45:00 PM 0.3 32.54 0.046 12.46 1.83 14.89
1/28/2021 5:00:00 PM 0.25 32.45 0.046 12.44 1.82 14.91
1/28/2021 5:15:00 PM 0.13 32.234 0.046 12.43 1.98 14.91
1/28/2021 5:30:00 PM 0.08 32.144 0.046 12.42 3.39 14.91
1/28/2021 5:45:00 PM 0.03 32.054 0.046 12.4 1.75 14.87
1/28/2021 6:00:00 PM 0.02 32.036 0.046 12.38 1.69 14.83
1/28/2021 6:15:00 PM 0.03 32.054 0.046 12.36 1.77 14.8
1/28/2021 6:30:00 PM 0.04 32.072 0.046 12.37 1.81 14.79
1/28/2021 6:45:00 PM 0.02 32.036 0.047 12.36 1.74 14.79
1/28/2021 7:00:00 PM 0.01 32.018 0.047 12.35 1.79 14.8
1/28/2021 7:15:00 PM 0.01 32.018 0.047 12.34 1.87 14.78
1/28/2021 7:30:00 PM -0.01 31.982 0.047 12.36 1.72 14.84
1/28/2021 7:45:00 PM -0.01 31.982 0.047 12.36 2.25 14.85
1/28/2021 8:00:00 PM -0.02 31.964 0.047 12.37 1.78 14.86
1/28/2021 8:15:00 PM -0.01 31.982 0.047 12.35 1.71 14.84
1/28/2021 8:30:00 PM 0 32 0.047 12.36 2.39 14.84
1/28/2021 8:45:00 PM -0.01 31.982 0.047 12.36 1.7 14.83
1/28/2021 9:00:00 PM -0.01 31.982 0.047 12.36 1.84 14.84
1/28/2021 9:15:00 PM -0.01 31.982 0.047 12.36 2.9 14.85
1/28/2021 9:30:00 PM 0 32 0.048 12.36 1.86 14.83
1/28/2021 9:45:00 PM 0 32 0.048 12.36 1.78 14.83
1/28/2021 10:00:00 PM -0.01 31.982 0.048 12.37 3.08 14.83
1/28/2021 10:15:00 PM 0 32 0.048 12.37 1.8 14.82
1/28/2021 10:30:00 PM 0 32 0.048 12.37 1.69 14.85
1/28/2021 10:45:00 PM 0 32 0.048 12.37 1.73 14.83
1/28/2021 11:00:00 PM 0 32 0.048 12.38 1.81 14.81
1/28/2021 11:15:00 PM 0 32 0.048 12.38 1.79 14.83
1/28/2021 11:30:00 PM 0.01 32.018 0.048 12.36 1.67 14.81
1/28/2021 11:45:00 PM 0 32 0.048 12.36 1.88 14.8
1/29/2021 12:00:00 AM 0 32 0.048 12.38 1.68 14.8
1/29/2021 12:15:00 AM 0 32 0.048 12.39 1.69 14.81
1/29/2021 12:30:00 AM -0.01 31.982 0.048 12.37 1.78 14.79
1/29/2021 12:45:00 AM 0 32 0.048 12.37 2.3 14.79
1/29/2021 1:00:00 AM 0 32 0.048 12.37 1.73 14.75
1/29/2021 1:15:00 AM 0 32 0.048 12.37 1.96 14.78
1/29/2021 1:30:00 AM 0 32 0.048 12.37 1.84 14.75
1/29/2021 1:45:00 AM 0 32 0.048 12.38 2.3 14.74
1/29/2021 2:00:00 AM 0 32 0.048 12.38 1.98 14.76
1/29/2021 2:15:00 AM 0 32 0.048 12.38 2.22 14.76
1/29/2021 2:30:00 AM 0.01 32.018 0.048 12.38 1.9 14.76
1/29/2021 2:45:00 AM 0.01 32.018 0.048 12.38 1.98 14.75
1/29/2021 3:00:00 AM 0.01 32.018 0.048 12.38 2.44 14.77
1/29/2021 3:15:00 AM 0 32 0.048 12.38 1.97 14.76
1/29/2021 3:30:00 AM 0 32 0.048 12.38 2.16 14.77
1/29/2021 3:45:00 AM 0 32 0.048 12.38 2.1 14.75
1/29/2021 4:00:00 AM 0 32 0.048 12.39 1.99 14.74
1/29/2021 4:15:00 AM 0.01 32.018 0.048 12.39 1.77 14.72
1/29/2021 4:30:00 AM 0.01 32.018 0.048 12.39 1.76 14.72
1/29/2021 4:45:00 AM 0.01 32.018 0.048 12.4 1.82 14.73
1/29/2021 5:00:00 AM 0 32 0.048 12.4 2.97 14.75
1/29/2021 5:15:00 AM -0.01 31.982 0.048 12.4 2.09 14.77
1/29/2021 5:30:00 AM -0.02 31.964 0.048 12.4 1.95 14.77
1/29/2021 5:45:00 AM -0.02 31.964 0.048 12.4 1.66 14.77
1/29/2021 6:00:00 AM -0.02 31.964 0.048 12.39 1.97 14.79
1/29/2021 6:15:00 AM -0.02 31.964 0.048 12.39 1.66 14.8
1/29/2021 6:30:00 AM -0.02 31.964 0.048 12.37 1.87 14.79
1/29/2021 6:45:00 AM -0.02 31.964 0.048 12.38 1.97 14.78
1/29/2021 7:00:00 AM -0.02 31.964 0.048 12.38 1.72 14.8
1/29/2021 7:15:00 AM -0.02 31.964 0.048 12.4 1.82 14.77
1/29/2021 7:30:00 AM -0.02 31.964 0.048 12.39 1.7 14.79
1/29/2021 7:45:00 AM -0.02 31.964 0.048 12.39 1.7 14.82
1/29/2021 8:00:00 AM -0.02 31.964 0.048 12.39 1.73 14.85
1/29/2021 8:15:00 AM -0.02 31.964 0.048 12.4 1.71 14.88
1/29/2021 8:30:00 AM -0.02 31.964 0.048 12.39 2.11 14.92
1/29/2021 8:45:00 AM -0.02 31.964 0.048 12.4 1.73 14.93
1/29/2021 9:00:00 AM -0.01 31.982 0.048 12.41 1.88 14.97
1/29/2021 9:15:00 AM -0.01 31.982 0.048 12.43 1.78 15.02
1/29/2021 9:30:00 AM -0.01 31.982 0.048 12.43 1.96 15.05
1/29/2021 9:45:00 AM 0 32 0.048 12.44 2.44 15.06
1/29/2021 10:00:00 AM 0.01 32.018 0.048 12.46 2.25 15.12
1/29/2021 10:15:00 AM 0.01 32.018 0.048 12.46 1.69 15.13
1/29/2021 10:30:00 AM 0.01 32.018 0.048 12.47 1.68 15.14
1/29/2021 10:45:00 AM 0 32 0.048 12.46 1.84 15.15
1/29/2021 11:00:00 AM 0.02 32.036 0.048 12.48 1.75 15.17
1/29/2021 11:15:00 AM 0.02 32.036 0.048 12.48 1.82 15.17
1/29/2021 11:30:00 AM 0.03 32.054 0.047 12.48 1.85 15.17
1/29/2021 11:45:00 AM 0.03 32.054 0.047 12.49 1.7 15.16
1/29/2021 12:00:00 PM 0.04 32.072 0.047 12.49 1.69 15.14
1/29/2021 12:15:00 PM 0.03 32.054 0.047 12.49 1.86 15.16
1/29/2021 12:30:00 PM 0.02 32.036 0.047 12.49 1.83 15.15
1/29/2021 12:45:00 PM 0.03 32.054 0.047 12.49 2.03 15.12
1/29/2021 1:00:00 PM 0.02 32.036 0.047 12.48 1.73 15.12
1/29/2021 1:15:00 PM 0.02 32.036 0.047 12.48 1.9 15.12
1/29/2021 1:30:00 PM 0.02 32.036 0.047 12.47 1.98 15.11
1/29/2021 1:45:00 PM 0 32 0.047 12.46 1.72 15.09
1/29/2021 2:00:00 PM 0.01 32.018 0.047 12.46 1.81 15.07
1/29/2021 2:15:00 PM 0.01 32.018 0.047 12.48 1.79 15.06
1/29/2021 2:30:00 PM 0.01 32.018 0.047 12.47 1.7 15.08
1/29/2021 2:45:00 PM 0 32 0.047 12.48 1.7 15.08
1/29/2021 3:00:00 PM 0.01 32.018 0.047 12.49 1.69 15.09
1/29/2021 3:15:00 PM 0.01 32.018 0.047 12.5 1.82 15.09
1/29/2021 3:30:00 PM 0.01 32.018 0.047 12.5 1.73 15.08
1/29/2021 3:45:00 PM 0.01 32.018 0.047 12.51 1.7 15.08
1/29/2021 4:00:00 PM 0.01 32.018 0.047 12.51 1.8 15.07
1/29/2021 4:15:00 PM 0.01 32.018 0.047 12.51 1.7 15.08
1/29/2021 4:30:00 PM 0 32 0.047 12.51 1.69 15.08
1/29/2021 4:45:00 PM -0.01 31.982 0.047 12.52 1.74 15.08
1/29/2021 5:00:00 PM -0.01 31.982 0.047 12.5 1.8 15.06
1/29/2021 5:15:00 PM -0.01 31.982 0.047 12.5 1.71 15.02
1/29/2021 5:30:00 PM -0.02 31.964 0.047 12.5 1.85 14.96
1/29/2021 5:45:00 PM -0.02 31.964 0.047 12.49 2.03 14.92
1/29/2021 6:00:00 PM -0.02 31.964 0.047 12.49 1.69 14.9
1/29/2021 6:15:00 PM -0.02 31.964 0.047 12.48 1.62 14.86
1/29/2021 6:30:00 PM -0.02 31.964 0.048 12.47 1.68 14.83
1/29/2021 6:45:00 PM -0.02 31.964 0.048 12.46 1.7 14.81
1/29/2021 7:00:00 PM -0.02 31.964 0.048 12.47 1.7 14.82
1/29/2021 7:15:00 PM -0.02 31.964 0.048 12.47 1.73 14.8
1/29/2021 7:30:00 PM -0.02 31.964 0.048 12.46 1.67 14.8
1/29/2021 7:45:00 PM -0.02 31.964 0.048 12.46 1.68 14.79
1/29/2021 8:00:00 PM -0.02 31.964 0.048 12.45 1.64 14.76
1/29/2021 8:15:00 PM -0.02 31.964 0.048 12.45 1.63 14.78
1/29/2021 8:30:00 PM -0.02 31.964 0.048 12.45 1.72 14.77
1/29/2021 8:45:00 PM -0.02 31.964 0.048 12.45 1.66 14.77
1/29/2021 9:00:00 PM -0.02 31.964 0.048 12.45 1.72 14.76
1/29/2021 9:15:00 PM -0.02 31.964 0.048 12.45 1.63 14.76
1/29/2021 9:30:00 PM -0.02 31.964 0.048 12.46 1.68 14.76
1/29/2021 9:45:00 PM -0.02 31.964 0.048 12.45 1.63 14.76
1/29/2021 10:00:00 PM -0.02 31.964 0.048 12.5 1.67 14.74
1/29/2021 10:15:00 PM -0.02 31.964 0.048 12.47 1.71 14.74
1/29/2021 10:30:00 PM -0.02 31.964 0.048 12.46 1.83 14.76
1/29/2021 10:45:00 PM -0.02 31.964 0.048 12.46 1.84 14.76
1/29/2021 11:00:00 PM -0.02 31.964 0.048 12.47 1.76 14.75
1/29/2021 11:15:00 PM -0.02 31.964 0.048 12.44 1.69 14.74
1/29/2021 11:30:00 PM -0.02 31.964 0.048 12.46 1.72 14.74
1/29/2021 11:45:00 PM -0.02 31.964 0.048 12.46 1.73 14.75
1/30/2021 12:00:00 AM -0.02 31.964 0.048 12.47 1.81 14.75
1/30/2021 12:15:00 AM -0.02 31.964 0.048 12.47 1.72 14.74
1/30/2021 12:30:00 AM -0.02 31.964 0.048 12.47 1.7 14.76
1/30/2021 12:45:00 AM -0.02 31.964 0.048 12.46 1.64 14.76
1/30/2021 1:00:00 AM -0.02 31.964 0.048 12.45 1.69 14.75
1/30/2021 1:15:00 AM -0.02 31.964 0.048 12.46 1.68 14.77
1/30/2021 1:30:00 AM -0.02 31.964 0.048 12.45 1.65 14.76
1/30/2021 1:45:00 AM -0.02 31.964 0.048 12.45 1.64 14.78
1/30/2021 2:00:00 AM -0.02 31.964 0.048 12.44 1.72 14.78
1/30/2021 2:15:00 AM -0.02 31.964 0.048 12.44 1.67 14.76
1/30/2021 2:30:00 AM -0.02 31.964 0.048 12.44 1.69 14.77
1/30/2021 2:45:00 AM -0.02 31.964 0.048 12.45 1.69 14.77
1/30/2021 3:00:00 AM -0.02 31.964 0.048 12.45 1.69 14.75
1/30/2021 3:15:00 AM -0.02 31.964 0.048 12.45 1.65 14.75
1/30/2021 3:30:00 AM -0.02 31.964 0.048 12.45 1.62 14.77
1/30/2021 3:45:00 AM -0.02 31.964 0.048 12.46 1.67 14.75
1/30/2021 4:00:00 AM -0.02 31.964 0.048 12.45 2.19 14.75
1/30/2021 4:15:00 AM -0.02 31.964 0.048 12.45 2.07 14.77
1/30/2021 4:30:00 AM -0.02 31.964 0.048 12.46 1.76 14.75
1/30/2021 4:45:00 AM -0.02 31.964 0.048 12.45 1.65 14.77
1/30/2021 5:00:00 AM -0.03 31.946 0.048 12.46 1.65 14.77
1/30/2021 5:15:00 AM -0.03 31.946 0.048 12.46 1.71 14.76
1/30/2021 5:30:00 AM -0.03 31.946 0.048 12.46 1.67 14.76
1/30/2021 5:45:00 AM -0.03 31.946 0.048 12.47 1.61 14.78
1/30/2021 6:00:00 AM -0.03 31.946 0.048 12.45 1.6 14.76
1/30/2021 6:15:00 AM -0.03 31.946 0.048 12.46 1.63 14.77
1/30/2021 6:30:00 AM -0.03 31.946 0.048 12.46 1.92 14.77
1/30/2021 6:45:00 AM -0.03 31.946 0.048 12.46 1.64 14.8
1/30/2021 7:00:00 AM -0.03 31.946 0.048 12.45 1.63 14.78
1/30/2021 7:15:00 AM -0.03 31.946 0.048 12.46 1.66 14.8
1/30/2021 7:30:00 AM -0.03 31.946 0.048 12.45 1.7 14.83
1/30/2021 7:45:00 AM -0.03 31.946 0.048 12.46 1.68 14.85
1/30/2021 8:00:00 AM -0.03 31.946 0.048 12.45 1.61 14.87
1/30/2021 8:15:00 AM -0.03 31.946 0.048 12.47 1.62 14.9
1/30/2021 8:30:00 AM -0.03 31.946 0.048 12.48 1.62 14.94
1/30/2021 8:45:00 AM -0.03 31.946 0.048 12.47 1.62 14.95
1/30/2021 9:00:00 AM -0.03 31.946 0.048 12.48 1.66 14.99
1/30/2021 9:15:00 AM -0.03 31.946 0.048 12.48 1.65 15.01
1/30/2021 9:30:00 AM -0.03 31.946 0.048 12.49 1.64 15.04
1/30/2021 9:45:00 AM -0.02 31.964 0.048 12.5 1.62 15.06
1/30/2021 10:00:00 AM -0.02 31.964 0.048 12.51 1.67 15.1
1/30/2021 10:15:00 AM -0.02 31.964 0.048 12.51 1.68 15.14
1/30/2021 10:30:00 AM -0.02 31.964 0.048 12.52 1.67 15.15
1/30/2021 10:45:00 AM -0.02 31.964 0.048 12.52 1.7 15.18
1/30/2021 11:00:00 AM -0.02 31.964 0.047 12.5 1.63 15.2
1/30/2021 11:15:00 AM -0.02 31.964 0.047 12.5 1.75 15.19
1/30/2021 11:30:00 AM -0.01 31.982 0.047 12.49 1.67 15.21
1/30/2021 11:45:00 AM -0.02 31.964 0.047 12.48 1.64 15.21
1/30/2021 12:00:00 PM -0.01 31.982 0.047 12.48 1.71 15.18
1/30/2021 12:15:00 PM -0.01 31.982 0.047 12.5 1.67 15.17
1/30/2021 12:30:00 PM -0.01 31.982 0.047 12.5 1.68 15.12
1/30/2021 12:45:00 PM -0.01 31.982 0.047 12.49 1.77 15.08
1/30/2021 1:00:00 PM -0.01 31.982 0.046 12.48 1.76 15.03
1/30/2021 1:15:00 PM -0.01 31.982 0.046 12.49 1.75 14.95
1/30/2021 1:30:00 PM -0.01 31.982 0.046 12.49 1.81 14.9
1/30/2021 1:45:00 PM -0.01 31.982 0.046 12.5 1.73 14.87
1/30/2021 2:00:00 PM -0.01 31.982 0.046 12.49 1.85 14.83
1/30/2021 2:15:00 PM -0.01 31.982 0.046 12.48 2.01 14.78
1/30/2021 2:30:00 PM -0.01 31.982 0.046 12.48 1.87 14.76
1/30/2021 2:45:00 PM -0.01 31.982 0.046 12.47 1.99 14.74
1/30/2021 3:00:00 PM -0.01 31.982 0.046 12.47 2.1 14.74
1/30/2021 3:15:00 PM -0.01 31.982 0.046 12.47 2.11 14.75
1/30/2021 3:30:00 PM -0.01 31.982 0.046 12.47 2.12 14.75
1/30/2021 3:45:00 PM -0.01 31.982 0.046 12.48 2.06 14.74
1/30/2021 4:00:00 PM -0.01 31.982 0.046 12.47 2.24 14.76
1/30/2021 4:15:00 PM -0.01 31.982 0.046 12.47 2.29 14.78
1/30/2021 4:30:00 PM 0 32 0.046 12.48 2.05 14.79
1/30/2021 4:45:00 PM 0 32 0.046 12.54 2.01 14.79
1/30/2021 5:00:00 PM -0.01 31.982 0.046 12.46 2.11 14.82
1/30/2021 5:15:00 PM -0.01 31.982 0.046 12.47 1.94 14.82
1/30/2021 5:30:00 PM -0.01 31.982 0.046 12.46 1.9 14.81
1/30/2021 5:45:00 PM -0.02 31.964 0.046 12.46 1.92 14.8
1/30/2021 6:00:00 PM -0.03 31.946 0.046 12.46 1.93 14.8
1/30/2021 6:15:00 PM -0.03 31.946 0.047 12.46 1.89 14.83
1/30/2021 6:30:00 PM -0.04 31.928 0.047 12.46 1.82 14.82
1/30/2021 6:45:00 PM -0.05 31.91 0.047 12.45 1.85 14.82
1/30/2021 7:00:00 PM -0.05 31.91 0.047 12.46 1.8 14.84
1/30/2021 7:15:00 PM -0.05 31.91 0.047 12.5 1.85 14.84
1/30/2021 7:30:00 PM -0.05 31.91 0.047 12.49 1.85 14.85
1/30/2021 7:45:00 PM -0.05 31.91 0.047 12.49 1.82 14.83
1/30/2021 8:00:00 PM -0.04 31.928 0.048 12.5 1.88 14.85
1/30/2021 8:15:00 PM -0.04 31.928 0.048 12.49 1.84 14.85
1/30/2021 8:30:00 PM -0.04 31.928 0.048 12.49 1.86 14.84
1/30/2021 8:45:00 PM -0.04 31.928 0.048 12.5 2.14 14.84
1/30/2021 9:00:00 PM -0.04 31.928 0.048 12.51 1.85 14.84
1/30/2021 9:15:00 PM -0.04 31.928 0.048 12.51 1.9 14.83
1/30/2021 9:30:00 PM -0.04 31.928 0.048 12.51 1.8 14.83
1/30/2021 9:45:00 PM -0.04 31.928 0.048 12.5 1.94 14.84
1/30/2021 10:00:00 PM -0.04 31.928 0.048 12.52 2.07 14.84
1/30/2021 10:15:00 PM -0.03 31.946 0.048 12.53 1.96 14.84
1/30/2021 10:30:00 PM -0.03 31.946 0.048 12.57 2.02 14.84
1/30/2021 10:45:00 PM -0.03 31.946 0.048 12.57 2.02 14.83
1/30/2021 11:00:00 PM -0.03 31.946 0.048 12.58 1.85 14.83
1/30/2021 11:15:00 PM -0.03 31.946 0.048 12.59 1.89 14.83
1/30/2021 11:30:00 PM -0.03 31.946 0.048 12.6 1.82 14.8
1/30/2021 11:45:00 PM -0.03 31.946 0.048 12.61 1.8 14.82
1/31/2021 12:00:00 AM -0.03 31.946 0.048 12.64 1.82 14.8
1/31/2021 12:15:00 AM -0.03 31.946 0.048 12.66 1.79 14.8
1/31/2021 12:30:00 AM -0.03 31.946 0.048 12.66 1.79 14.79
1/31/2021 12:45:00 AM -0.03 31.946 0.048 12.67 1.78 14.77
1/31/2021 1:00:00 AM -0.03 31.946 0.048 12.67 1.83 14.77
1/31/2021 1:15:00 AM -0.03 31.946 0.048 12.67 1.85 14.78
1/31/2021 1:30:00 AM -0.03 31.946 0.048 12.68 1.78 14.76
1/31/2021 1:45:00 AM -0.03 31.946 0.048 12.66 1.78 14.76
1/31/2021 2:00:00 AM -0.03 31.946 0.048 12.67 1.76 14.76
1/31/2021 2:15:00 AM -0.03 31.946 0.048 12.66 1.75 14.76
1/31/2021 2:30:00 AM -0.04 31.928 0.048 12.66 1.8 14.77
1/31/2021 2:45:00 AM -0.03 31.946 0.048 12.66 1.78 14.76
1/31/2021 3:00:00 AM -0.03 31.946 0.048 12.67 1.77 14.77
1/31/2021 3:15:00 AM -0.03 31.946 0.048 12.67 1.8 14.76
1/31/2021 3:30:00 AM -0.03 31.946 0.048 12.67 1.87 14.76
1/31/2021 3:45:00 AM -0.03 31.946 0.048 12.67 1.83 14.73
1/31/2021 4:00:00 AM -0.03 31.946 0.048 12.68 1.77 14.74
1/31/2021 4:15:00 AM -0.03 31.946 0.048 12.67 1.79 14.73
1/31/2021 4:30:00 AM -0.03 31.946 0.048 12.68 1.79 14.72
1/31/2021 4:45:00 AM -0.03 31.946 0.048 12.67 1.74 14.73
1/31/2021 5:00:00 AM -0.03 31.946 0.048 12.67 1.78 14.7
1/31/2021 5:15:00 AM -0.03 31.946 0.048 12.67 1.73 14.72
1/31/2021 5:30:00 AM -0.03 31.946 0.048 12.67 5.78 14.72
1/31/2021 5:45:00 AM -0.03 31.946 0.048 12.68 1.74 14.7
1/31/2021 6:00:00 AM -0.03 31.946 0.048 12.68 1.8 14.68
1/31/2021 6:15:00 AM -0.03 31.946 0.048 12.69 1.82 14.72
1/31/2021 6:30:00 AM -0.03 31.946 0.048 12.68 1.8 14.72
1/31/2021 6:45:00 AM -0.03 31.946 0.048 12.68 1.8 14.7
1/31/2021 7:00:00 AM -0.03 31.946 0.048 12.69 1.75 14.71
1/31/2021 7:15:00 AM -0.03 31.946 0.048 12.69 1.82 14.69
1/31/2021 7:30:00 AM -0.03 31.946 0.048 12.69 1.79 14.7
1/31/2021 7:45:00 AM -0.03 31.946 0.048 12.7 1.8 14.69
1/31/2021 8:00:00 AM -0.03 31.946 0.048 12.7 1.78 14.71
1/31/2021 8:15:00 AM -0.03 31.946 0.048 12.69 1.78 14.72
1/31/2021 8:30:00 AM -0.03 31.946 0.048 12.71 1.77 14.73
1/31/2021 8:45:00 AM -0.03 31.946 0.048 12.71 1.77 14.77
1/31/2021 9:00:00 AM -0.03 31.946 0.048 12.71 1.85 14.76
1/31/2021 9:15:00 AM -0.03 31.946 0.048 12.72 1.75 14.79
1/31/2021 9:30:00 AM -0.03 31.946 0.048 12.71 1.77 14.81
1/31/2021 9:45:00 AM -0.03 31.946 0.048 12.71 1.73 14.83
1/31/2021 10:00:00 AM -0.03 31.946 0.047 12.72 1.71 14.88
1/31/2021 10:15:00 AM -0.03 31.946 0.047 12.73 1.77 14.91
1/31/2021 10:30:00 AM -0.03 31.946 0.047 12.73 1.75 14.94
1/31/2021 10:45:00 AM -0.03 31.946 0.047 12.73 1.74 14.97
1/31/2021 11:00:00 AM -0.03 31.946 0.047 12.73 1.74 14.97
1/31/2021 11:15:00 AM -0.03 31.946 0.047 12.73 1.76 14.99
1/31/2021 11:30:00 AM -0.03 31.946 0.047 12.73 1.75 15.02
1/31/2021 11:45:00 AM -0.02 31.964 0.047 12.68 1.9 15.01
1/31/2021 12:00:00 PM -0.02 31.964 0.047 12.6 1.76 15.03
1/31/2021 12:15:00 PM -0.02 31.964 0.047 12.59 1.74 15.01
1/31/2021 12:30:00 PM -0.02 31.964 0.047 12.62 1.83 15.01
1/31/2021 12:45:00 PM -0.02 31.964 0.046 12.6 1.94 14.99
1/31/2021 1:00:00 PM -0.02 31.964 0.046 12.57 1.89 14.96
1/31/2021 1:15:00 PM -0.02 31.964 0.046 12.6 1.91 14.91
1/31/2021 1:30:00 PM -0.02 31.964 0.046 12.6 1.89 14.88
1/31/2021 1:45:00 PM -0.01 31.982 0.046 12.6 1.85 14.88
1/31/2021 2:00:00 PM 0 32 0.046 12.62 1.85 14.87
1/31/2021 2:15:00 PM 0 32 0.046 12.62 1.82 14.84
1/31/2021 2:30:00 PM 0.01 32.018 0.046 12.64 1.84 14.84
1/31/2021 2:45:00 PM 0.01 32.018 0.046 12.61 1.81 14.84
1/31/2021 3:00:00 PM 0.02 32.036 0.046 12.6 1.84 14.84
1/31/2021 3:15:00 PM 0.03 32.054 0.046 12.63 1.86 14.84
1/31/2021 3:30:00 PM 0.02 32.036 0.046 12.63 1.91 14.83
1/31/2021 3:45:00 PM 0.02 32.036 0.046 12.64 1.86 14.83
1/31/2021 4:00:00 PM 0.02 32.036 0.046 12.64 1.88 14.8
1/31/2021 4:15:00 PM 0.03 32.054 0.046 12.63 1.85 14.81
1/31/2021 4:30:00 PM 0.03 32.054 0.046 12.64 1.89 14.78
1/31/2021 4:45:00 PM 0.03 32.054 0.046 12.64 1.93 14.78
1/31/2021 5:00:00 PM 0.03 32.054 0.046 12.64 1.85 14.75
1/31/2021 5:15:00 PM 0.03 32.054 0.046 12.64 1.83 14.73
1/31/2021 5:30:00 PM 0.03 32.054 0.046 12.66 1.84 14.73
1/31/2021 5:45:00 PM 0.02 32.036 0.046 12.65 1.91 14.71
1/31/2021 6:00:00 PM 0.02 32.036 0.046 12.64 1.85 14.7
1/31/2021 6:15:00 PM 0.02 32.036 0.046 12.65 1.8 14.69
1/31/2021 6:30:00 PM 0.02 32.036 0.046 12.66 1.88 14.65
1/31/2021 6:45:00 PM 0.02 32.036 0.047 12.65 1.85 14.65
1/31/2021 7:00:00 PM 0.01 32.018 0.047 12.68 1.82 14.64
1/31/2021 7:15:00 PM 0 32 0.047 12.63 1.84 14.65
1/31/2021 7:30:00 PM -0.01 31.982 0.047 12.63 1.86 14.65
1/31/2021 7:45:00 PM -0.02 31.964 0.047 12.63 1.84 14.66
1/31/2021 8:00:00 PM -0.02 31.964 0.047 12.64 1.82 14.66
1/31/2021 8:15:00 PM -0.03 31.946 0.047 12.63 1.9 14.67
1/31/2021 8:30:00 PM -0.03 31.946 0.047 12.64 1.91 14.68
1/31/2021 8:45:00 PM -0.03 31.946 0.047 12.63 1.89 14.67
1/31/2021 9:00:00 PM -0.03 31.946 0.047 12.66 1.9 14.67
1/31/2021 9:15:00 PM -0.03 31.946 0.047 12.64 1.87 14.68
1/31/2021 9:30:00 PM -0.03 31.946 0.047 12.64 1.91 14.69
1/31/2021 9:45:00 PM -0.03 31.946 0.047 12.63 1.85 14.7
1/31/2021 10:00:00 PM -0.03 31.946 0.047 12.62 1.9 14.7
1/31/2021 10:15:00 PM -0.03 31.946 0.047 12.63 1.87 14.68
1/31/2021 10:30:00 PM -0.03 31.946 0.047 12.64 1.85 14.69
1/31/2021 10:45:00 PM -0.03 31.946 0.047 12.67 1.83 14.69
1/31/2021 11:00:00 PM -0.03 31.946 0.047 12.65 1.85 14.67
1/31/2021 11:15:00 PM -0.03 31.946 0.047 12.66 1.88 14.67
1/31/2021 11:30:00 PM -0.03 31.946 0.047 12.65 1.81 14.68
1/31/2021 11:45:00 PM -0.03 31.946 0.047 12.65 1.83 14.68
2/1/2021 12:00:00 AM -0.03 31.946 0.047 12.7 1.88 14.66
2/1/2021 12:15:00 AM -0.03 31.946 0.047 12.71 1.88 14.66
2/1/2021 12:30:00 AM -0.03 31.946 0.047 12.71 1.85 14.67
2/1/2021 12:45:00 AM -0.03 31.946 0.047 12.68 1.86 14.66
2/1/2021 1:00:00 AM -0.03 31.946 0.047 12.69 1.83 14.64
2/1/2021 1:15:00 AM -0.03 31.946 0.047 12.67 1.83 14.65
2/1/2021 1:30:00 AM -0.03 31.946 0.046 12.65 1.77 14.63
2/1/2021 1:45:00 AM -0.03 31.946 0.046 12.64 1.82 14.62
2/1/2021 2:00:00 AM -0.03 31.946 0.046 12.66 1.79 14.63
2/1/2021 2:15:00 AM -0.03 31.946 0.046 12.67 1.82 14.62
2/1/2021 2:30:00 AM -0.03 31.946 0.046 12.67 1.78 14.61
2/1/2021 2:45:00 AM -0.03 31.946 0.046 12.69 1.82 14.62
2/1/2021 3:00:00 AM -0.03 31.946 0.046 12.67 1.79 14.61
2/1/2021 3:15:00 AM -0.03 31.946 0.046 12.69 1.81 14.61
2/1/2021 3:30:00 AM -0.03 31.946 0.046 12.69 1.84 14.59
2/1/2021 3:45:00 AM -0.03 31.946 0.046 12.72 1.83 14.6
2/1/2021 4:00:00 AM -0.03 31.946 0.046 12.7 1.81 14.58
2/1/2021 4:15:00 AM -0.03 31.946 0.046 12.69 1.82 14.58
2/1/2021 4:30:00 AM -0.03 31.946 0.046 12.7 1.8 14.58
2/1/2021 4:45:00 AM -0.03 31.946 0.046 12.72 1.78 14.57
2/1/2021 5:00:00 AM -0.03 31.946 0.046 12.72 1.76 14.58
2/1/2021 5:15:00 AM -0.03 31.946 0.046 12.69 1.76 14.6
2/1/2021 5:30:00 AM -0.03 31.946 0.046 12.66 1.74 14.6
2/1/2021 5:45:00 AM -0.03 31.946 0.046 12.67 1.77 14.6
2/1/2021 6:00:00 AM -0.03 31.946 0.046 12.67 1.75 14.61
2/1/2021 6:15:00 AM -0.03 31.946 0.046 12.68 1.91 14.62
2/1/2021 6:30:00 AM -0.03 31.946 0.046 12.69 1.91 14.62
2/1/2021 6:45:00 AM -0.03 31.946 0.046 12.69 1.88 14.62
2/1/2021 7:00:00 AM -0.03 31.946 0.046 12.7 1.85 14.61
2/1/2021 7:15:00 AM -0.03 31.946 0.046 12.7 5.46 14.62
2/1/2021 7:30:00 AM -0.03 31.946 0.046 12.71 1.75 14.62
2/1/2021 7:45:00 AM -0.03 31.946 0.046 12.73 1.73 14.63
2/1/2021 8:00:00 AM -0.03 31.946 0.046 12.74 1.76 14.66
2/1/2021 8:15:00 AM -0.03 31.946 0.046 12.74 1.7 14.68
2/1/2021 8:30:00 AM -0.02 31.964 0.046 12.75 1.68 14.69
2/1/2021 8:45:00 AM -0.02 31.964 0.046 12.78 1.72 14.72
2/1/2021 9:00:00 AM -0.01 31.982 0.046 12.8 1.69 14.74
2/1/2021 9:15:00 AM -0.01 31.982 0.046 12.79 1.7 14.79
2/1/2021 9:30:00 AM 0 32 0.046 12.78 1.71 14.8
2/1/2021 9:45:00 AM 0 32 0.046 12.78 1.66 14.82
2/1/2021 10:00:00 AM 0.01 32.018 0.045 12.77 1.73 14.82
2/1/2021 10:15:00 AM 0.02 32.036 0.045 12.8 1.68 14.82
2/1/2021 10:30:00 AM 0.04 32.072 0.045 12.79 1.75 14.8
2/1/2021 10:45:00 AM 0.05 32.09 0.045 12.79 1.7 14.79
2/1/2021 11:00:00 AM 0.07 32.126 0.045 12.81 1.73 14.78
2/1/2021 11:15:00 AM 0.08 32.144 0.045 12.82 1.69 14.79
2/1/2021 11:30:00 AM 0.09 32.162 0.045 12.81 1.74 14.78
2/1/2021 11:45:00 AM 0.09 32.162 0.045 12.82 1.7 14.75
2/1/2021 12:00:00 PM 0.09 32.162 0.045 12.83 1.7 14.75
2/1/2021 12:15:00 PM 0.11 32.198 0.045 12.84 1.75 14.75
2/1/2021 12:30:00 PM 0.14 32.252 0.045 12.85 1.71 14.76
2/1/2021 12:45:00 PM 0.16 32.288 0.045 12.88 1.68 14.75
2/1/2021 1:00:00 PM 0.18 32.324 0.045 12.88 1.65 14.75
2/1/2021 1:15:00 PM 0.2 32.36 0.045 12.9 1.67 14.73
2/1/2021 1:30:00 PM 0.21 32.378 0.045 12.93 2.74 14.72
2/1/2021 1:45:00 PM 0.23 32.414 0.045 12.93 1.66 14.68
2/1/2021 2:00:00 PM 0.25 32.45 0.045 12.96 1.91 14.66
2/1/2021 2:15:00 PM 0.28 32.504 0.045 12.96 1.73 14.62
2/1/2021 2:30:00 PM 0.28 32.504 0.045 12.99 1.82 14.6
2/1/2021 2:45:00 PM 0.29 32.522 0.045 12.97 1.65 14.59
2/1/2021 3:00:00 PM 0.29 32.522 0.045 12.97 1.65 14.55
2/1/2021 3:15:00 PM 0.3 32.54 0.045 12.97 2.17 14.53
2/1/2021 3:30:00 PM 0.3 32.54 0.045 12.97 2.26 14.52
2/1/2021 3:45:00 PM 0.29 32.522 0.045 12.98 1.71 14.49
2/1/2021 4:00:00 PM 0.29 32.522 0.045 12.98 1.79 14.48
2/1/2021 4:15:00 PM 0.28 32.504 0.045 12.99 4.17 14.44
2/1/2021 4:30:00 PM 0.29 32.522 0.045 13 1.96 14.43
2/1/2021 4:45:00 PM 0.28 32.504 0.045 13 1.67 14.41
2/1/2021 5:00:00 PM 0.28 32.504 0.045 12.99 2.25 14.4
2/1/2021 5:15:00 PM 0.28 32.504 0.045 12.99 2.02 14.4
2/1/2021 5:30:00 PM 0.27 32.486 0.045 12.98 1.98 14.39
2/1/2021 5:45:00 PM 0.27 32.486 0.045 12.98 1.8 14.39
2/1/2021 6:00:00 PM 0.26 32.468 0.045 12.98 3.18 14.38
2/1/2021 6:15:00 PM 0.24 32.432 0.045 12.98 1.94 14.37
2/1/2021 6:30:00 PM 0.23 32.414 0.045 12.97 2 14.37
2/1/2021 6:45:00 PM 0.22 32.396 0.045 12.97 1.82 14.36
2/1/2021 7:00:00 PM 0.21 32.378 0.045 12.97 1.79 14.36
2/1/2021 7:15:00 PM 0.21 32.378 0.045 12.97 1.77 14.36
2/1/2021 7:30:00 PM 0.2 32.36 0.045 12.97 1.7 14.36
2/1/2021 7:45:00 PM 0.2 32.36 0.045 12.97 2.05 14.34
2/1/2021 8:00:00 PM 0.2 32.36 0.045 12.96 2.32 14.33
2/1/2021 8:15:00 PM 0.19 32.342 0.046 12.96 3.96 14.33
2/1/2021 8:30:00 PM 0.19 32.342 0.046 12.96 1.89 14.33
2/1/2021 8:45:00 PM 0.18 32.324 0.046 12.96 1.92 14.31
2/1/2021 9:00:00 PM 0.17 32.306 0.046 12.95 1.76 14.34
2/1/2021 9:15:00 PM 0.16 32.288 0.046 12.96 2.35 14.33
2/1/2021 9:30:00 PM 0.15 32.27 0.046 12.96 1.73 14.37
2/1/2021 9:45:00 PM 0.15 32.27 0.046 12.96 1.88 14.37
2/1/2021 10:00:00 PM 0.15 32.27 0.046 12.96 1.83 14.35
2/1/2021 10:15:00 PM 0.15 32.27 0.046 12.96 1.95 14.35
2/1/2021 10:30:00 PM 0.14 32.252 0.046 12.96 2.15 14.37
2/1/2021 10:45:00 PM 0.15 32.27 0.046 12.96 1.77 14.36
2/1/2021 11:00:00 PM 0.15 32.27 0.046 12.96 2.13 14.34
2/1/2021 11:15:00 PM 0.15 32.27 0.046 12.96 1.84 14.33
2/1/2021 11:30:00 PM 0.15 32.27 0.046 12.95 1.71 14.37
2/1/2021 11:45:00 PM 0.15 32.27 0.046 12.96 2.25 14.37
2/2/2021 12:00:00 AM 0.14 32.252 0.046 12.96 1.88 14.36
2/2/2021 12:15:00 AM 0.15 32.27 0.046 12.96 1.93 14.36
2/2/2021 12:30:00 AM 0.14 32.252 0.046 12.96 1.78 14.37
2/2/2021 12:45:00 AM 0.14 32.252 0.046 12.97 1.73 14.39
2/2/2021 1:00:00 AM 0.15 32.27 0.046 12.97 1.78 14.36
2/2/2021 1:15:00 AM 0.15 32.27 0.046 12.97 1.8 14.35
2/2/2021 1:30:00 AM 0.15 32.27 0.046 12.97 1.76 14.37
2/2/2021 1:45:00 AM 0.15 32.27 0.046 12.97 1.71 14.35
2/2/2021 2:00:00 AM 0.14 32.252 0.046 12.97 2.03 14.38
2/2/2021 2:15:00 AM 0.14 32.252 0.046 12.97 1.75 14.39
2/2/2021 2:30:00 AM 0.14 32.252 0.046 12.98 1.75 14.35
2/2/2021 2:45:00 AM 0.14 32.252 0.046 12.98 1.75 14.39
2/2/2021 3:00:00 AM 0.14 32.252 0.046 12.97 1.75 14.38
2/2/2021 3:15:00 AM 0.14 32.252 0.046 12.98 1.72 14.38
2/2/2021 3:30:00 AM 0.14 32.252 0.046 12.98 1.92 14.4
2/2/2021 3:45:00 AM 0.14 32.252 0.046 12.98 1.75 14.37
2/2/2021 4:00:00 AM 0.15 32.27 0.046 12.98 1.68 14.39
2/2/2021 4:15:00 AM 0.14 32.252 0.046 12.98 3.09 14.39
2/2/2021 4:30:00 AM 0.14 32.252 0.046 12.97 2.51 14.37
2/2/2021 4:45:00 AM 0.14 32.252 0.046 12.98 2.78 14.4
2/2/2021 5:00:00 AM 0.13 32.234 0.046 12.97 1.87 14.4
2/2/2021 5:15:00 AM 0.13 32.234 0.046 12.97 1.73 14.4
2/2/2021 5:30:00 AM 0.13 32.234 0.046 12.98 1.7 14.4
2/2/2021 5:45:00 AM 0.12 32.216 0.046 12.97 1.68 14.42
2/2/2021 6:00:00 AM 0.12 32.216 0.046 12.97 3.58 14.4
2/2/2021 6:15:00 AM 0.11 32.198 0.046 12.97 1.75 14.4
2/2/2021 6:30:00 AM 0.11 32.198 0.046 12.98 1.81 14.4
2/2/2021 6:45:00 AM 0.1 32.18 0.046 12.97 1.74 14.44
2/2/2021 7:00:00 AM 0.1 32.18 0.046 12.97 1.75 14.42
2/2/2021 7:15:00 AM 0.1 32.18 0.046 12.96 2.07 14.42
2/2/2021 7:30:00 AM 0.1 32.18 0.046 12.96 1.76 14.42
2/2/2021 7:45:00 AM 0.1 32.18 0.046 12.97 1.83 14.43
2/2/2021 8:00:00 AM 0.1 32.18 0.046 12.97 1.79 14.43
2/2/2021 8:15:00 AM 0.1 32.18 0.046 12.97 1.68 14.45
2/2/2021 8:30:00 AM 0.11 32.198 0.046 12.98 1.82 14.47
2/2/2021 8:45:00 AM 0.12 32.216 0.046 12.98 1.7 14.51
2/2/2021 9:00:00 AM 0.14 32.252 0.046 12.99 1.73 14.55
2/2/2021 9:15:00 AM 0.16 32.288 0.046 13 1.8 14.57
2/2/2021 9:30:00 AM 0.18 32.324 0.046 13.01 1.67 14.58
2/2/2021 9:45:00 AM 0.2 32.36 0.046 13.01 2.11 14.62
2/2/2021 10:00:00 AM 0.22 32.396 0.046 13.02 1.77 14.62
2/2/2021 10:15:00 AM 0.25 32.45 0.046 13.02 1.77 14.64
2/2/2021 10:30:00 AM 0.28 32.504 0.046 13.04 1.67 14.66
2/2/2021 10:45:00 AM 0.32 32.576 0.045 13.04 1.77 14.67
2/2/2021 11:00:00 AM 0.36 32.648 0.045 13.05 1.93 14.66
2/2/2021 11:15:00 AM 0.41 32.738 0.045 13.06 1.65 14.66
2/2/2021 11:30:00 AM 0.44 32.792 0.045 13.07 1.74 14.65
2/2/2021 11:45:00 AM 0.47 32.846 0.045 13.07 2.4 14.6
2/2/2021 12:00:00 PM 0.48 32.864 0.045 13.07 1.91 14.59
2/2/2021 12:15:00 PM 0.5 32.9 0.045 13.08 1.68 14.56
2/2/2021 12:30:00 PM 0.51 32.918 0.045 13.08 1.77 14.55
2/2/2021 12:45:00 PM 0.54 32.972 0.045 13.08 2.14 14.53
2/2/2021 1:00:00 PM 0.54 32.972 0.045 13.08 1.69 14.51
2/2/2021 1:15:00 PM 0.55 32.99 0.045 13.09 1.75 14.49
2/2/2021 1:30:00 PM 0.56 33.008 0.045 13.1 1.8 14.5
2/2/2021 1:45:00 PM 0.56 33.008 0.045 13.09 2.51 14.5
2/2/2021 2:00:00 PM 0.55 32.99 0.045 13.1 1.77 14.52
2/2/2021 2:15:00 PM 0.53 32.954 0.045 13.1 1.85 14.5
2/2/2021 2:30:00 PM 0.49 32.882 0.045 13.09 1.75 14.49
2/2/2021 2:45:00 PM 0.49 32.882 0.045 13.09 1.79 14.51
2/2/2021 3:00:00 PM 0.48 32.864 0.045 13.09 1.85 14.51
2/2/2021 3:15:00 PM 0.47 32.846 0.045 13.09 1.76 14.53
2/2/2021 3:30:00 PM 0.46 32.828 0.045 13.09 1.64 14.51
2/2/2021 3:45:00 PM 0.44 32.792 0.045 13.09 1.66 14.52
2/2/2021 4:00:00 PM 0.44 32.792 0.045 13.09 1.81 14.54
2/2/2021 4:15:00 PM 0.43 32.774 0.045 13.09 1.68 14.54
2/2/2021 4:30:00 PM 0.41 32.738 0.045 13.09 1.69 14.53
2/2/2021 4:45:00 PM 0.4 32.72 0.045 13.09 1.72 14.51
2/2/2021 5:00:00 PM 0.36 32.648 0.045 13.08 1.82 14.53
2/2/2021 5:15:00 PM 0.34 32.612 0.045 13.07 1.82 14.5
2/2/2021 5:30:00 PM 0.32 32.576 0.045 13.07 1.69 14.45
2/2/2021 5:45:00 PM 0.27 32.486 0.045 13.07 1.74 14.49
2/2/2021 6:00:00 PM 0.27 32.486 0.045 13.06 1.86 14.44
2/2/2021 6:15:00 PM 0.23 32.414 0.045 13.06 3.49 14.44
2/2/2021 6:30:00 PM 0.22 32.396 0.045 13.04 1.67 14.4
2/2/2021 6:45:00 PM 0.19 32.342 0.046 13.04 1.75 14.42
2/2/2021 7:00:00 PM 0.16 32.288 0.046 13.04 1.78 14.43
2/2/2021 7:15:00 PM 0.15 32.27 0.046 13.03 2.01 14.39
2/2/2021 7:30:00 PM 0.12 32.216 0.046 13.03 1.79 14.42
2/2/2021 7:45:00 PM 0.12 32.216 0.046 13.02 1.74 14.38
2/2/2021 8:00:00 PM 0.09 32.162 0.046 13.02 1.67 14.43
2/2/2021 8:15:00 PM 0.1 32.18 0.046 13.03 1.83 14.37
2/2/2021 8:30:00 PM 0.04 32.072 0.046 13.03 1.74 14.42
2/2/2021 8:45:00 PM 0.01 32.018 0.046 13.02 1.77 14.42
2/2/2021 9:00:00 PM 0 32 0.046 13.02 1.75 14.44
2/2/2021 9:15:00 PM 0 32 0.046 13.01 1.73 14.42
2/2/2021 9:30:00 PM 0 32 0.046 13.01 2.1 14.46
2/2/2021 9:45:00 PM 0 32 0.046 13.02 1.75 14.42
2/2/2021 10:00:00 PM 0 32 0.046 13.02 1.72 14.43
2/2/2021 10:15:00 PM 0 32 0.046 13.01 1.8 14.46
2/2/2021 10:30:00 PM 0 32 0.046 13.02 1.74 14.43
2/2/2021 10:45:00 PM 0.01 32.018 0.046 13.02 1.8 14.47
2/2/2021 11:00:00 PM 0.03 32.054 0.046 13.02 1.76 14.44
2/2/2021 11:15:00 PM 0.05 32.09 0.046 13.02 1.83 14.44
2/2/2021 11:30:00 PM 0.07 32.126 0.046 13.03 1.71 14.43
2/2/2021 11:45:00 PM 0.09 32.162 0.046 13.02 1.75 14.4
2/3/2021 12:00:00 AM 0.1 32.18 0.046 13.02 1.77 14.39
2/3/2021 12:15:00 AM 0.12 32.216 0.046 13.03 1.72 14.4
2/3/2021 12:30:00 AM 0.13 32.234 0.046 13.03 1.7 14.39
2/3/2021 12:45:00 AM 0.14 32.252 0.046 13.04 1.77 14.4
2/3/2021 1:00:00 AM 0.14 32.252 0.046 13.04 1.73 14.36
2/3/2021 1:15:00 AM 0.15 32.27 0.046 13.04 1.81 14.36
2/3/2021 1:30:00 AM 0.16 32.288 0.046 13.04 1.74 14.37
2/3/2021 1:45:00 AM 0.17 32.306 0.046 13.04 1.7 14.38
2/3/2021 2:00:00 AM 0.18 32.324 0.046 13.05 1.78 14.37
2/3/2021 2:15:00 AM 0.18 32.324 0.046 13.05 1.87 14.38
2/3/2021 2:30:00 AM 0.18 32.324 0.046 13.04 1.75 14.37
2/3/2021 2:45:00 AM 0.18 32.324 0.046 13.05 1.72 14.35
2/3/2021 3:00:00 AM 0.18 32.324 0.046 13.05 1.68 14.37
2/3/2021 3:15:00 AM 0.18 32.324 0.046 13.05 1.79 14.36
2/3/2021 3:30:00 AM 0.19 32.342 0.046 13.05 1.76 14.34
2/3/2021 3:45:00 AM 0.18 32.324 0.046 13.05 1.74 14.35
2/3/2021 4:00:00 AM 0.18 32.324 0.046 13.05 1.78 14.37
2/3/2021 4:15:00 AM 0.19 32.342 0.046 13.05 1.68 14.35
2/3/2021 4:30:00 AM 0.19 32.342 0.046 13.06 1.76 14.34
2/3/2021 4:45:00 AM 0.18 32.324 0.046 13.06 1.69 14.37
2/3/2021 5:00:00 AM 0.18 32.324 0.046 13.06 1.74 14.37
2/3/2021 5:15:00 AM 0.17 32.306 0.046 13.06 1.73 14.37
2/3/2021 5:30:00 AM 0.19 32.342 0.046 13.05 1.67 14.31
2/3/2021 5:45:00 AM 0.17 32.306 0.046 13.07 1.77 14.36
2/3/2021 6:00:00 AM 0.16 32.288 0.046 13.07 1.78 14.36
2/3/2021 6:15:00 AM 0.15 32.27 0.046 13.06 1.82 14.37
2/3/2021 6:30:00 AM 0.13 32.234 0.046 13.06 1.86 14.39
2/3/2021 6:45:00 AM 0.14 32.252 0.046 13.05 1.74 14.34
2/3/2021 7:00:00 AM 0.15 32.27 0.046 13.05 1.76 14.35
2/3/2021 7:15:00 AM 0.14 32.252 0.046 13.05 1.65 14.38
2/3/2021 7:30:00 AM 0.14 32.252 0.046 13.05 1.7 14.37
2/3/2021 7:45:00 AM 0.13 32.234 0.046 13.05 1.71 14.39
2/3/2021 8:00:00 AM 0.12 32.216 0.046 13.05 1.69 14.42
2/3/2021 8:15:00 AM 0.13 32.234 0.046 13.06 1.69 14.43
2/3/2021 8:30:00 AM 0.11 32.198 0.046 13.06 1.68 14.46
2/3/2021 8:45:00 AM 0.1 32.18 0.046 13.07 1.69 14.52
2/3/2021 9:00:00 AM 0.11 32.198 0.046 13.07 1.9 14.55
2/3/2021 9:15:00 AM 0.12 32.216 0.046 13.07 2.16 14.57
2/3/2021 9:30:00 AM 0.14 32.252 0.046 13.07 1.7 14.56
2/3/2021 9:45:00 AM 0.15 32.27 0.046 13.08 3.02 14.62
2/3/2021 10:00:00 AM 0.17 32.306 0.046 13.08 1.62 14.62
2/3/2021 10:15:00 AM 0.2 32.36 0.046 13.1 1.73 14.65
2/3/2021 10:30:00 AM 0.24 32.432 0.045 13.08 1.68 14.6
2/3/2021 10:45:00 AM 0.28 32.504 0.045 13.1 1.6 14.68
2/3/2021 11:00:00 AM 0.31 32.558 0.045 13.11 1.64 14.63
2/3/2021 11:15:00 AM 0.34 32.612 0.045 13.11 1.61 14.63
2/3/2021 11:30:00 AM 0.37 32.666 0.045 13.11 1.64 14.57
2/3/2021 11:45:00 AM 0.38 32.684 0.045 13.12 1.69 14.59
2/3/2021 12:00:00 PM 0.42 32.756 0.045 13.13 1.64 14.58
2/3/2021 12:15:00 PM 0.49 32.882 0.045 13.14 1.6 14.59
2/3/2021 12:30:00 PM 0.53 32.954 0.045 13.15 1.67 14.56
2/3/2021 12:45:00 PM 0.6 33.08 0.045 13.15 1.65 14.51
2/3/2021 1:00:00 PM 0.67 33.206 0.045 13.16 1.61 14.52
2/3/2021 1:15:00 PM 0.76 33.368 0.045 13.17 1.63 14.51
2/3/2021 1:30:00 PM 0.85 33.53 0.045 13.18 1.64 14.46
2/3/2021 1:45:00 PM 0.95 33.71 0.045 13.18 1.66 14.4
2/3/2021 2:00:00 PM 1.1 33.98 0.045 13.18 1.64 14.33
2/3/2021 2:15:00 PM 1.19 34.142 0.045 13.21 1.63 14.26
2/3/2021 2:30:00 PM 1.31 34.358 0.045 13.22 1.67 14.24
2/3/2021 2:45:00 PM 1.41 34.538 0.045 13.22 1.64 14.2
2/3/2021 3:00:00 PM 1.49 34.682 0.045 13.26 1.61 14.17
2/3/2021 3:15:00 PM 1.48 34.664 0.045 13.26 1.67 14.15
2/3/2021 3:30:00 PM 1.48 34.664 0.045 13.27 1.64 14.12
2/3/2021 3:45:00 PM 1.51 34.718 0.045 13.27 1.7 14.14
2/3/2021 4:00:00 PM 1.48 34.664 0.045 13.28 1.66 14.14
2/3/2021 4:15:00 PM 1.44 34.592 0.045 13.28 1.63 14.15
2/3/2021 4:30:00 PM 1.37 34.466 0.045 13.29 1.63 14.18
2/3/2021 4:45:00 PM 1.28 34.304 0.045 13.28 1.61 14.19
2/3/2021 5:00:00 PM 1.15 34.07 0.045 13.28 2.13 14.22
2/3/2021 5:15:00 PM 1.07 33.926 0.045 13.27 3.96 14.25
2/3/2021 5:30:00 PM 0.96 33.728 0.045 13.25 1.73 14.26
2/3/2021 5:45:00 PM 0.88 33.584 0.045 13.25 1.69 14.27
2/3/2021 6:00:00 PM 0.8 33.44 0.045 13.23 1.71 14.29
2/3/2021 6:15:00 PM 0.72 33.296 0.045 13.22 1.77 14.3
2/3/2021 6:30:00 PM 0.65 33.17 0.045 13.2 1.68 14.31
2/3/2021 6:45:00 PM 0.57 33.026 0.045 13.2 1.69 14.34
2/3/2021 7:00:00 PM 0.51 32.918 0.045 13.19 1.96 14.34
2/3/2021 7:15:00 PM 0.43 32.774 0.045 13.19 1.71 14.37
2/3/2021 7:30:00 PM 0.37 32.666 0.045 13.17 1.71 14.39
2/3/2021 7:45:00 PM 0.32 32.576 0.046 13.17 1.72 14.41
2/3/2021 8:00:00 PM 0.27 32.486 0.046 13.17 1.71 14.43
2/3/2021 8:15:00 PM 0.23 32.414 0.046 13.16 1.66 14.45
2/3/2021 8:30:00 PM 0.19 32.342 0.046 13.16 1.74 14.46
2/3/2021 8:45:00 PM 0.16 32.288 0.046 13.15 1.69 14.49
2/3/2021 9:00:00 PM 0.11 32.198 0.046 13.15 1.86 14.5
2/3/2021 9:15:00 PM 0.07 32.126 0.046 13.14 1.72 14.51
2/3/2021 9:30:00 PM 0.05 32.09 0.046 13.15 1.73 14.52
2/3/2021 9:45:00 PM 0.02 32.036 0.046 13.13 1.73 14.55
2/3/2021 10:00:00 PM 0.02 32.036 0.046 13.13 1.9 14.53
2/3/2021 10:15:00 PM -0.02 31.964 0.046 13.14 1.72 14.57
2/3/2021 10:30:00 PM -0.01 31.982 0.046 13.12 1.73 14.54
2/3/2021 10:45:00 PM -0.01 31.982 0.046 13.12 1.73 14.54
2/3/2021 11:00:00 PM -0.01 31.982 0.046 13.12 1.71 14.52
2/3/2021 11:15:00 PM 0 32 0.046 13.12 1.68 14.56
2/3/2021 11:30:00 PM -0.01 31.982 0.046 13.12 1.88 14.58
2/3/2021 11:45:00 PM -0.01 31.982 0.046 13.12 1.67 14.57
2/4/2021 12:00:00 AM -0.01 31.982 0.046 13.13 1.66 14.6
2/4/2021 12:15:00 AM -0.01 31.982 0.046 13.13 1.74 14.59
2/4/2021 12:30:00 AM -0.01 31.982 0.046 13.13 1.73 14.62
2/4/2021 12:45:00 AM -0.01 31.982 0.046 13.15 1.75 14.61
2/4/2021 1:00:00 AM -0.01 31.982 0.046 13.15 1.73 14.6
2/4/2021 1:15:00 AM -0.01 31.982 0.046 13.15 1.79 14.62
2/4/2021 1:30:00 AM -0.01 31.982 0.046 13.16 1.71 14.62
2/4/2021 1:45:00 AM -0.01 31.982 0.046 13.15 1.8 14.64
2/4/2021 2:00:00 AM -0.01 31.982 0.046 13.15 2.35 14.61
2/4/2021 2:15:00 AM -0.01 31.982 0.046 13.15 2.49 14.63
2/4/2021 2:30:00 AM -0.01 31.982 0.046 13.16 1.89 14.63
2/4/2021 2:45:00 AM -0.02 31.964 0.046 13.15 1.73 14.66
2/4/2021 3:00:00 AM -0.02 31.964 0.046 13.15 1.74 14.65
2/4/2021 3:15:00 AM -0.01 31.982 0.046 13.16 1.75 14.65
2/4/2021 3:30:00 AM -0.02 31.964 0.046 13.15 1.76 14.66
2/4/2021 3:45:00 AM -0.02 31.964 0.046 13.15 1.93 14.67
2/4/2021 4:00:00 AM -0.02 31.964 0.047 13.15 1.7 14.68
2/4/2021 4:15:00 AM -0.02 31.964 0.047 13.15 1.67 14.68
2/4/2021 4:30:00 AM -0.02 31.964 0.047 13.16 1.68 14.69
2/4/2021 4:45:00 AM -0.02 31.964 0.047 13.15 1.76 14.68
2/4/2021 5:00:00 AM -0.02 31.964 0.047 13.15 1.69 14.7
2/4/2021 5:15:00 AM -0.02 31.964 0.047 13.15 1.77 14.7
2/4/2021 5:30:00 AM -0.02 31.964 0.047 13.15 1.67 14.7
2/4/2021 5:45:00 AM -0.02 31.964 0.047 13.15 1.72 14.7
2/4/2021 6:00:00 AM -0.02 31.964 0.047 13.15 1.66 14.71
2/4/2021 6:15:00 AM -0.02 31.964 0.047 13.15 1.68 14.7
2/4/2021 6:30:00 AM -0.02 31.964 0.047 13.15 1.65 14.72
2/4/2021 6:45:00 AM -0.03 31.946 0.047 13.15 1.78 14.72
2/4/2021 7:00:00 AM -0.02 31.964 0.047 13.15 1.62 14.71
2/4/2021 7:15:00 AM -0.03 31.946 0.047 13.15 1.77 14.72
2/4/2021 7:30:00 AM -0.02 31.964 0.047 13.15 6.86 14.7
2/4/2021 7:45:00 AM -0.02 31.964 0.047 13.15 1.96 14.75
2/4/2021 8:00:00 AM -0.02 31.964 0.047 13.16 1.82 14.77
2/4/2021 8:15:00 AM -0.02 31.964 0.047 13.16 3.66 14.81
2/4/2021 8:30:00 AM -0.02 31.964 0.047 13.16 1.65 14.82
2/4/2021 8:45:00 AM -0.02 31.964 0.047 13.16 1.66 14.85
2/4/2021 9:00:00 AM -0.02 31.964 0.047 13.16 1.64 14.88
2/4/2021 9:15:00 AM -0.02 31.964 0.047 13.17 1.78 14.9
2/4/2021 9:30:00 AM -0.02 31.964 0.047 13.16 1.68 14.91
2/4/2021 9:45:00 AM -0.02 31.964 0.047 13.16 1.6 14.93
2/4/2021 10:00:00 AM -0.01 31.982 0.047 13.16 1.67 14.96
2/4/2021 10:15:00 AM 0 32 0.047 13.16 1.72 14.97
2/4/2021 10:30:00 AM 0.01 32.018 0.047 13.16 1.73 14.96
2/4/2021 10:45:00 AM 0.01 32.018 0.047 13.15 1.64 14.97
2/4/2021 11:00:00 AM 0.01 32.018 0.047 13.14 1.64 14.97
2/4/2021 11:15:00 AM 0.01 32.018 0.047 13.14 1.86 14.95
2/4/2021 11:30:00 AM 0.01 32.018 0.047 13.13 1.73 14.95
2/4/2021 11:45:00 AM 0.01 32.018 0.046 13.13 1.81 14.95
2/4/2021 12:00:00 PM 0.01 32.018 0.046 13.14 1.66 14.94
2/4/2021 12:15:00 PM 0.01 32.018 0.046 13.13 1.71 14.95
2/4/2021 12:30:00 PM 0.01 32.018 0.046 13.13 1.76 14.94
2/4/2021 12:45:00 PM 0 32 0.046 13.12 1.69 14.9
2/4/2021 1:00:00 PM 0.01 32.018 0.046 13.16 1.77 14.88
2/4/2021 1:15:00 PM 0 32 0.046 13.14 1.8 14.87
2/4/2021 1:30:00 PM 0 32 0.045 13.08 1.83 14.82
2/4/2021 1:45:00 PM 0 32 0.045 13.07 1.87 14.74
2/4/2021 2:00:00 PM 0 32 0.045 13.13 1.92 14.68
2/4/2021 2:15:00 PM 0 32 0.045 13.11 1.88 14.62
2/4/2021 2:30:00 PM 0 32 0.045 13.09 1.95 14.58
2/4/2021 2:45:00 PM 0 32 0.045 13.08 1.88 14.55
2/4/2021 3:00:00 PM 0 32 0.045 13.1 2.11 14.53
2/4/2021 3:15:00 PM -0.01 31.982 0.045 13.1 2.26 14.49
2/4/2021 3:30:00 PM 0.07 32.126 0.045 13.1 2.11 14.44
2/4/2021 3:45:00 PM 0.25 32.45 0.045 13.12 2.06 14.44
2/4/2021 4:00:00 PM 0.41 32.738 0.045 13.17 1.82 14.44
2/4/2021 4:15:00 PM 0.5 32.9 0.045 13.22 1.78 14.45
2/4/2021 4:30:00 PM 0.48 32.864 0.045 13.26 1.85 14.44
2/4/2021 4:45:00 PM 0.47 32.846 0.045 13.27 1.81 14.41
2/4/2021 5:00:00 PM 0.45 32.81 0.045 13.25 2.7 14.36
2/4/2021 5:15:00 PM 0.43 32.774 0.046 13.25 1.87 14.33
2/4/2021 5:30:00 PM 0.39 32.702 0.046 13.24 1.7 14.3
2/4/2021 5:45:00 PM 0.33 32.594 0.046 13.23 1.75 14.28
2/4/2021 6:00:00 PM 0.27 32.486 0.046 13.23 1.73 14.29
2/4/2021 6:15:00 PM 0.23 32.414 0.046 13.22 1.74 14.28
2/4/2021 6:30:00 PM 0.23 32.414 0.046 13.2 1.78 14.21
2/4/2021 6:45:00 PM 0.19 32.342 0.046 13.2 1.8 14.27
2/4/2021 7:00:00 PM 0.17 32.306 0.046 13.2 1.73 14.28
2/4/2021 7:15:00 PM 0.15 32.27 0.046 13.2 1.8 14.26
2/4/2021 7:30:00 PM 0.15 32.27 0.046 13.19 1.75 14.26
2/4/2021 7:45:00 PM 0.13 32.234 0.047 13.19 2.05 14.26
2/4/2021 8:00:00 PM 0.13 32.234 0.047 13.18 1.78 14.28
2/4/2021 8:15:00 PM 0.12 32.216 0.047 13.17 1.82 14.25
2/4/2021 8:30:00 PM 0.12 32.216 0.047 13.17 1.79 14.23
2/4/2021 8:45:00 PM 0.11 32.198 0.047 13.16 1.8 14.26
2/4/2021 9:00:00 PM 0.1 32.18 0.047 13.17 1.84 14.29
2/4/2021 9:15:00 PM 0.1 32.18 0.047 13.16 1.85 14.27
2/4/2021 9:30:00 PM 0.11 32.198 0.047 13.16 1.8 14.25
2/4/2021 9:45:00 PM 0.1 32.18 0.047 13.17 2.44 14.25
2/4/2021 10:00:00 PM 0.11 32.198 0.047 13.16 3.72 14.27
2/4/2021 10:15:00 PM 0.11 32.198 0.047 13.17 2.83 14.25
2/4/2021 10:30:00 PM 0.12 32.216 0.047 13.17 2.74 14.26
2/4/2021 10:45:00 PM 0.13 32.234 0.047 13.16 2.1 14.25
2/4/2021 11:00:00 PM 0.13 32.234 0.047 13.18 2.14 14.28
2/4/2021 11:15:00 PM 0.14 32.252 0.047 13.18 1.91 14.28
2/4/2021 11:30:00 PM 0.15 32.27 0.047 13.18 3.93 14.32
2/4/2021 11:45:00 PM 0.16 32.288 0.047 13.19 1.75 14.33
2/5/2021 12:00:00 AM 0.17 32.306 0.047 13.18 1.87 14.31
2/5/2021 12:15:00 AM 0.19 32.342 0.047 13.19 1.77 14.28
2/5/2021 12:30:00 AM 0.2 32.36 0.047 13.19 1.89 14.3
2/5/2021 12:45:00 AM 0.21 32.378 0.047 13.21 1.74 14.33
2/5/2021 1:00:00 AM 0.23 32.414 0.047 13.21 1.88 14.29
2/5/2021 1:15:00 AM 0.25 32.45 0.047 13.21 1.73 14.3
2/5/2021 1:30:00 AM 0.27 32.486 0.047 13.22 1.83 14.28
2/5/2021 1:45:00 AM 0.29 32.522 0.047 13.22 1.92 14.3
2/5/2021 2:00:00 AM 0.31 32.558 0.047 13.23 1.74 14.27
2/5/2021 2:15:00 AM 0.33 32.594 0.047 13.22 1.74 14.28
2/5/2021 2:30:00 AM 0.35 32.63 0.047 13.23 1.79 14.27
2/5/2021 2:45:00 AM 0.37 32.666 0.047 13.24 2.07 14.24
2/5/2021 3:00:00 AM 0.38 32.684 0.047 13.24 3.02 14.26
2/5/2021 3:15:00 AM 0.39 32.702 0.047 13.24 1.99 14.22
2/5/2021 3:30:00 AM 0.39 32.702 0.047 13.25 2.9 14.22
2/5/2021 3:45:00 AM 0.4 32.72 0.047 13.25 1.82 14.24
2/5/2021 4:00:00 AM 0.4 32.72 0.047 13.25 1.72 14.24
2/5/2021 4:15:00 AM 0.41 32.738 0.047 13.25 1.78 14.24
2/5/2021 4:30:00 AM 0.41 32.738 0.047 13.25 2.02 14.24
2/5/2021 4:45:00 AM 0.42 32.756 0.047 13.26 1.74 14.23
2/5/2021 5:00:00 AM 0.44 32.792 0.047 13.25 1.84 14.24
2/5/2021 5:15:00 AM 0.44 32.792 0.047 13.25 1.75 14.23
2/5/2021 5:30:00 AM 0.44 32.792 0.047 13.27 2.19 14.22
2/5/2021 5:45:00 AM 0.45 32.81 0.047 13.27 1.77 14.22
2/5/2021 6:00:00 AM 0.44 32.792 0.047 13.26 1.84 14.21
2/5/2021 6:15:00 AM 0.46 32.828 0.047 13.27 1.7 14.22
2/5/2021 6:30:00 AM 0.48 32.864 0.047 13.27 1.83 14.21
2/5/2021 6:45:00 AM 0.49 32.882 0.047 13.27 1.8 14.2
2/5/2021 7:00:00 AM 0.51 32.918 0.047 13.27 1.69 14.21
2/5/2021 7:15:00 AM 0.51 32.918 0.047 13.28 1.75 14.19
2/5/2021 7:30:00 AM 0.53 32.954 0.047 13.28 1.73 14.18
2/5/2021 7:45:00 AM 0.57 33.026 0.047 13.29 1.97 14.19
2/5/2021 8:00:00 AM 0.59 33.062 0.047 13.29 1.75 14.18
2/5/2021 8:15:00 AM 0.61 33.098 0.046 13.29 1.71 14.21
2/5/2021 8:30:00 AM 0.65 33.17 0.046 13.31 1.68 14.25
2/5/2021 8:45:00 AM 0.68 33.224 0.046 13.31 1.69 14.27
2/5/2021 9:00:00 AM 0.69 33.242 0.046 13.3 1.7 14.26
2/